<?xml version="1.0" encoding="UTF-8" standalone="no" ?>
<gpx xmlns="http://www.topografix.com/GPX/1/1" xmlns:xsi="http://www.w3.org/2001/XMLSchema-instance" xsi:schemaLocation="http://www.topografix.com/GPX/1/1 http://www.topografix.com/GPX/1/1/gpx.xsd" version="1.1" creator="VisuGPX - https://www.visugpx.com">
  <metadata>
    <name>Aiguille du Fruit</name>
    <desc><![CDATA[4.2 E2
40/400m
http://www.skitour.fr/actu/2925-3-randonneurs-surpris-par-une-avalanche-a-l-aiguille-du-fruit]]></desc>
  </metadata>
  <trk>
    <name><![CDATA[ACTIVE LOG- 01 AVR 2013 08-43]]></name>
    <trkseg>
      <trkpt lat="45.36854" lon="6.58442">
        <ele>1812.7</ele>
        <time>2013-04-01T07:43:59Z</time>
      </trkpt>
      <trkpt lat="45.36849" lon="6.58443">
        <ele>1810.3</ele>
        <time>2013-04-01T07:44:31Z</time>
      </trkpt>
      <trkpt lat="45.36833" lon="6.58452">
        <ele>1809.82</ele>
        <time>2013-04-01T07:44:47Z</time>
      </trkpt>
      <trkpt lat="45.36816" lon="6.58456">
        <ele>1808.86</ele>
        <time>2013-04-01T07:45:01Z</time>
      </trkpt>
      <trkpt lat="45.368" lon="6.58462">
        <ele>1808.38</ele>
        <time>2013-04-01T07:45:15Z</time>
      </trkpt>
      <trkpt lat="45.36781" lon="6.58472">
        <ele>1807.9</ele>
        <time>2013-04-01T07:45:31Z</time>
      </trkpt>
      <trkpt lat="45.36767" lon="6.58477">
        <ele>1806.94</ele>
        <time>2013-04-01T07:45:41Z</time>
      </trkpt>
      <trkpt lat="45.36748" lon="6.58482">
        <ele>1805.97</ele>
        <time>2013-04-01T07:45:56Z</time>
      </trkpt>
      <trkpt lat="45.3673" lon="6.58481">
        <ele>1805.97</ele>
        <time>2013-04-01T07:46:11Z</time>
      </trkpt>
      <trkpt lat="45.36715" lon="6.5849">
        <ele>1805.01</ele>
        <time>2013-04-01T07:46:24Z</time>
      </trkpt>
      <trkpt lat="45.36702" lon="6.58506">
        <ele>1804.53</ele>
        <time>2013-04-01T07:46:37Z</time>
      </trkpt>
      <trkpt lat="45.36689" lon="6.58526">
        <ele>1804.05</ele>
        <time>2013-04-01T07:46:53Z</time>
      </trkpt>
      <trkpt lat="45.3668" lon="6.58538">
        <ele>1804.05</ele>
        <time>2013-04-01T07:47:04Z</time>
      </trkpt>
      <trkpt lat="45.36676" lon="6.5854">
        <ele>1804.05</ele>
        <time>2013-04-01T07:47:07Z</time>
      </trkpt>
      <trkpt lat="45.3666" lon="6.58546">
        <ele>1803.57</ele>
        <time>2013-04-01T07:47:21Z</time>
      </trkpt>
      <trkpt lat="45.36641" lon="6.58554">
        <ele>1805.01</ele>
        <time>2013-04-01T07:47:39Z</time>
      </trkpt>
      <trkpt lat="45.3663" lon="6.58557">
        <ele>1805.49</ele>
        <time>2013-04-01T07:47:49Z</time>
      </trkpt>
      <trkpt lat="45.3662" lon="6.58556">
        <ele>1805.97</ele>
        <time>2013-04-01T07:47:57Z</time>
      </trkpt>
      <trkpt lat="45.36611" lon="6.58556">
        <ele>1806.94</ele>
        <time>2013-04-01T07:48:06Z</time>
      </trkpt>
      <trkpt lat="45.36596" lon="6.5855">
        <ele>1807.42</ele>
        <time>2013-04-01T07:48:23Z</time>
      </trkpt>
      <trkpt lat="45.36588" lon="6.58547">
        <ele>1807.9</ele>
        <time>2013-04-01T07:48:35Z</time>
      </trkpt>
      <trkpt lat="45.36588" lon="6.58547">
        <ele>1807.42</ele>
        <time>2013-04-01T07:48:39Z</time>
      </trkpt>
      <trkpt lat="45.36589" lon="6.58547">
        <ele>1806.45</ele>
        <time>2013-04-01T07:48:51Z</time>
      </trkpt>
      <trkpt lat="45.36589" lon="6.58549">
        <ele>1805.49</ele>
        <time>2013-04-01T07:49:12Z</time>
      </trkpt>
      <trkpt lat="45.36589" lon="6.58548">
        <ele>1804.53</ele>
        <time>2013-04-01T07:49:27Z</time>
      </trkpt>
      <trkpt lat="45.36572" lon="6.58542">
        <ele>1804.53</ele>
        <time>2013-04-01T07:49:41Z</time>
      </trkpt>
      <trkpt lat="45.36547" lon="6.58541">
        <ele>1804.53</ele>
        <time>2013-04-01T07:50:00Z</time>
      </trkpt>
      <trkpt lat="45.36522" lon="6.58544">
        <ele>1803.57</ele>
        <time>2013-04-01T07:50:19Z</time>
      </trkpt>
      <trkpt lat="45.36495" lon="6.58548">
        <ele>1802.61</ele>
        <time>2013-04-01T07:50:40Z</time>
      </trkpt>
      <trkpt lat="45.36476" lon="6.58553">
        <ele>1802.13</ele>
        <time>2013-04-01T07:50:55Z</time>
      </trkpt>
      <trkpt lat="45.36454" lon="6.58563">
        <ele>1801.17</ele>
        <time>2013-04-01T07:51:10Z</time>
      </trkpt>
      <trkpt lat="45.36437" lon="6.58572">
        <ele>1800.21</ele>
        <time>2013-04-01T07:51:22Z</time>
      </trkpt>
      <trkpt lat="45.36421" lon="6.58582">
        <ele>1799.24</ele>
        <time>2013-04-01T07:51:33Z</time>
      </trkpt>
      <trkpt lat="45.36401" lon="6.586">
        <ele>1798.28</ele>
        <time>2013-04-01T07:51:53Z</time>
      </trkpt>
      <trkpt lat="45.36376" lon="6.58623">
        <ele>1797.8</ele>
        <time>2013-04-01T07:52:18Z</time>
      </trkpt>
      <trkpt lat="45.36365" lon="6.58641">
        <ele>1797.32</ele>
        <time>2013-04-01T07:52:32Z</time>
      </trkpt>
      <trkpt lat="45.36357" lon="6.58664">
        <ele>1796.36</ele>
        <time>2013-04-01T07:52:48Z</time>
      </trkpt>
      <trkpt lat="45.36348" lon="6.58687">
        <ele>1796.36</ele>
        <time>2013-04-01T07:53:02Z</time>
      </trkpt>
      <trkpt lat="45.36336" lon="6.58709">
        <ele>1796.36</ele>
        <time>2013-04-01T07:53:20Z</time>
      </trkpt>
      <trkpt lat="45.36322" lon="6.58725">
        <ele>1796.36</ele>
        <time>2013-04-01T07:53:35Z</time>
      </trkpt>
      <trkpt lat="45.36308" lon="6.58741">
        <ele>1795.4</ele>
        <time>2013-04-01T07:53:49Z</time>
      </trkpt>
      <trkpt lat="45.36297" lon="6.58754">
        <ele>1794.44</ele>
        <time>2013-04-01T07:54:01Z</time>
      </trkpt>
      <trkpt lat="45.36284" lon="6.58763">
        <ele>1793.96</ele>
        <time>2013-04-01T07:54:12Z</time>
      </trkpt>
      <trkpt lat="45.36282" lon="6.58765">
        <ele>1793.48</ele>
        <time>2013-04-01T07:54:14Z</time>
      </trkpt>
      <trkpt lat="45.36263" lon="6.58778">
        <ele>1792.52</ele>
        <time>2013-04-01T07:54:30Z</time>
      </trkpt>
      <trkpt lat="45.36242" lon="6.58789">
        <ele>1791.55</ele>
        <time>2013-04-01T07:54:46Z</time>
      </trkpt>
      <trkpt lat="45.36224" lon="6.58801">
        <ele>1790.59</ele>
        <time>2013-04-01T07:55:02Z</time>
      </trkpt>
      <trkpt lat="45.36214" lon="6.58813">
        <ele>1790.59</ele>
        <time>2013-04-01T07:55:11Z</time>
      </trkpt>
      <trkpt lat="45.36191" lon="6.5882">
        <ele>1789.63</ele>
        <time>2013-04-01T07:55:28Z</time>
      </trkpt>
      <trkpt lat="45.3617" lon="6.58823">
        <ele>1789.63</ele>
        <time>2013-04-01T07:55:45Z</time>
      </trkpt>
      <trkpt lat="45.36143" lon="6.58819">
        <ele>1788.67</ele>
        <time>2013-04-01T07:56:05Z</time>
      </trkpt>
      <trkpt lat="45.36121" lon="6.5882">
        <ele>1787.71</ele>
        <time>2013-04-01T07:56:22Z</time>
      </trkpt>
      <trkpt lat="45.36098" lon="6.58821">
        <ele>1786.75</ele>
        <time>2013-04-01T07:56:39Z</time>
      </trkpt>
      <trkpt lat="45.36096" lon="6.58821">
        <ele>1786.75</ele>
        <time>2013-04-01T07:56:40Z</time>
      </trkpt>
      <trkpt lat="45.3608" lon="6.58827">
        <ele>1786.27</ele>
        <time>2013-04-01T07:56:56Z</time>
      </trkpt>
      <trkpt lat="45.36061" lon="6.58842">
        <ele>1785.31</ele>
        <time>2013-04-01T07:57:14Z</time>
      </trkpt>
      <trkpt lat="45.36047" lon="6.58857">
        <ele>1784.34</ele>
        <time>2013-04-01T07:57:28Z</time>
      </trkpt>
      <trkpt lat="45.36034" lon="6.58867">
        <ele>1783.86</ele>
        <time>2013-04-01T07:57:39Z</time>
      </trkpt>
      <trkpt lat="45.36018" lon="6.58881">
        <ele>1783.38</ele>
        <time>2013-04-01T07:57:54Z</time>
      </trkpt>
      <trkpt lat="45.36003" lon="6.58893">
        <ele>1783.38</ele>
        <time>2013-04-01T07:58:08Z</time>
      </trkpt>
      <trkpt lat="45.35987" lon="6.58911">
        <ele>1782.42</ele>
        <time>2013-04-01T07:58:25Z</time>
      </trkpt>
      <trkpt lat="45.35975" lon="6.58928">
        <ele>1781.94</ele>
        <time>2013-04-01T07:58:40Z</time>
      </trkpt>
      <trkpt lat="45.35963" lon="6.5894">
        <ele>1781.46</ele>
        <time>2013-04-01T07:58:53Z</time>
      </trkpt>
      <trkpt lat="45.35951" lon="6.58957">
        <ele>1781.46</ele>
        <time>2013-04-01T07:59:07Z</time>
      </trkpt>
      <trkpt lat="45.35937" lon="6.58972">
        <ele>1780.98</ele>
        <time>2013-04-01T07:59:23Z</time>
      </trkpt>
      <trkpt lat="45.35933" lon="6.58979">
        <ele>1780.98</ele>
        <time>2013-04-01T07:59:28Z</time>
      </trkpt>
      <trkpt lat="45.35922" lon="6.58993">
        <ele>1780.5</ele>
        <time>2013-04-01T07:59:39Z</time>
      </trkpt>
      <trkpt lat="45.35903" lon="6.59011">
        <ele>1780.02</ele>
        <time>2013-04-01T07:59:57Z</time>
      </trkpt>
      <trkpt lat="45.35884" lon="6.59029">
        <ele>1780.02</ele>
        <time>2013-04-01T08:00:15Z</time>
      </trkpt>
      <trkpt lat="45.35874" lon="6.59036">
        <ele>1779.06</ele>
        <time>2013-04-01T08:00:33Z</time>
      </trkpt>
      <trkpt lat="45.35874" lon="6.59036">
        <ele>1776.65</ele>
        <time>2013-04-01T08:01:31Z</time>
      </trkpt>
      <trkpt lat="45.35875" lon="6.59037">
        <ele>1774.25</ele>
        <time>2013-04-01T08:02:25Z</time>
      </trkpt>
      <trkpt lat="45.35861" lon="6.59053">
        <ele>1774.25</ele>
        <time>2013-04-01T08:02:37Z</time>
      </trkpt>
      <trkpt lat="45.3584" lon="6.59079">
        <ele>1773.77</ele>
        <time>2013-04-01T08:02:59Z</time>
      </trkpt>
      <trkpt lat="45.3582" lon="6.59102">
        <ele>1773.29</ele>
        <time>2013-04-01T08:03:20Z</time>
      </trkpt>
      <trkpt lat="45.35805" lon="6.59118">
        <ele>1773.29</ele>
        <time>2013-04-01T08:03:35Z</time>
      </trkpt>
      <trkpt lat="45.35788" lon="6.59137">
        <ele>1772.81</ele>
        <time>2013-04-01T08:03:52Z</time>
      </trkpt>
      <trkpt lat="45.35771" lon="6.59159">
        <ele>1772.33</ele>
        <time>2013-04-01T08:04:11Z</time>
      </trkpt>
      <trkpt lat="45.35755" lon="6.59179">
        <ele>1772.33</ele>
        <time>2013-04-01T08:04:28Z</time>
      </trkpt>
      <trkpt lat="45.35734" lon="6.59203">
        <ele>1772.33</ele>
        <time>2013-04-01T08:04:50Z</time>
      </trkpt>
      <trkpt lat="45.35716" lon="6.59221">
        <ele>1771.85</ele>
        <time>2013-04-01T08:05:08Z</time>
      </trkpt>
      <trkpt lat="45.35705" lon="6.59235">
        <ele>1771.85</ele>
        <time>2013-04-01T08:05:21Z</time>
      </trkpt>
      <trkpt lat="45.35684" lon="6.59259">
        <ele>1772.33</ele>
        <time>2013-04-01T08:05:43Z</time>
      </trkpt>
      <trkpt lat="45.35666" lon="6.59283">
        <ele>1771.85</ele>
        <time>2013-04-01T08:06:04Z</time>
      </trkpt>
      <trkpt lat="45.35643" lon="6.59308">
        <ele>1771.85</ele>
        <time>2013-04-01T08:06:27Z</time>
      </trkpt>
      <trkpt lat="45.3563" lon="6.59323">
        <ele>1772.33</ele>
        <time>2013-04-01T08:06:43Z</time>
      </trkpt>
      <trkpt lat="45.35616" lon="6.59344">
        <ele>1772.33</ele>
        <time>2013-04-01T08:07:01Z</time>
      </trkpt>
      <trkpt lat="45.35604" lon="6.59366">
        <ele>1772.33</ele>
        <time>2013-04-01T08:07:20Z</time>
      </trkpt>
      <trkpt lat="45.35595" lon="6.59391">
        <ele>1772.81</ele>
        <time>2013-04-01T08:07:38Z</time>
      </trkpt>
      <trkpt lat="45.35588" lon="6.59418">
        <ele>1773.77</ele>
        <time>2013-04-01T08:07:58Z</time>
      </trkpt>
      <trkpt lat="45.35584" lon="6.59443">
        <ele>1774.73</ele>
        <time>2013-04-01T08:08:16Z</time>
      </trkpt>
      <trkpt lat="45.35583" lon="6.59466">
        <ele>1775.21</ele>
        <time>2013-04-01T08:08:33Z</time>
      </trkpt>
      <trkpt lat="45.3558" lon="6.59484">
        <ele>1775.69</ele>
        <time>2013-04-01T08:08:49Z</time>
      </trkpt>
      <trkpt lat="45.35578" lon="6.59501">
        <ele>1777.13</ele>
        <time>2013-04-01T08:09:04Z</time>
      </trkpt>
      <trkpt lat="45.35576" lon="6.59519">
        <ele>1779.54</ele>
        <time>2013-04-01T08:09:22Z</time>
      </trkpt>
      <trkpt lat="45.35571" lon="6.59538">
        <ele>1781.94</ele>
        <time>2013-04-01T08:09:40Z</time>
      </trkpt>
      <trkpt lat="45.35565" lon="6.59552">
        <ele>1783.86</ele>
        <time>2013-04-01T08:09:54Z</time>
      </trkpt>
      <trkpt lat="45.35564" lon="6.59557">
        <ele>1784.34</ele>
        <time>2013-04-01T08:09:58Z</time>
      </trkpt>
      <trkpt lat="45.35563" lon="6.59581">
        <ele>1785.79</ele>
        <time>2013-04-01T08:10:16Z</time>
      </trkpt>
      <trkpt lat="45.35567" lon="6.596">
        <ele>1787.23</ele>
        <time>2013-04-01T08:10:32Z</time>
      </trkpt>
      <trkpt lat="45.35563" lon="6.59618">
        <ele>1788.19</ele>
        <time>2013-04-01T08:10:48Z</time>
      </trkpt>
      <trkpt lat="45.35559" lon="6.59635">
        <ele>1790.11</ele>
        <time>2013-04-01T08:11:04Z</time>
      </trkpt>
      <trkpt lat="45.35562" lon="6.59643">
        <ele>1792.03</ele>
        <time>2013-04-01T08:11:16Z</time>
      </trkpt>
      <trkpt lat="45.35562" lon="6.59652">
        <ele>1793.48</ele>
        <time>2013-04-01T08:11:27Z</time>
      </trkpt>
      <trkpt lat="45.3556" lon="6.59663">
        <ele>1795.4</ele>
        <time>2013-04-01T08:11:39Z</time>
      </trkpt>
      <trkpt lat="45.35565" lon="6.59668">
        <ele>1796.84</ele>
        <time>2013-04-01T08:11:50Z</time>
      </trkpt>
      <trkpt lat="45.35572" lon="6.59666">
        <ele>1798.28</ele>
        <time>2013-04-01T08:12:01Z</time>
      </trkpt>
      <trkpt lat="45.35578" lon="6.59664">
        <ele>1799.73</ele>
        <time>2013-04-01T08:12:09Z</time>
      </trkpt>
      <trkpt lat="45.35581" lon="6.59665">
        <ele>1800.21</ele>
        <time>2013-04-01T08:12:14Z</time>
      </trkpt>
      <trkpt lat="45.35586" lon="6.59672">
        <ele>1801.65</ele>
        <time>2013-04-01T08:12:25Z</time>
      </trkpt>
      <trkpt lat="45.35594" lon="6.59676">
        <ele>1803.57</ele>
        <time>2013-04-01T08:12:36Z</time>
      </trkpt>
      <trkpt lat="45.356" lon="6.5968">
        <ele>1805.01</ele>
        <time>2013-04-01T08:12:46Z</time>
      </trkpt>
      <trkpt lat="45.35604" lon="6.59693">
        <ele>1807.42</ele>
        <time>2013-04-01T08:12:59Z</time>
      </trkpt>
      <trkpt lat="45.35603" lon="6.59696">
        <ele>1807.42</ele>
        <time>2013-04-01T08:13:02Z</time>
      </trkpt>
      <trkpt lat="45.35604" lon="6.59714">
        <ele>1808.38</ele>
        <time>2013-04-01T08:13:16Z</time>
      </trkpt>
      <trkpt lat="45.35601" lon="6.59728">
        <ele>1807.9</ele>
        <time>2013-04-01T08:13:27Z</time>
      </trkpt>
      <trkpt lat="45.35601" lon="6.59728">
        <ele>1808.38</ele>
        <time>2013-04-01T08:13:28Z</time>
      </trkpt>
      <trkpt lat="45.35593" lon="6.59736">
        <ele>1809.82</ele>
        <time>2013-04-01T08:13:41Z</time>
      </trkpt>
      <trkpt lat="45.35591" lon="6.59739">
        <ele>1810.78</ele>
        <time>2013-04-01T08:13:45Z</time>
      </trkpt>
      <trkpt lat="45.35589" lon="6.59741">
        <ele>1810.78</ele>
        <time>2013-04-01T08:13:48Z</time>
      </trkpt>
      <trkpt lat="45.35586" lon="6.59744">
        <ele>1811.26</ele>
        <time>2013-04-01T08:13:53Z</time>
      </trkpt>
      <trkpt lat="45.35585" lon="6.59749">
        <ele>1812.7</ele>
        <time>2013-04-01T08:14:00Z</time>
      </trkpt>
      <trkpt lat="45.35593" lon="6.59754">
        <ele>1814.15</ele>
        <time>2013-04-01T08:14:15Z</time>
      </trkpt>
      <trkpt lat="45.35603" lon="6.59762">
        <ele>1816.07</ele>
        <time>2013-04-01T08:14:29Z</time>
      </trkpt>
      <trkpt lat="45.35613" lon="6.59776">
        <ele>1817.51</ele>
        <time>2013-04-01T08:14:45Z</time>
      </trkpt>
      <trkpt lat="45.35613" lon="6.59787">
        <ele>1818.95</ele>
        <time>2013-04-01T08:14:57Z</time>
      </trkpt>
      <trkpt lat="45.35613" lon="6.59798">
        <ele>1820.87</ele>
        <time>2013-04-01T08:15:09Z</time>
      </trkpt>
      <trkpt lat="45.35611" lon="6.59808">
        <ele>1822.8</ele>
        <time>2013-04-01T08:15:20Z</time>
      </trkpt>
      <trkpt lat="45.35611" lon="6.5981">
        <ele>1822.8</ele>
        <time>2013-04-01T08:15:24Z</time>
      </trkpt>
      <trkpt lat="45.35606" lon="6.59818">
        <ele>1824.24</ele>
        <time>2013-04-01T08:15:34Z</time>
      </trkpt>
      <trkpt lat="45.35598" lon="6.59825">
        <ele>1826.16</ele>
        <time>2013-04-01T08:15:48Z</time>
      </trkpt>
      <trkpt lat="45.35595" lon="6.5983">
        <ele>1827.6</ele>
        <time>2013-04-01T08:15:54Z</time>
      </trkpt>
      <trkpt lat="45.35591" lon="6.59847">
        <ele>1829.05</ele>
        <time>2013-04-01T08:16:08Z</time>
      </trkpt>
      <trkpt lat="45.3559" lon="6.59863">
        <ele>1830.49</ele>
        <time>2013-04-01T08:16:22Z</time>
      </trkpt>
      <trkpt lat="45.35591" lon="6.59879">
        <ele>1831.93</ele>
        <time>2013-04-01T08:16:35Z</time>
      </trkpt>
      <trkpt lat="45.35591" lon="6.59892">
        <ele>1833.37</ele>
        <time>2013-04-01T08:16:47Z</time>
      </trkpt>
      <trkpt lat="45.35591" lon="6.59906">
        <ele>1834.33</ele>
        <time>2013-04-01T08:16:59Z</time>
      </trkpt>
      <trkpt lat="45.35591" lon="6.59921">
        <ele>1836.26</ele>
        <time>2013-04-01T08:17:12Z</time>
      </trkpt>
      <trkpt lat="45.35589" lon="6.59931">
        <ele>1837.7</ele>
        <time>2013-04-01T08:17:22Z</time>
      </trkpt>
      <trkpt lat="45.35586" lon="6.59939">
        <ele>1838.18</ele>
        <time>2013-04-01T08:17:30Z</time>
      </trkpt>
      <trkpt lat="45.35587" lon="6.59947">
        <ele>1839.62</ele>
        <time>2013-04-01T08:17:38Z</time>
      </trkpt>
      <trkpt lat="45.35589" lon="6.59949">
        <ele>1839.62</ele>
        <time>2013-04-01T08:17:42Z</time>
      </trkpt>
      <trkpt lat="45.356" lon="6.59944">
        <ele>1841.06</ele>
        <time>2013-04-01T08:17:56Z</time>
      </trkpt>
      <trkpt lat="45.35612" lon="6.59937">
        <ele>1842.5</ele>
        <time>2013-04-01T08:18:10Z</time>
      </trkpt>
      <trkpt lat="45.35627" lon="6.59932">
        <ele>1843.95</ele>
        <time>2013-04-01T08:18:26Z</time>
      </trkpt>
      <trkpt lat="45.3564" lon="6.59932">
        <ele>1844.91</ele>
        <time>2013-04-01T08:18:39Z</time>
      </trkpt>
      <trkpt lat="45.35646" lon="6.59936">
        <ele>1845.87</ele>
        <time>2013-04-01T08:18:47Z</time>
      </trkpt>
      <trkpt lat="45.35646" lon="6.59951">
        <ele>1846.83</ele>
        <time>2013-04-01T08:19:00Z</time>
      </trkpt>
      <trkpt lat="45.35644" lon="6.59964">
        <ele>1848.75</ele>
        <time>2013-04-01T08:19:13Z</time>
      </trkpt>
      <trkpt lat="45.3564" lon="6.59977">
        <ele>1850.19</ele>
        <time>2013-04-01T08:19:26Z</time>
      </trkpt>
      <trkpt lat="45.35635" lon="6.59993">
        <ele>1852.12</ele>
        <time>2013-04-01T08:19:40Z</time>
      </trkpt>
      <trkpt lat="45.35634" lon="6.60004">
        <ele>1853.56</ele>
        <time>2013-04-01T08:19:51Z</time>
      </trkpt>
      <trkpt lat="45.35636" lon="6.60013">
        <ele>1855.48</ele>
        <time>2013-04-01T08:20:02Z</time>
      </trkpt>
      <trkpt lat="45.35644" lon="6.60023">
        <ele>1857.4</ele>
        <time>2013-04-01T08:20:15Z</time>
      </trkpt>
      <trkpt lat="45.35648" lon="6.60032">
        <ele>1859.81</ele>
        <time>2013-04-01T08:20:27Z</time>
      </trkpt>
      <trkpt lat="45.35653" lon="6.60039">
        <ele>1861.25</ele>
        <time>2013-04-01T08:20:36Z</time>
      </trkpt>
      <trkpt lat="45.35657" lon="6.60042">
        <ele>1862.21</ele>
        <time>2013-04-01T08:20:43Z</time>
      </trkpt>
      <trkpt lat="45.35661" lon="6.60047">
        <ele>1863.17</ele>
        <time>2013-04-01T08:20:50Z</time>
      </trkpt>
      <trkpt lat="45.35663" lon="6.60058">
        <ele>1865.58</ele>
        <time>2013-04-01T08:21:02Z</time>
      </trkpt>
      <trkpt lat="45.35662" lon="6.60063">
        <ele>1866.54</ele>
        <time>2013-04-01T08:21:08Z</time>
      </trkpt>
      <trkpt lat="45.35658" lon="6.60074">
        <ele>1868.94</ele>
        <time>2013-04-01T08:21:23Z</time>
      </trkpt>
      <trkpt lat="45.35655" lon="6.60082">
        <ele>1870.86</ele>
        <time>2013-04-01T08:21:35Z</time>
      </trkpt>
      <trkpt lat="45.35654" lon="6.60086">
        <ele>1871.82</ele>
        <time>2013-04-01T08:21:40Z</time>
      </trkpt>
      <trkpt lat="45.35653" lon="6.60094">
        <ele>1873.27</ele>
        <time>2013-04-01T08:21:52Z</time>
      </trkpt>
      <trkpt lat="45.35652" lon="6.60107">
        <ele>1875.19</ele>
        <time>2013-04-01T08:22:05Z</time>
      </trkpt>
      <trkpt lat="45.35651" lon="6.60117">
        <ele>1875.67</ele>
        <time>2013-04-01T08:22:16Z</time>
      </trkpt>
      <trkpt lat="45.35649" lon="6.60132">
        <ele>1877.59</ele>
        <time>2013-04-01T08:22:30Z</time>
      </trkpt>
      <trkpt lat="45.35649" lon="6.60143">
        <ele>1880</ele>
        <time>2013-04-01T08:22:42Z</time>
      </trkpt>
      <trkpt lat="45.35648" lon="6.60156">
        <ele>1881.92</ele>
        <time>2013-04-01T08:22:54Z</time>
      </trkpt>
      <trkpt lat="45.35647" lon="6.6016">
        <ele>1882.4</ele>
        <time>2013-04-01T08:22:58Z</time>
      </trkpt>
      <trkpt lat="45.35641" lon="6.60174">
        <ele>1884.32</ele>
        <time>2013-04-01T08:23:13Z</time>
      </trkpt>
      <trkpt lat="45.35636" lon="6.60189">
        <ele>1886.24</ele>
        <time>2013-04-01T08:23:26Z</time>
      </trkpt>
      <trkpt lat="45.35636" lon="6.60197">
        <ele>1887.69</ele>
        <time>2013-04-01T08:23:35Z</time>
      </trkpt>
      <trkpt lat="45.35636" lon="6.60205">
        <ele>1889.13</ele>
        <time>2013-04-01T08:23:43Z</time>
      </trkpt>
      <trkpt lat="45.35636" lon="6.60212">
        <ele>1890.09</ele>
        <time>2013-04-01T08:23:51Z</time>
      </trkpt>
      <trkpt lat="45.35635" lon="6.60222">
        <ele>1892.01</ele>
        <time>2013-04-01T08:24:03Z</time>
      </trkpt>
      <trkpt lat="45.35635" lon="6.60225">
        <ele>1892.49</ele>
        <time>2013-04-01T08:24:06Z</time>
      </trkpt>
      <trkpt lat="45.35636" lon="6.60242">
        <ele>1893.93</ele>
        <time>2013-04-01T08:24:20Z</time>
      </trkpt>
      <trkpt lat="45.35636" lon="6.60264">
        <ele>1894.42</ele>
        <time>2013-04-01T08:24:36Z</time>
      </trkpt>
      <trkpt lat="45.35636" lon="6.60285">
        <ele>1895.86</ele>
        <time>2013-04-01T08:24:52Z</time>
      </trkpt>
      <trkpt lat="45.35635" lon="6.60301">
        <ele>1895.86</ele>
        <time>2013-04-01T08:25:04Z</time>
      </trkpt>
      <trkpt lat="45.35634" lon="6.60318">
        <ele>1896.82</ele>
        <time>2013-04-01T08:25:18Z</time>
      </trkpt>
      <trkpt lat="45.35632" lon="6.60337">
        <ele>1897.78</ele>
        <time>2013-04-01T08:25:33Z</time>
      </trkpt>
      <trkpt lat="45.35634" lon="6.60356">
        <ele>1899.22</ele>
        <time>2013-04-01T08:25:49Z</time>
      </trkpt>
      <trkpt lat="45.35636" lon="6.6037">
        <ele>1901.63</ele>
        <time>2013-04-01T08:26:03Z</time>
      </trkpt>
      <trkpt lat="45.35637" lon="6.6038">
        <ele>1903.07</ele>
        <time>2013-04-01T08:26:14Z</time>
      </trkpt>
      <trkpt lat="45.35636" lon="6.60393">
        <ele>1904.99</ele>
        <time>2013-04-01T08:26:26Z</time>
      </trkpt>
      <trkpt lat="45.35641" lon="6.60398">
        <ele>1906.91</ele>
        <time>2013-04-01T08:26:39Z</time>
      </trkpt>
      <trkpt lat="45.35642" lon="6.604">
        <ele>1907.87</ele>
        <time>2013-04-01T08:26:41Z</time>
      </trkpt>
      <trkpt lat="45.35645" lon="6.6041">
        <ele>1909.32</ele>
        <time>2013-04-01T08:26:50Z</time>
      </trkpt>
      <trkpt lat="45.35646" lon="6.60414">
        <ele>1909.8</ele>
        <time>2013-04-01T08:27:04Z</time>
      </trkpt>
      <trkpt lat="45.35647" lon="6.60413">
        <ele>1908.83</ele>
        <time>2013-04-01T08:27:19Z</time>
      </trkpt>
      <trkpt lat="45.35646" lon="6.60414">
        <ele>1909.32</ele>
        <time>2013-04-01T08:27:40Z</time>
      </trkpt>
      <trkpt lat="45.35647" lon="6.60415">
        <ele>1908.35</ele>
        <time>2013-04-01T08:27:58Z</time>
      </trkpt>
      <trkpt lat="45.35647" lon="6.60416">
        <ele>1908.83</ele>
        <time>2013-04-01T08:28:30Z</time>
      </trkpt>
      <trkpt lat="45.35648" lon="6.60416">
        <ele>1908.35</ele>
        <time>2013-04-01T08:28:45Z</time>
      </trkpt>
      <trkpt lat="45.35647" lon="6.60418">
        <ele>1907.87</ele>
        <time>2013-04-01T08:29:53Z</time>
      </trkpt>
      <trkpt lat="45.35646" lon="6.6042">
        <ele>1908.35</ele>
        <time>2013-04-01T08:30:37Z</time>
      </trkpt>
      <trkpt lat="45.35644" lon="6.60428">
        <ele>1909.32</ele>
        <time>2013-04-01T08:31:00Z</time>
      </trkpt>
      <trkpt lat="45.35643" lon="6.60439">
        <ele>1910.76</ele>
        <time>2013-04-01T08:31:12Z</time>
      </trkpt>
      <trkpt lat="45.35641" lon="6.60444">
        <ele>1911.72</ele>
        <time>2013-04-01T08:31:19Z</time>
      </trkpt>
      <trkpt lat="45.35637" lon="6.60453">
        <ele>1913.16</ele>
        <time>2013-04-01T08:31:30Z</time>
      </trkpt>
      <trkpt lat="45.35634" lon="6.60463">
        <ele>1915.08</ele>
        <time>2013-04-01T08:31:42Z</time>
      </trkpt>
      <trkpt lat="45.3563" lon="6.60472">
        <ele>1917.01</ele>
        <time>2013-04-01T08:31:55Z</time>
      </trkpt>
      <trkpt lat="45.35627" lon="6.60477">
        <ele>1918.93</ele>
        <time>2013-04-01T08:32:05Z</time>
      </trkpt>
      <trkpt lat="45.35624" lon="6.60484">
        <ele>1920.37</ele>
        <time>2013-04-01T08:32:16Z</time>
      </trkpt>
      <trkpt lat="45.35626" lon="6.60492">
        <ele>1922.29</ele>
        <time>2013-04-01T08:32:28Z</time>
      </trkpt>
      <trkpt lat="45.35631" lon="6.60496">
        <ele>1924.22</ele>
        <time>2013-04-01T08:32:40Z</time>
      </trkpt>
      <trkpt lat="45.35637" lon="6.60501">
        <ele>1926.14</ele>
        <time>2013-04-01T08:32:54Z</time>
      </trkpt>
      <trkpt lat="45.35638" lon="6.60501">
        <ele>1926.62</ele>
        <time>2013-04-01T08:32:57Z</time>
      </trkpt>
      <trkpt lat="45.35644" lon="6.60506">
        <ele>1928.54</ele>
        <time>2013-04-01T08:33:10Z</time>
      </trkpt>
      <trkpt lat="45.35651" lon="6.6051">
        <ele>1929.98</ele>
        <time>2013-04-01T08:33:22Z</time>
      </trkpt>
      <trkpt lat="45.35655" lon="6.60517">
        <ele>1932.39</ele>
        <time>2013-04-01T08:33:35Z</time>
      </trkpt>
      <trkpt lat="45.3566" lon="6.60522">
        <ele>1933.83</ele>
        <time>2013-04-01T08:33:45Z</time>
      </trkpt>
      <trkpt lat="45.35666" lon="6.60528">
        <ele>1935.75</ele>
        <time>2013-04-01T08:33:56Z</time>
      </trkpt>
      <trkpt lat="45.3567" lon="6.60534">
        <ele>1937.19</ele>
        <time>2013-04-01T08:34:07Z</time>
      </trkpt>
      <trkpt lat="45.35673" lon="6.6054">
        <ele>1938.64</ele>
        <time>2013-04-01T08:34:19Z</time>
      </trkpt>
      <trkpt lat="45.35677" lon="6.60547">
        <ele>1940.08</ele>
        <time>2013-04-01T08:34:30Z</time>
      </trkpt>
      <trkpt lat="45.35681" lon="6.60552">
        <ele>1941.52</ele>
        <time>2013-04-01T08:34:41Z</time>
      </trkpt>
      <trkpt lat="45.35686" lon="6.60557">
        <ele>1943.92</ele>
        <time>2013-04-01T08:34:53Z</time>
      </trkpt>
      <trkpt lat="45.35691" lon="6.60561">
        <ele>1945.85</ele>
        <time>2013-04-01T08:35:04Z</time>
      </trkpt>
      <trkpt lat="45.35697" lon="6.60568">
        <ele>1947.29</ele>
        <time>2013-04-01T08:35:17Z</time>
      </trkpt>
      <trkpt lat="45.35701" lon="6.60574">
        <ele>1949.21</ele>
        <time>2013-04-01T08:35:28Z</time>
      </trkpt>
      <trkpt lat="45.35707" lon="6.60578">
        <ele>1950.65</ele>
        <time>2013-04-01T08:35:39Z</time>
      </trkpt>
      <trkpt lat="45.35712" lon="6.60582">
        <ele>1952.57</ele>
        <time>2013-04-01T08:35:51Z</time>
      </trkpt>
      <trkpt lat="45.35717" lon="6.60587">
        <ele>1954.5</ele>
        <time>2013-04-01T08:36:03Z</time>
      </trkpt>
      <trkpt lat="45.35723" lon="6.60593">
        <ele>1955.94</ele>
        <time>2013-04-01T08:36:15Z</time>
      </trkpt>
      <trkpt lat="45.35722" lon="6.60601">
        <ele>1957.38</ele>
        <time>2013-04-01T08:36:26Z</time>
      </trkpt>
      <trkpt lat="45.35718" lon="6.60603">
        <ele>1959.3</ele>
        <time>2013-04-01T08:36:38Z</time>
      </trkpt>
      <trkpt lat="45.35712" lon="6.60604">
        <ele>1960.75</ele>
        <time>2013-04-01T08:36:50Z</time>
      </trkpt>
      <trkpt lat="45.35705" lon="6.60605">
        <ele>1962.67</ele>
        <time>2013-04-01T08:37:03Z</time>
      </trkpt>
      <trkpt lat="45.35699" lon="6.60607">
        <ele>1965.07</ele>
        <time>2013-04-01T08:37:16Z</time>
      </trkpt>
      <trkpt lat="45.35693" lon="6.60609">
        <ele>1966.51</ele>
        <time>2013-04-01T08:37:27Z</time>
      </trkpt>
      <trkpt lat="45.35687" lon="6.60613">
        <ele>1968.44</ele>
        <time>2013-04-01T08:37:40Z</time>
      </trkpt>
      <trkpt lat="45.35681" lon="6.60619">
        <ele>1969.88</ele>
        <time>2013-04-01T08:37:53Z</time>
      </trkpt>
      <trkpt lat="45.35675" lon="6.60624">
        <ele>1971.8</ele>
        <time>2013-04-01T08:38:05Z</time>
      </trkpt>
      <trkpt lat="45.35669" lon="6.6063">
        <ele>1973.24</ele>
        <time>2013-04-01T08:38:17Z</time>
      </trkpt>
      <trkpt lat="45.35664" lon="6.60635">
        <ele>1975.17</ele>
        <time>2013-04-01T08:38:29Z</time>
      </trkpt>
      <trkpt lat="45.35659" lon="6.6064">
        <ele>1976.61</ele>
        <time>2013-04-01T08:38:39Z</time>
      </trkpt>
      <trkpt lat="45.35655" lon="6.60646">
        <ele>1978.05</ele>
        <time>2013-04-01T08:38:50Z</time>
      </trkpt>
      <trkpt lat="45.35652" lon="6.60647">
        <ele>1979.01</ele>
        <time>2013-04-01T08:38:55Z</time>
      </trkpt>
      <trkpt lat="45.35648" lon="6.60654">
        <ele>1981.41</ele>
        <time>2013-04-01T08:39:08Z</time>
      </trkpt>
      <trkpt lat="45.35653" lon="6.60659">
        <ele>1982.86</ele>
        <time>2013-04-01T08:39:21Z</time>
      </trkpt>
      <trkpt lat="45.35657" lon="6.60659">
        <ele>1984.3</ele>
        <time>2013-04-01T08:39:27Z</time>
      </trkpt>
      <trkpt lat="45.35663" lon="6.60658">
        <ele>1985.74</ele>
        <time>2013-04-01T08:39:39Z</time>
      </trkpt>
      <trkpt lat="45.35669" lon="6.60657">
        <ele>1987.18</ele>
        <time>2013-04-01T08:39:49Z</time>
      </trkpt>
      <trkpt lat="45.35675" lon="6.60659">
        <ele>1989.1</ele>
        <time>2013-04-01T08:39:59Z</time>
      </trkpt>
      <trkpt lat="45.35681" lon="6.60662">
        <ele>1991.03</ele>
        <time>2013-04-01T08:40:10Z</time>
      </trkpt>
      <trkpt lat="45.35687" lon="6.60665">
        <ele>1992.47</ele>
        <time>2013-04-01T08:40:21Z</time>
      </trkpt>
      <trkpt lat="45.35693" lon="6.6067">
        <ele>1994.87</ele>
        <time>2013-04-01T08:40:33Z</time>
      </trkpt>
      <trkpt lat="45.35698" lon="6.60677">
        <ele>1996.32</ele>
        <time>2013-04-01T08:40:45Z</time>
      </trkpt>
      <trkpt lat="45.35702" lon="6.60682">
        <ele>1998.24</ele>
        <time>2013-04-01T08:40:55Z</time>
      </trkpt>
      <trkpt lat="45.35707" lon="6.60688">
        <ele>1999.2</ele>
        <time>2013-04-01T08:41:07Z</time>
      </trkpt>
      <trkpt lat="45.35711" lon="6.60694">
        <ele>2001.6</ele>
        <time>2013-04-01T08:41:18Z</time>
      </trkpt>
      <trkpt lat="45.35715" lon="6.60701">
        <ele>2003.04</ele>
        <time>2013-04-01T08:41:28Z</time>
      </trkpt>
      <trkpt lat="45.35717" lon="6.60706">
        <ele>2004.01</ele>
        <time>2013-04-01T08:41:36Z</time>
      </trkpt>
      <trkpt lat="45.35722" lon="6.60716">
        <ele>2005.45</ele>
        <time>2013-04-01T08:41:48Z</time>
      </trkpt>
      <trkpt lat="45.35728" lon="6.60722">
        <ele>2006.41</ele>
        <time>2013-04-01T08:41:56Z</time>
      </trkpt>
      <trkpt lat="45.35738" lon="6.60733">
        <ele>2005.93</ele>
        <time>2013-04-01T08:42:08Z</time>
      </trkpt>
      <trkpt lat="45.35744" lon="6.60741">
        <ele>2005.45</ele>
        <time>2013-04-01T08:42:19Z</time>
      </trkpt>
      <trkpt lat="45.35749" lon="6.60747">
        <ele>2006.89</ele>
        <time>2013-04-01T08:42:30Z</time>
      </trkpt>
      <trkpt lat="45.35755" lon="6.60752">
        <ele>2007.85</ele>
        <time>2013-04-01T08:42:40Z</time>
      </trkpt>
      <trkpt lat="45.35759" lon="6.60757">
        <ele>2009.29</ele>
        <time>2013-04-01T08:42:50Z</time>
      </trkpt>
      <trkpt lat="45.35765" lon="6.60762">
        <ele>2010.73</ele>
        <time>2013-04-01T08:43:01Z</time>
      </trkpt>
      <trkpt lat="45.35769" lon="6.60766">
        <ele>2012.18</ele>
        <time>2013-04-01T08:43:10Z</time>
      </trkpt>
      <trkpt lat="45.35773" lon="6.60771">
        <ele>2013.62</ele>
        <time>2013-04-01T08:43:19Z</time>
      </trkpt>
      <trkpt lat="45.35777" lon="6.60776">
        <ele>2015.06</ele>
        <time>2013-04-01T08:43:30Z</time>
      </trkpt>
      <trkpt lat="45.35779" lon="6.6078">
        <ele>2016.5</ele>
        <time>2013-04-01T08:43:38Z</time>
      </trkpt>
      <trkpt lat="45.35783" lon="6.60785">
        <ele>2017.94</ele>
        <time>2013-04-01T08:43:48Z</time>
      </trkpt>
      <trkpt lat="45.35787" lon="6.60792">
        <ele>2019.39</ele>
        <time>2013-04-01T08:43:59Z</time>
      </trkpt>
      <trkpt lat="45.3579" lon="6.60799">
        <ele>2020.83</ele>
        <time>2013-04-01T08:44:10Z</time>
      </trkpt>
      <trkpt lat="45.35794" lon="6.60805">
        <ele>2022.27</ele>
        <time>2013-04-01T08:44:20Z</time>
      </trkpt>
      <trkpt lat="45.35797" lon="6.60812">
        <ele>2024.19</ele>
        <time>2013-04-01T08:44:30Z</time>
      </trkpt>
      <trkpt lat="45.358" lon="6.6082">
        <ele>2025.15</ele>
        <time>2013-04-01T08:44:40Z</time>
      </trkpt>
      <trkpt lat="45.35801" lon="6.60831">
        <ele>2026.6</ele>
        <time>2013-04-01T08:44:52Z</time>
      </trkpt>
      <trkpt lat="45.358" lon="6.60841">
        <ele>2028.04</ele>
        <time>2013-04-01T08:45:02Z</time>
      </trkpt>
      <trkpt lat="45.35795" lon="6.60852">
        <ele>2029</ele>
        <time>2013-04-01T08:45:15Z</time>
      </trkpt>
      <trkpt lat="45.35793" lon="6.60862">
        <ele>2030.44</ele>
        <time>2013-04-01T08:45:26Z</time>
      </trkpt>
      <trkpt lat="45.35792" lon="6.60864">
        <ele>2030.44</ele>
        <time>2013-04-01T08:45:46Z</time>
      </trkpt>
      <trkpt lat="45.35791" lon="6.60866">
        <ele>2029.96</ele>
        <time>2013-04-01T08:46:47Z</time>
      </trkpt>
      <trkpt lat="45.35786" lon="6.60873">
        <ele>2029.96</ele>
        <time>2013-04-01T08:47:23Z</time>
      </trkpt>
      <trkpt lat="45.35779" lon="6.60885">
        <ele>2029.48</ele>
        <time>2013-04-01T08:47:35Z</time>
      </trkpt>
      <trkpt lat="45.35776" lon="6.60894">
        <ele>2028.04</ele>
        <time>2013-04-01T08:47:41Z</time>
      </trkpt>
      <trkpt lat="45.35772" lon="6.60911">
        <ele>2026.6</ele>
        <time>2013-04-01T08:47:56Z</time>
      </trkpt>
      <trkpt lat="45.35767" lon="6.60922">
        <ele>2027.08</ele>
        <time>2013-04-01T08:48:20Z</time>
      </trkpt>
      <trkpt lat="45.35758" lon="6.60937">
        <ele>2026.6</ele>
        <time>2013-04-01T08:48:34Z</time>
      </trkpt>
      <trkpt lat="45.3575" lon="6.6095">
        <ele>2026.12</ele>
        <time>2013-04-01T08:48:49Z</time>
      </trkpt>
      <trkpt lat="45.3575" lon="6.6095">
        <ele>2025.64</ele>
        <time>2013-04-01T08:49:10Z</time>
      </trkpt>
      <trkpt lat="45.3575" lon="6.60949">
        <ele>2025.15</ele>
        <time>2013-04-01T08:49:32Z</time>
      </trkpt>
      <trkpt lat="45.3575" lon="6.60951">
        <ele>2025.64</ele>
        <time>2013-04-01T08:49:46Z</time>
      </trkpt>
      <trkpt lat="45.3575" lon="6.60951">
        <ele>2025.15</ele>
        <time>2013-04-01T08:50:22Z</time>
      </trkpt>
      <trkpt lat="45.3575" lon="6.60951">
        <ele>2024.67</ele>
        <time>2013-04-01T08:50:48Z</time>
      </trkpt>
      <trkpt lat="45.35752" lon="6.60952">
        <ele>2025.15</ele>
        <time>2013-04-01T08:51:08Z</time>
      </trkpt>
      <trkpt lat="45.35753" lon="6.60953">
        <ele>2023.71</ele>
        <time>2013-04-01T08:51:25Z</time>
      </trkpt>
      <trkpt lat="45.35751" lon="6.60952">
        <ele>2023.71</ele>
        <time>2013-04-01T08:52:46Z</time>
      </trkpt>
      <trkpt lat="45.3575" lon="6.60952">
        <ele>2024.67</ele>
        <time>2013-04-01T08:53:08Z</time>
      </trkpt>
      <trkpt lat="45.3575" lon="6.60951">
        <ele>2024.19</ele>
        <time>2013-04-01T08:53:21Z</time>
      </trkpt>
      <trkpt lat="45.35748" lon="6.60949">
        <ele>2024.19</ele>
        <time>2013-04-01T08:53:33Z</time>
      </trkpt>
      <trkpt lat="45.35747" lon="6.60948">
        <ele>2024.19</ele>
        <time>2013-04-01T08:53:49Z</time>
      </trkpt>
      <trkpt lat="45.35747" lon="6.6095">
        <ele>2023.71</ele>
        <time>2013-04-01T08:54:08Z</time>
      </trkpt>
      <trkpt lat="45.35749" lon="6.6095">
        <ele>2023.23</ele>
        <time>2013-04-01T08:54:37Z</time>
      </trkpt>
      <trkpt lat="45.35749" lon="6.60949">
        <ele>2022.75</ele>
        <time>2013-04-01T08:55:00Z</time>
      </trkpt>
      <trkpt lat="45.35749" lon="6.60949">
        <ele>2023.23</ele>
        <time>2013-04-01T08:55:34Z</time>
      </trkpt>
      <trkpt lat="45.3575" lon="6.60948">
        <ele>2021.79</ele>
        <time>2013-04-01T08:55:57Z</time>
      </trkpt>
      <trkpt lat="45.35751" lon="6.6095">
        <ele>2022.27</ele>
        <time>2013-04-01T08:56:25Z</time>
      </trkpt>
      <trkpt lat="45.35749" lon="6.60956">
        <ele>2023.23</ele>
        <time>2013-04-01T08:56:38Z</time>
      </trkpt>
      <trkpt lat="45.35748" lon="6.60959">
        <ele>2023.23</ele>
        <time>2013-04-01T08:56:41Z</time>
      </trkpt>
      <trkpt lat="45.35734" lon="6.60975">
        <ele>2021.31</ele>
        <time>2013-04-01T08:56:54Z</time>
      </trkpt>
      <trkpt lat="45.35725" lon="6.60992">
        <ele>2019.87</ele>
        <time>2013-04-01T08:57:07Z</time>
      </trkpt>
      <trkpt lat="45.35719" lon="6.61025">
        <ele>2016.98</ele>
        <time>2013-04-01T08:57:24Z</time>
      </trkpt>
      <trkpt lat="45.35717" lon="6.61047">
        <ele>2015.54</ele>
        <time>2013-04-01T08:57:37Z</time>
      </trkpt>
      <trkpt lat="45.35714" lon="6.61065">
        <ele>2015.06</ele>
        <time>2013-04-01T08:57:50Z</time>
      </trkpt>
      <trkpt lat="45.35712" lon="6.61067">
        <ele>2015.54</ele>
        <time>2013-04-01T08:57:53Z</time>
      </trkpt>
      <trkpt lat="45.35698" lon="6.6107">
        <ele>2014.1</ele>
        <time>2013-04-01T08:58:02Z</time>
      </trkpt>
      <trkpt lat="45.35689" lon="6.61077">
        <ele>2010.73</ele>
        <time>2013-04-01T08:58:08Z</time>
      </trkpt>
      <trkpt lat="45.35677" lon="6.61084">
        <ele>2010.73</ele>
        <time>2013-04-01T08:58:21Z</time>
      </trkpt>
      <trkpt lat="45.35661" lon="6.61095">
        <ele>2010.25</ele>
        <time>2013-04-01T08:58:38Z</time>
      </trkpt>
      <trkpt lat="45.35648" lon="6.61106">
        <ele>2010.73</ele>
        <time>2013-04-01T08:58:53Z</time>
      </trkpt>
      <trkpt lat="45.35641" lon="6.6111">
        <ele>2011.22</ele>
        <time>2013-04-01T08:59:07Z</time>
      </trkpt>
      <trkpt lat="45.35628" lon="6.61119">
        <ele>2011.22</ele>
        <time>2013-04-01T08:59:26Z</time>
      </trkpt>
      <trkpt lat="45.35614" lon="6.61128">
        <ele>2011.7</ele>
        <time>2013-04-01T08:59:41Z</time>
      </trkpt>
      <trkpt lat="45.35607" lon="6.61142">
        <ele>2011.22</ele>
        <time>2013-04-01T08:59:54Z</time>
      </trkpt>
      <trkpt lat="45.35603" lon="6.61152">
        <ele>2013.14</ele>
        <time>2013-04-01T09:00:07Z</time>
      </trkpt>
      <trkpt lat="45.35601" lon="6.61155">
        <ele>2015.06</ele>
        <time>2013-04-01T09:00:20Z</time>
      </trkpt>
      <trkpt lat="45.35606" lon="6.61161">
        <ele>2016.5</ele>
        <time>2013-04-01T09:00:32Z</time>
      </trkpt>
      <trkpt lat="45.35611" lon="6.61166">
        <ele>2018.43</ele>
        <time>2013-04-01T09:00:45Z</time>
      </trkpt>
      <trkpt lat="45.35615" lon="6.61167">
        <ele>2019.39</ele>
        <time>2013-04-01T09:00:53Z</time>
      </trkpt>
      <trkpt lat="45.35617" lon="6.61168">
        <ele>2020.35</ele>
        <time>2013-04-01T09:01:01Z</time>
      </trkpt>
      <trkpt lat="45.35615" lon="6.61171">
        <ele>2021.79</ele>
        <time>2013-04-01T09:01:16Z</time>
      </trkpt>
      <trkpt lat="45.35611" lon="6.61174">
        <ele>2023.23</ele>
        <time>2013-04-01T09:01:27Z</time>
      </trkpt>
      <trkpt lat="45.35615" lon="6.61174">
        <ele>2024.19</ele>
        <time>2013-04-01T09:01:38Z</time>
      </trkpt>
      <trkpt lat="45.3562" lon="6.61175">
        <ele>2025.15</ele>
        <time>2013-04-01T09:01:49Z</time>
      </trkpt>
      <trkpt lat="45.35625" lon="6.61175">
        <ele>2026.6</ele>
        <time>2013-04-01T09:01:59Z</time>
      </trkpt>
      <trkpt lat="45.35629" lon="6.61176">
        <ele>2028.52</ele>
        <time>2013-04-01T09:02:08Z</time>
      </trkpt>
      <trkpt lat="45.35633" lon="6.61177">
        <ele>2029.48</ele>
        <time>2013-04-01T09:02:15Z</time>
      </trkpt>
      <trkpt lat="45.35642" lon="6.61187">
        <ele>2030.44</ele>
        <time>2013-04-01T09:02:28Z</time>
      </trkpt>
      <trkpt lat="45.35649" lon="6.61194">
        <ele>2032.36</ele>
        <time>2013-04-01T09:02:41Z</time>
      </trkpt>
      <trkpt lat="45.35654" lon="6.61204">
        <ele>2033.81</ele>
        <time>2013-04-01T09:02:53Z</time>
      </trkpt>
      <trkpt lat="45.35654" lon="6.61205">
        <ele>2034.29</ele>
        <time>2013-04-01T09:02:54Z</time>
      </trkpt>
      <trkpt lat="45.35656" lon="6.61208">
        <ele>2034.77</ele>
        <time>2013-04-01T09:02:59Z</time>
      </trkpt>
      <trkpt lat="45.35663" lon="6.61214">
        <ele>2035.73</ele>
        <time>2013-04-01T09:03:09Z</time>
      </trkpt>
      <trkpt lat="45.35674" lon="6.61224">
        <ele>2036.69</ele>
        <time>2013-04-01T09:03:24Z</time>
      </trkpt>
      <trkpt lat="45.35681" lon="6.61233">
        <ele>2037.17</ele>
        <time>2013-04-01T09:03:36Z</time>
      </trkpt>
      <trkpt lat="45.35689" lon="6.61242">
        <ele>2038.61</ele>
        <time>2013-04-01T09:03:50Z</time>
      </trkpt>
      <trkpt lat="45.35696" lon="6.61256">
        <ele>2040.05</ele>
        <time>2013-04-01T09:04:04Z</time>
      </trkpt>
      <trkpt lat="45.35697" lon="6.61256">
        <ele>2040.05</ele>
        <time>2013-04-01T09:04:22Z</time>
      </trkpt>
      <trkpt lat="45.35701" lon="6.61267">
        <ele>2041.5</ele>
        <time>2013-04-01T09:05:04Z</time>
      </trkpt>
      <trkpt lat="45.35704" lon="6.61284">
        <ele>2042.94</ele>
        <time>2013-04-01T09:05:19Z</time>
      </trkpt>
      <trkpt lat="45.35707" lon="6.61299">
        <ele>2043.9</ele>
        <time>2013-04-01T09:05:32Z</time>
      </trkpt>
      <trkpt lat="45.35709" lon="6.6131">
        <ele>2045.34</ele>
        <time>2013-04-01T09:05:43Z</time>
      </trkpt>
      <trkpt lat="45.35707" lon="6.61323">
        <ele>2046.78</ele>
        <time>2013-04-01T09:05:55Z</time>
      </trkpt>
      <trkpt lat="45.35706" lon="6.61333">
        <ele>2049.19</ele>
        <time>2013-04-01T09:06:07Z</time>
      </trkpt>
      <trkpt lat="45.35708" lon="6.61343">
        <ele>2051.11</ele>
        <time>2013-04-01T09:06:19Z</time>
      </trkpt>
      <trkpt lat="45.35711" lon="6.61352">
        <ele>2052.55</ele>
        <time>2013-04-01T09:06:30Z</time>
      </trkpt>
      <trkpt lat="45.35709" lon="6.61358">
        <ele>2053.99</ele>
        <time>2013-04-01T09:06:40Z</time>
      </trkpt>
      <trkpt lat="45.35703" lon="6.61364">
        <ele>2055.44</ele>
        <time>2013-04-01T09:06:53Z</time>
      </trkpt>
      <trkpt lat="45.357" lon="6.6137">
        <ele>2056.88</ele>
        <time>2013-04-01T09:07:03Z</time>
      </trkpt>
      <trkpt lat="45.35694" lon="6.61376">
        <ele>2058.8</ele>
        <time>2013-04-01T09:07:16Z</time>
      </trkpt>
      <trkpt lat="45.35689" lon="6.61382">
        <ele>2060.72</ele>
        <time>2013-04-01T09:07:27Z</time>
      </trkpt>
      <trkpt lat="45.35685" lon="6.61386">
        <ele>2061.68</ele>
        <time>2013-04-01T09:07:34Z</time>
      </trkpt>
      <trkpt lat="45.3568" lon="6.61393">
        <ele>2063.61</ele>
        <time>2013-04-01T09:07:47Z</time>
      </trkpt>
      <trkpt lat="45.35674" lon="6.61399">
        <ele>2065.53</ele>
        <time>2013-04-01T09:07:58Z</time>
      </trkpt>
      <trkpt lat="45.35669" lon="6.61407">
        <ele>2067.45</ele>
        <time>2013-04-01T09:08:10Z</time>
      </trkpt>
      <trkpt lat="45.35664" lon="6.61413">
        <ele>2068.89</ele>
        <time>2013-04-01T09:08:21Z</time>
      </trkpt>
      <trkpt lat="45.3566" lon="6.6142">
        <ele>2070.34</ele>
        <time>2013-04-01T09:08:32Z</time>
      </trkpt>
      <trkpt lat="45.35655" lon="6.61429">
        <ele>2071.78</ele>
        <time>2013-04-01T09:08:44Z</time>
      </trkpt>
      <trkpt lat="45.35651" lon="6.61435">
        <ele>2073.22</ele>
        <time>2013-04-01T09:08:55Z</time>
      </trkpt>
      <trkpt lat="45.35657" lon="6.61439">
        <ele>2074.66</ele>
        <time>2013-04-01T09:09:05Z</time>
      </trkpt>
      <trkpt lat="45.35663" lon="6.61443">
        <ele>2076.1</ele>
        <time>2013-04-01T09:09:16Z</time>
      </trkpt>
      <trkpt lat="45.35669" lon="6.61444">
        <ele>2077.07</ele>
        <time>2013-04-01T09:09:24Z</time>
      </trkpt>
      <trkpt lat="45.35679" lon="6.61447">
        <ele>2078.51</ele>
        <time>2013-04-01T09:09:38Z</time>
      </trkpt>
      <trkpt lat="45.35686" lon="6.61453">
        <ele>2079.95</ele>
        <time>2013-04-01T09:09:49Z</time>
      </trkpt>
      <trkpt lat="45.35696" lon="6.61459">
        <ele>2081.87</ele>
        <time>2013-04-01T09:10:03Z</time>
      </trkpt>
      <trkpt lat="45.35703" lon="6.61463">
        <ele>2082.83</ele>
        <time>2013-04-01T09:10:13Z</time>
      </trkpt>
      <trkpt lat="45.3571" lon="6.6147">
        <ele>2084.28</ele>
        <time>2013-04-01T09:10:25Z</time>
      </trkpt>
      <trkpt lat="45.35716" lon="6.61476">
        <ele>2085.72</ele>
        <time>2013-04-01T09:10:37Z</time>
      </trkpt>
      <trkpt lat="45.3572" lon="6.61482">
        <ele>2087.16</ele>
        <time>2013-04-01T09:10:47Z</time>
      </trkpt>
      <trkpt lat="45.35722" lon="6.61486">
        <ele>2088.6</ele>
        <time>2013-04-01T09:10:57Z</time>
      </trkpt>
      <trkpt lat="45.35717" lon="6.6149">
        <ele>2090.04</ele>
        <time>2013-04-01T09:11:10Z</time>
      </trkpt>
      <trkpt lat="45.35715" lon="6.61491">
        <ele>2090.52</ele>
        <time>2013-04-01T09:11:14Z</time>
      </trkpt>
      <trkpt lat="45.35708" lon="6.61493">
        <ele>2091.97</ele>
        <time>2013-04-01T09:11:24Z</time>
      </trkpt>
      <trkpt lat="45.35704" lon="6.61495">
        <ele>2092.45</ele>
        <time>2013-04-01T09:11:30Z</time>
      </trkpt>
      <trkpt lat="45.35699" lon="6.61498">
        <ele>2093.89</ele>
        <time>2013-04-01T09:11:37Z</time>
      </trkpt>
      <trkpt lat="45.35695" lon="6.615">
        <ele>2093.89</ele>
        <time>2013-04-01T09:11:42Z</time>
      </trkpt>
      <trkpt lat="45.35687" lon="6.61507">
        <ele>2095.81</ele>
        <time>2013-04-01T09:11:55Z</time>
      </trkpt>
      <trkpt lat="45.35678" lon="6.61513">
        <ele>2098.21</ele>
        <time>2013-04-01T09:12:08Z</time>
      </trkpt>
      <trkpt lat="45.35671" lon="6.61519">
        <ele>2099.66</ele>
        <time>2013-04-01T09:12:19Z</time>
      </trkpt>
      <trkpt lat="45.35663" lon="6.61526">
        <ele>2101.58</ele>
        <time>2013-04-01T09:12:32Z</time>
      </trkpt>
      <trkpt lat="45.35657" lon="6.61532">
        <ele>2103.02</ele>
        <time>2013-04-01T09:12:43Z</time>
      </trkpt>
      <trkpt lat="45.35652" lon="6.6154">
        <ele>2104.94</ele>
        <time>2013-04-01T09:12:54Z</time>
      </trkpt>
      <trkpt lat="45.35646" lon="6.61549">
        <ele>2106.87</ele>
        <time>2013-04-01T09:13:06Z</time>
      </trkpt>
      <trkpt lat="45.35642" lon="6.61556">
        <ele>2108.79</ele>
        <time>2013-04-01T09:13:16Z</time>
      </trkpt>
      <trkpt lat="45.35637" lon="6.61564">
        <ele>2110.23</ele>
        <time>2013-04-01T09:13:27Z</time>
      </trkpt>
      <trkpt lat="45.35636" lon="6.61566">
        <ele>2110.71</ele>
        <time>2013-04-01T09:13:30Z</time>
      </trkpt>
      <trkpt lat="45.35631" lon="6.61572">
        <ele>2111.67</ele>
        <time>2013-04-01T09:13:40Z</time>
      </trkpt>
      <trkpt lat="45.35624" lon="6.6158">
        <ele>2113.6</ele>
        <time>2013-04-01T09:13:52Z</time>
      </trkpt>
      <trkpt lat="45.35619" lon="6.61587">
        <ele>2115.52</ele>
        <time>2013-04-01T09:14:03Z</time>
      </trkpt>
      <trkpt lat="45.35614" lon="6.61595">
        <ele>2116.96</ele>
        <time>2013-04-01T09:14:15Z</time>
      </trkpt>
      <trkpt lat="45.35608" lon="6.61604">
        <ele>2119.36</ele>
        <time>2013-04-01T09:14:27Z</time>
      </trkpt>
      <trkpt lat="45.35603" lon="6.61612">
        <ele>2120.81</ele>
        <time>2013-04-01T09:14:39Z</time>
      </trkpt>
      <trkpt lat="45.35599" lon="6.6162">
        <ele>2123.21</ele>
        <time>2013-04-01T09:14:52Z</time>
      </trkpt>
      <trkpt lat="45.35605" lon="6.61622">
        <ele>2124.65</ele>
        <time>2013-04-01T09:15:03Z</time>
      </trkpt>
      <trkpt lat="45.35606" lon="6.61623">
        <ele>2124.65</ele>
        <time>2013-04-01T09:15:04Z</time>
      </trkpt>
      <trkpt lat="45.35615" lon="6.61622">
        <ele>2126.09</ele>
        <time>2013-04-01T09:15:15Z</time>
      </trkpt>
      <trkpt lat="45.35617" lon="6.61623">
        <ele>2126.57</ele>
        <time>2013-04-01T09:15:18Z</time>
      </trkpt>
      <trkpt lat="45.35627" lon="6.61626">
        <ele>2128.5</ele>
        <time>2013-04-01T09:15:32Z</time>
      </trkpt>
      <trkpt lat="45.35635" lon="6.61627">
        <ele>2129.94</ele>
        <time>2013-04-01T09:15:43Z</time>
      </trkpt>
      <trkpt lat="45.35638" lon="6.61628">
        <ele>2130.42</ele>
        <time>2013-04-01T09:15:48Z</time>
      </trkpt>
      <trkpt lat="45.35641" lon="6.61627">
        <ele>2130.9</ele>
        <time>2013-04-01T09:15:51Z</time>
      </trkpt>
      <trkpt lat="45.35652" lon="6.61627">
        <ele>2132.82</ele>
        <time>2013-04-01T09:16:05Z</time>
      </trkpt>
      <trkpt lat="45.35657" lon="6.61628">
        <ele>2133.78</ele>
        <time>2013-04-01T09:16:23Z</time>
      </trkpt>
      <trkpt lat="45.35662" lon="6.61629">
        <ele>2134.26</ele>
        <time>2013-04-01T09:16:39Z</time>
      </trkpt>
      <trkpt lat="45.35672" lon="6.61633">
        <ele>2136.19</ele>
        <time>2013-04-01T09:16:52Z</time>
      </trkpt>
      <trkpt lat="45.35683" lon="6.61632">
        <ele>2137.15</ele>
        <time>2013-04-01T09:17:06Z</time>
      </trkpt>
      <trkpt lat="45.35692" lon="6.61635">
        <ele>2138.59</ele>
        <time>2013-04-01T09:17:17Z</time>
      </trkpt>
      <trkpt lat="45.35702" lon="6.61637">
        <ele>2139.55</ele>
        <time>2013-04-01T09:17:29Z</time>
      </trkpt>
      <trkpt lat="45.3571" lon="6.61642">
        <ele>2140.99</ele>
        <time>2013-04-01T09:17:42Z</time>
      </trkpt>
      <trkpt lat="45.35716" lon="6.61645">
        <ele>2142.44</ele>
        <time>2013-04-01T09:17:51Z</time>
      </trkpt>
      <trkpt lat="45.35718" lon="6.61648">
        <ele>2143.4</ele>
        <time>2013-04-01T09:17:59Z</time>
      </trkpt>
      <trkpt lat="45.35711" lon="6.61653">
        <ele>2144.36</ele>
        <time>2013-04-01T09:18:13Z</time>
      </trkpt>
      <trkpt lat="45.35705" lon="6.61657">
        <ele>2146.28</ele>
        <time>2013-04-01T09:18:24Z</time>
      </trkpt>
      <trkpt lat="45.35699" lon="6.61662">
        <ele>2148.2</ele>
        <time>2013-04-01T09:18:35Z</time>
      </trkpt>
      <trkpt lat="45.35694" lon="6.61667">
        <ele>2149.16</ele>
        <time>2013-04-01T09:18:46Z</time>
      </trkpt>
      <trkpt lat="45.35689" lon="6.61674">
        <ele>2151.09</ele>
        <time>2013-04-01T09:18:57Z</time>
      </trkpt>
      <trkpt lat="45.35683" lon="6.6168">
        <ele>2153.01</ele>
        <time>2013-04-01T09:19:08Z</time>
      </trkpt>
      <trkpt lat="45.35678" lon="6.61686">
        <ele>2154.93</ele>
        <time>2013-04-01T09:19:18Z</time>
      </trkpt>
      <trkpt lat="45.35674" lon="6.61692">
        <ele>2156.37</ele>
        <time>2013-04-01T09:19:29Z</time>
      </trkpt>
      <trkpt lat="45.35669" lon="6.617">
        <ele>2158.3</ele>
        <time>2013-04-01T09:19:41Z</time>
      </trkpt>
      <trkpt lat="45.35663" lon="6.61708">
        <ele>2159.74</ele>
        <time>2013-04-01T09:19:52Z</time>
      </trkpt>
      <trkpt lat="45.35656" lon="6.61716">
        <ele>2162.14</ele>
        <time>2013-04-01T09:20:05Z</time>
      </trkpt>
      <trkpt lat="45.35649" lon="6.61724">
        <ele>2164.06</ele>
        <time>2013-04-01T09:20:17Z</time>
      </trkpt>
      <trkpt lat="45.35644" lon="6.61733">
        <ele>2165.51</ele>
        <time>2013-04-01T09:20:29Z</time>
      </trkpt>
      <trkpt lat="45.35646" lon="6.61732">
        <ele>2165.99</ele>
        <time>2013-04-01T09:20:37Z</time>
      </trkpt>
      <trkpt lat="45.35658" lon="6.61729">
        <ele>2167.43</ele>
        <time>2013-04-01T09:20:51Z</time>
      </trkpt>
      <trkpt lat="45.3567" lon="6.61729">
        <ele>2168.39</ele>
        <time>2013-04-01T09:21:04Z</time>
      </trkpt>
      <trkpt lat="45.35682" lon="6.61729">
        <ele>2169.35</ele>
        <time>2013-04-01T09:21:18Z</time>
      </trkpt>
      <trkpt lat="45.3569" lon="6.61729">
        <ele>2170.31</ele>
        <time>2013-04-01T09:21:32Z</time>
      </trkpt>
      <trkpt lat="45.35701" lon="6.6173">
        <ele>2171.27</ele>
        <time>2013-04-01T09:21:45Z</time>
      </trkpt>
      <trkpt lat="45.35712" lon="6.61732">
        <ele>2173.68</ele>
        <time>2013-04-01T09:21:58Z</time>
      </trkpt>
      <trkpt lat="45.35724" lon="6.61736">
        <ele>2174.64</ele>
        <time>2013-04-01T09:22:13Z</time>
      </trkpt>
      <trkpt lat="45.35728" lon="6.61738">
        <ele>2175.6</ele>
        <time>2013-04-01T09:22:25Z</time>
      </trkpt>
      <trkpt lat="45.35725" lon="6.6174">
        <ele>2175.12</ele>
        <time>2013-04-01T09:22:29Z</time>
      </trkpt>
      <trkpt lat="45.35717" lon="6.61748">
        <ele>2177.52</ele>
        <time>2013-04-01T09:22:44Z</time>
      </trkpt>
      <trkpt lat="45.35716" lon="6.61748">
        <ele>2178</ele>
        <time>2013-04-01T09:22:45Z</time>
      </trkpt>
      <trkpt lat="45.35714" lon="6.61751">
        <ele>2178.97</ele>
        <time>2013-04-01T09:22:50Z</time>
      </trkpt>
      <trkpt lat="45.3571" lon="6.61755">
        <ele>2180.41</ele>
        <time>2013-04-01T09:22:58Z</time>
      </trkpt>
      <trkpt lat="45.35705" lon="6.61759">
        <ele>2181.85</ele>
        <time>2013-04-01T09:23:06Z</time>
      </trkpt>
      <trkpt lat="45.35696" lon="6.61767">
        <ele>2183.77</ele>
        <time>2013-04-01T09:23:19Z</time>
      </trkpt>
      <trkpt lat="45.35693" lon="6.61769">
        <ele>2183.77</ele>
        <time>2013-04-01T09:23:32Z</time>
      </trkpt>
      <trkpt lat="45.35691" lon="6.61772">
        <ele>2184.25</ele>
        <time>2013-04-01T09:23:43Z</time>
      </trkpt>
      <trkpt lat="45.35685" lon="6.61779">
        <ele>2185.69</ele>
        <time>2013-04-01T09:23:53Z</time>
      </trkpt>
      <trkpt lat="45.35679" lon="6.61787">
        <ele>2187.62</ele>
        <time>2013-04-01T09:24:05Z</time>
      </trkpt>
      <trkpt lat="45.35676" lon="6.61794">
        <ele>2190.5</ele>
        <time>2013-04-01T09:24:17Z</time>
      </trkpt>
      <trkpt lat="45.35671" lon="6.61802">
        <ele>2192.42</ele>
        <time>2013-04-01T09:24:29Z</time>
      </trkpt>
      <trkpt lat="45.35667" lon="6.61808">
        <ele>2193.87</ele>
        <time>2013-04-01T09:24:42Z</time>
      </trkpt>
      <trkpt lat="45.35662" lon="6.61816">
        <ele>2196.27</ele>
        <time>2013-04-01T09:24:55Z</time>
      </trkpt>
      <trkpt lat="45.35657" lon="6.61823">
        <ele>2198.19</ele>
        <time>2013-04-01T09:25:06Z</time>
      </trkpt>
      <trkpt lat="45.35652" lon="6.6183">
        <ele>2200.59</ele>
        <time>2013-04-01T09:25:18Z</time>
      </trkpt>
      <trkpt lat="45.35649" lon="6.61837">
        <ele>2202.04</ele>
        <time>2013-04-01T09:25:29Z</time>
      </trkpt>
      <trkpt lat="45.35644" lon="6.61845">
        <ele>2204.44</ele>
        <time>2013-04-01T09:25:42Z</time>
      </trkpt>
      <trkpt lat="45.35642" lon="6.6185">
        <ele>2206.36</ele>
        <time>2013-04-01T09:25:53Z</time>
      </trkpt>
      <trkpt lat="45.35644" lon="6.61851">
        <ele>2206.84</ele>
        <time>2013-04-01T09:26:49Z</time>
      </trkpt>
      <trkpt lat="45.35651" lon="6.61852">
        <ele>2207.81</ele>
        <time>2013-04-01T09:26:59Z</time>
      </trkpt>
      <trkpt lat="45.35659" lon="6.61852">
        <ele>2209.73</ele>
        <time>2013-04-01T09:27:11Z</time>
      </trkpt>
      <trkpt lat="45.35667" lon="6.61855">
        <ele>2211.17</ele>
        <time>2013-04-01T09:27:24Z</time>
      </trkpt>
      <trkpt lat="45.35676" lon="6.61859">
        <ele>2213.57</ele>
        <time>2013-04-01T09:27:38Z</time>
      </trkpt>
      <trkpt lat="45.35684" lon="6.61861">
        <ele>2215.01</ele>
        <time>2013-04-01T09:27:50Z</time>
      </trkpt>
      <trkpt lat="45.35691" lon="6.61863">
        <ele>2216.46</ele>
        <time>2013-04-01T09:28:02Z</time>
      </trkpt>
      <trkpt lat="45.35696" lon="6.61866">
        <ele>2218.38</ele>
        <time>2013-04-01T09:28:12Z</time>
      </trkpt>
      <trkpt lat="45.35702" lon="6.61868">
        <ele>2219.82</ele>
        <time>2013-04-01T09:28:23Z</time>
      </trkpt>
      <trkpt lat="45.3571" lon="6.6187">
        <ele>2221.26</ele>
        <time>2013-04-01T09:28:36Z</time>
      </trkpt>
      <trkpt lat="45.35718" lon="6.61871">
        <ele>2222.71</ele>
        <time>2013-04-01T09:28:48Z</time>
      </trkpt>
      <trkpt lat="45.35726" lon="6.61873">
        <ele>2224.63</ele>
        <time>2013-04-01T09:29:00Z</time>
      </trkpt>
      <trkpt lat="45.35731" lon="6.61875">
        <ele>2226.55</ele>
        <time>2013-04-01T09:29:12Z</time>
      </trkpt>
      <trkpt lat="45.35729" lon="6.61879">
        <ele>2227.51</ele>
        <time>2013-04-01T09:29:26Z</time>
      </trkpt>
      <trkpt lat="45.35727" lon="6.61881">
        <ele>2227.99</ele>
        <time>2013-04-01T09:29:37Z</time>
      </trkpt>
      <trkpt lat="45.35726" lon="6.61881">
        <ele>2227.99</ele>
        <time>2013-04-01T09:30:14Z</time>
      </trkpt>
      <trkpt lat="45.35722" lon="6.61888">
        <ele>2229.43</ele>
        <time>2013-04-01T09:31:15Z</time>
      </trkpt>
      <trkpt lat="45.35719" lon="6.61896">
        <ele>2231.84</ele>
        <time>2013-04-01T09:31:28Z</time>
      </trkpt>
      <trkpt lat="45.35715" lon="6.61903">
        <ele>2233.28</ele>
        <time>2013-04-01T09:31:39Z</time>
      </trkpt>
      <trkpt lat="45.3571" lon="6.61909">
        <ele>2235.68</ele>
        <time>2013-04-01T09:31:52Z</time>
      </trkpt>
      <trkpt lat="45.35706" lon="6.61916">
        <ele>2237.61</ele>
        <time>2013-04-01T09:32:04Z</time>
      </trkpt>
      <trkpt lat="45.35701" lon="6.61921">
        <ele>2239.53</ele>
        <time>2013-04-01T09:32:16Z</time>
      </trkpt>
      <trkpt lat="45.35697" lon="6.61928">
        <ele>2241.93</ele>
        <time>2013-04-01T09:32:29Z</time>
      </trkpt>
      <trkpt lat="45.35693" lon="6.61933">
        <ele>2244.33</ele>
        <time>2013-04-01T09:32:40Z</time>
      </trkpt>
      <trkpt lat="45.35689" lon="6.61938">
        <ele>2246.26</ele>
        <time>2013-04-01T09:32:51Z</time>
      </trkpt>
      <trkpt lat="45.35684" lon="6.61945">
        <ele>2247.7</ele>
        <time>2013-04-01T09:33:04Z</time>
      </trkpt>
      <trkpt lat="45.35679" lon="6.61952">
        <ele>2249.62</ele>
        <time>2013-04-01T09:33:18Z</time>
      </trkpt>
      <trkpt lat="45.35675" lon="6.61958">
        <ele>2251.06</ele>
        <time>2013-04-01T09:33:29Z</time>
      </trkpt>
      <trkpt lat="45.35673" lon="6.61961">
        <ele>2252.03</ele>
        <time>2013-04-01T09:33:34Z</time>
      </trkpt>
      <trkpt lat="45.35668" lon="6.61966">
        <ele>2252.99</ele>
        <time>2013-04-01T09:33:44Z</time>
      </trkpt>
      <trkpt lat="45.35662" lon="6.61972">
        <ele>2254.91</ele>
        <time>2013-04-01T09:33:56Z</time>
      </trkpt>
      <trkpt lat="45.3566" lon="6.61975">
        <ele>2256.35</ele>
        <time>2013-04-01T09:34:07Z</time>
      </trkpt>
      <trkpt lat="45.35667" lon="6.61977">
        <ele>2257.79</ele>
        <time>2013-04-01T09:34:20Z</time>
      </trkpt>
      <trkpt lat="45.35669" lon="6.61977">
        <ele>2257.79</ele>
        <time>2013-04-01T09:34:24Z</time>
      </trkpt>
      <trkpt lat="45.35678" lon="6.6198">
        <ele>2260.2</ele>
        <time>2013-04-01T09:34:36Z</time>
      </trkpt>
      <trkpt lat="45.35686" lon="6.61982">
        <ele>2261.64</ele>
        <time>2013-04-01T09:34:48Z</time>
      </trkpt>
      <trkpt lat="45.35693" lon="6.61985">
        <ele>2263.08</ele>
        <time>2013-04-01T09:35:00Z</time>
      </trkpt>
      <trkpt lat="45.357" lon="6.61988">
        <ele>2265</ele>
        <time>2013-04-01T09:35:11Z</time>
      </trkpt>
      <trkpt lat="45.35707" lon="6.6199">
        <ele>2266.45</ele>
        <time>2013-04-01T09:35:23Z</time>
      </trkpt>
      <trkpt lat="45.35714" lon="6.61992">
        <ele>2268.37</ele>
        <time>2013-04-01T09:35:34Z</time>
      </trkpt>
      <trkpt lat="45.3572" lon="6.61994">
        <ele>2269.81</ele>
        <time>2013-04-01T09:35:44Z</time>
      </trkpt>
      <trkpt lat="45.35727" lon="6.61995">
        <ele>2271.25</ele>
        <time>2013-04-01T09:35:55Z</time>
      </trkpt>
      <trkpt lat="45.35735" lon="6.61996">
        <ele>2273.17</ele>
        <time>2013-04-01T09:36:07Z</time>
      </trkpt>
      <trkpt lat="45.35742" lon="6.61998">
        <ele>2274.62</ele>
        <time>2013-04-01T09:36:19Z</time>
      </trkpt>
      <trkpt lat="45.35749" lon="6.62">
        <ele>2276.06</ele>
        <time>2013-04-01T09:36:29Z</time>
      </trkpt>
      <trkpt lat="45.35751" lon="6.62001">
        <ele>2277.02</ele>
        <time>2013-04-01T09:36:40Z</time>
      </trkpt>
      <trkpt lat="45.35748" lon="6.62007">
        <ele>2277.98</ele>
        <time>2013-04-01T09:36:50Z</time>
      </trkpt>
      <trkpt lat="45.35743" lon="6.62011">
        <ele>2279.42</ele>
        <time>2013-04-01T09:37:00Z</time>
      </trkpt>
      <trkpt lat="45.35738" lon="6.62016">
        <ele>2280.87</ele>
        <time>2013-04-01T09:37:11Z</time>
      </trkpt>
      <trkpt lat="45.35734" lon="6.62022">
        <ele>2282.79</ele>
        <time>2013-04-01T09:37:22Z</time>
      </trkpt>
      <trkpt lat="45.35728" lon="6.62028">
        <ele>2284.23</ele>
        <time>2013-04-01T09:37:33Z</time>
      </trkpt>
      <trkpt lat="45.35725" lon="6.62031">
        <ele>2285.19</ele>
        <time>2013-04-01T09:37:41Z</time>
      </trkpt>
      <trkpt lat="45.35717" lon="6.62037">
        <ele>2287.11</ele>
        <time>2013-04-01T09:37:54Z</time>
      </trkpt>
      <trkpt lat="45.35712" lon="6.62044">
        <ele>2288.56</ele>
        <time>2013-04-01T09:38:06Z</time>
      </trkpt>
      <trkpt lat="45.35706" lon="6.62049">
        <ele>2290.48</ele>
        <time>2013-04-01T09:38:17Z</time>
      </trkpt>
      <trkpt lat="45.357" lon="6.62056">
        <ele>2291.92</ele>
        <time>2013-04-01T09:38:30Z</time>
      </trkpt>
      <trkpt lat="45.35694" lon="6.62062">
        <ele>2293.84</ele>
        <time>2013-04-01T09:38:42Z</time>
      </trkpt>
      <trkpt lat="45.35688" lon="6.62067">
        <ele>2295.77</ele>
        <time>2013-04-01T09:38:54Z</time>
      </trkpt>
      <trkpt lat="45.35682" lon="6.62072">
        <ele>2297.69</ele>
        <time>2013-04-01T09:39:06Z</time>
      </trkpt>
      <trkpt lat="45.35675" lon="6.62078">
        <ele>2299.61</ele>
        <time>2013-04-01T09:39:17Z</time>
      </trkpt>
      <trkpt lat="45.35671" lon="6.62085">
        <ele>2301.53</ele>
        <time>2013-04-01T09:39:29Z</time>
      </trkpt>
      <trkpt lat="45.35668" lon="6.62088">
        <ele>2302.98</ele>
        <time>2013-04-01T09:39:40Z</time>
      </trkpt>
      <trkpt lat="45.35667" lon="6.62088">
        <ele>2302.98</ele>
        <time>2013-04-01T09:39:57Z</time>
      </trkpt>
      <trkpt lat="45.35674" lon="6.62089">
        <ele>2303.94</ele>
        <time>2013-04-01T09:40:10Z</time>
      </trkpt>
      <trkpt lat="45.35678" lon="6.62089">
        <ele>2305.86</ele>
        <time>2013-04-01T09:40:24Z</time>
      </trkpt>
      <trkpt lat="45.35686" lon="6.62095">
        <ele>2306.82</ele>
        <time>2013-04-01T09:40:37Z</time>
      </trkpt>
      <trkpt lat="45.35692" lon="6.62099">
        <ele>2308.74</ele>
        <time>2013-04-01T09:40:48Z</time>
      </trkpt>
      <trkpt lat="45.35699" lon="6.62101">
        <ele>2310.19</ele>
        <time>2013-04-01T09:40:59Z</time>
      </trkpt>
      <trkpt lat="45.35701" lon="6.62102">
        <ele>2311.63</ele>
        <time>2013-04-01T09:41:10Z</time>
      </trkpt>
      <trkpt lat="45.35699" lon="6.62106">
        <ele>2312.59</ele>
        <time>2013-04-01T09:41:21Z</time>
      </trkpt>
      <trkpt lat="45.35694" lon="6.62112">
        <ele>2314.03</ele>
        <time>2013-04-01T09:41:33Z</time>
      </trkpt>
      <trkpt lat="45.3569" lon="6.62117">
        <ele>2315.47</ele>
        <time>2013-04-01T09:41:44Z</time>
      </trkpt>
      <trkpt lat="45.35685" lon="6.62123">
        <ele>2317.88</ele>
        <time>2013-04-01T09:41:56Z</time>
      </trkpt>
      <trkpt lat="45.3568" lon="6.62127">
        <ele>2319.32</ele>
        <time>2013-04-01T09:42:06Z</time>
      </trkpt>
      <trkpt lat="45.35676" lon="6.62131">
        <ele>2320.76</ele>
        <time>2013-04-01T09:42:16Z</time>
      </trkpt>
      <trkpt lat="45.35672" lon="6.62136">
        <ele>2322.2</ele>
        <time>2013-04-01T09:42:26Z</time>
      </trkpt>
      <trkpt lat="45.35666" lon="6.62143">
        <ele>2323.64</ele>
        <time>2013-04-01T09:42:38Z</time>
      </trkpt>
      <trkpt lat="45.35669" lon="6.62143">
        <ele>2324.61</ele>
        <time>2013-04-01T09:42:49Z</time>
      </trkpt>
      <trkpt lat="45.35675" lon="6.62143">
        <ele>2326.05</ele>
        <time>2013-04-01T09:43:01Z</time>
      </trkpt>
      <trkpt lat="45.35683" lon="6.62145">
        <ele>2327.97</ele>
        <time>2013-04-01T09:43:14Z</time>
      </trkpt>
      <trkpt lat="45.35689" lon="6.62147">
        <ele>2328.93</ele>
        <time>2013-04-01T09:43:26Z</time>
      </trkpt>
      <trkpt lat="45.35697" lon="6.62149">
        <ele>2330.85</ele>
        <time>2013-04-01T09:43:38Z</time>
      </trkpt>
      <trkpt lat="45.35698" lon="6.62152">
        <ele>2331.81</ele>
        <time>2013-04-01T09:43:50Z</time>
      </trkpt>
      <trkpt lat="45.35694" lon="6.62156">
        <ele>2332.78</ele>
        <time>2013-04-01T09:44:03Z</time>
      </trkpt>
      <trkpt lat="45.35689" lon="6.62161">
        <ele>2334.7</ele>
        <time>2013-04-01T09:44:15Z</time>
      </trkpt>
      <trkpt lat="45.35684" lon="6.62165">
        <ele>2336.14</ele>
        <time>2013-04-01T09:44:28Z</time>
      </trkpt>
      <trkpt lat="45.35681" lon="6.62167">
        <ele>2337.58</ele>
        <time>2013-04-01T09:44:49Z</time>
      </trkpt>
      <trkpt lat="45.35684" lon="6.6217">
        <ele>2338.54</ele>
        <time>2013-04-01T09:45:01Z</time>
      </trkpt>
      <trkpt lat="45.35689" lon="6.62172">
        <ele>2339.99</ele>
        <time>2013-04-01T09:45:11Z</time>
      </trkpt>
      <trkpt lat="45.35692" lon="6.62174">
        <ele>2341.43</ele>
        <time>2013-04-01T09:45:25Z</time>
      </trkpt>
      <trkpt lat="45.35697" lon="6.62177">
        <ele>2341.91</ele>
        <time>2013-04-01T09:45:45Z</time>
      </trkpt>
      <trkpt lat="45.35703" lon="6.62177">
        <ele>2343.83</ele>
        <time>2013-04-01T09:45:56Z</time>
      </trkpt>
      <trkpt lat="45.35709" lon="6.62176">
        <ele>2345.27</ele>
        <time>2013-04-01T09:46:08Z</time>
      </trkpt>
      <trkpt lat="45.35709" lon="6.62178">
        <ele>2345.27</ele>
        <time>2013-04-01T09:46:24Z</time>
      </trkpt>
      <trkpt lat="45.35707" lon="6.62185">
        <ele>2345.75</ele>
        <time>2013-04-01T09:49:04Z</time>
      </trkpt>
      <trkpt lat="45.35703" lon="6.62191">
        <ele>2347.2</ele>
        <time>2013-04-01T09:49:17Z</time>
      </trkpt>
      <trkpt lat="45.35696" lon="6.62198">
        <ele>2349.12</ele>
        <time>2013-04-01T09:49:31Z</time>
      </trkpt>
      <trkpt lat="45.35692" lon="6.62202">
        <ele>2350.56</ele>
        <time>2013-04-01T09:49:42Z</time>
      </trkpt>
      <trkpt lat="45.35686" lon="6.62206">
        <ele>2352</ele>
        <time>2013-04-01T09:49:53Z</time>
      </trkpt>
      <trkpt lat="45.35685" lon="6.62205">
        <ele>2352.48</ele>
        <time>2013-04-01T09:50:03Z</time>
      </trkpt>
      <trkpt lat="45.3569" lon="6.62207">
        <ele>2353.44</ele>
        <time>2013-04-01T09:50:15Z</time>
      </trkpt>
      <trkpt lat="45.35696" lon="6.62209">
        <ele>2354.41</ele>
        <time>2013-04-01T09:50:26Z</time>
      </trkpt>
      <trkpt lat="45.35703" lon="6.62209">
        <ele>2355.85</ele>
        <time>2013-04-01T09:50:39Z</time>
      </trkpt>
      <trkpt lat="45.35708" lon="6.62208">
        <ele>2356.81</ele>
        <time>2013-04-01T09:50:58Z</time>
      </trkpt>
      <trkpt lat="45.35713" lon="6.62208">
        <ele>2357.29</ele>
        <time>2013-04-01T09:51:09Z</time>
      </trkpt>
      <trkpt lat="45.35719" lon="6.62207">
        <ele>2358.73</ele>
        <time>2013-04-01T09:51:20Z</time>
      </trkpt>
      <trkpt lat="45.3572" lon="6.62209">
        <ele>2359.69</ele>
        <time>2013-04-01T09:51:33Z</time>
      </trkpt>
      <trkpt lat="45.35717" lon="6.62214">
        <ele>2360.65</ele>
        <time>2013-04-01T09:51:42Z</time>
      </trkpt>
      <trkpt lat="45.35714" lon="6.62217">
        <ele>2362.1</ele>
        <time>2013-04-01T09:51:54Z</time>
      </trkpt>
      <trkpt lat="45.35711" lon="6.62223">
        <ele>2363.54</ele>
        <time>2013-04-01T09:52:05Z</time>
      </trkpt>
      <trkpt lat="45.35707" lon="6.62228">
        <ele>2364.98</ele>
        <time>2013-04-01T09:52:16Z</time>
      </trkpt>
      <trkpt lat="45.35703" lon="6.62233">
        <ele>2366.42</ele>
        <time>2013-04-01T09:52:27Z</time>
      </trkpt>
      <trkpt lat="45.35699" lon="6.62238">
        <ele>2367.86</ele>
        <time>2013-04-01T09:52:39Z</time>
      </trkpt>
      <trkpt lat="45.35694" lon="6.62243">
        <ele>2368.83</ele>
        <time>2013-04-01T09:52:51Z</time>
      </trkpt>
      <trkpt lat="45.3569" lon="6.62247">
        <ele>2370.75</ele>
        <time>2013-04-01T09:53:03Z</time>
      </trkpt>
      <trkpt lat="45.35686" lon="6.6225">
        <ele>2372.19</ele>
        <time>2013-04-01T09:53:12Z</time>
      </trkpt>
      <trkpt lat="45.35685" lon="6.6225">
        <ele>2373.15</ele>
        <time>2013-04-01T09:53:23Z</time>
      </trkpt>
      <trkpt lat="45.3569" lon="6.62253">
        <ele>2374.11</ele>
        <time>2013-04-01T09:53:36Z</time>
      </trkpt>
      <trkpt lat="45.35695" lon="6.62255">
        <ele>2375.07</ele>
        <time>2013-04-01T09:53:47Z</time>
      </trkpt>
      <trkpt lat="45.35698" lon="6.62256">
        <ele>2376.04</ele>
        <time>2013-04-01T09:53:59Z</time>
      </trkpt>
      <trkpt lat="45.35703" lon="6.62255">
        <ele>2377</ele>
        <time>2013-04-01T09:54:11Z</time>
      </trkpt>
      <trkpt lat="45.35711" lon="6.62255">
        <ele>2378.44</ele>
        <time>2013-04-01T09:54:23Z</time>
      </trkpt>
      <trkpt lat="45.35718" lon="6.62256">
        <ele>2379.4</ele>
        <time>2013-04-01T09:54:35Z</time>
      </trkpt>
      <trkpt lat="45.35724" lon="6.62256">
        <ele>2380.84</ele>
        <time>2013-04-01T09:54:47Z</time>
      </trkpt>
      <trkpt lat="45.35731" lon="6.62257">
        <ele>2382.28</ele>
        <time>2013-04-01T09:54:59Z</time>
      </trkpt>
      <trkpt lat="45.35734" lon="6.6226">
        <ele>2383.73</ele>
        <time>2013-04-01T09:55:12Z</time>
      </trkpt>
      <trkpt lat="45.3573" lon="6.62264">
        <ele>2385.17</ele>
        <time>2013-04-01T09:55:23Z</time>
      </trkpt>
      <trkpt lat="45.35726" lon="6.62269">
        <ele>2386.13</ele>
        <time>2013-04-01T09:55:35Z</time>
      </trkpt>
      <trkpt lat="45.35721" lon="6.62275">
        <ele>2388.53</ele>
        <time>2013-04-01T09:55:48Z</time>
      </trkpt>
      <trkpt lat="45.35716" lon="6.6228">
        <ele>2390.46</ele>
        <time>2013-04-01T09:56:01Z</time>
      </trkpt>
      <trkpt lat="45.3571" lon="6.62285">
        <ele>2392.38</ele>
        <time>2013-04-01T09:56:14Z</time>
      </trkpt>
      <trkpt lat="45.35705" lon="6.6229">
        <ele>2393.82</ele>
        <time>2013-04-01T09:56:26Z</time>
      </trkpt>
      <trkpt lat="45.35699" lon="6.62297">
        <ele>2396.22</ele>
        <time>2013-04-01T09:56:40Z</time>
      </trkpt>
      <trkpt lat="45.35695" lon="6.62301">
        <ele>2397.18</ele>
        <time>2013-04-01T09:56:52Z</time>
      </trkpt>
      <trkpt lat="45.35692" lon="6.62305">
        <ele>2398.15</ele>
        <time>2013-04-01T09:57:01Z</time>
      </trkpt>
      <trkpt lat="45.35689" lon="6.62308">
        <ele>2399.11</ele>
        <time>2013-04-01T09:57:11Z</time>
      </trkpt>
      <trkpt lat="45.35686" lon="6.62311">
        <ele>2400.55</ele>
        <time>2013-04-01T09:57:23Z</time>
      </trkpt>
      <trkpt lat="45.35686" lon="6.6231">
        <ele>2400.07</ele>
        <time>2013-04-01T09:58:14Z</time>
      </trkpt>
      <trkpt lat="45.35678" lon="6.62313">
        <ele>2401.51</ele>
        <time>2013-04-01T10:00:02Z</time>
      </trkpt>
      <trkpt lat="45.35673" lon="6.62315">
        <ele>2402.47</ele>
        <time>2013-04-01T10:00:14Z</time>
      </trkpt>
      <trkpt lat="45.35668" lon="6.62318">
        <ele>2403.91</ele>
        <time>2013-04-01T10:00:25Z</time>
      </trkpt>
      <trkpt lat="45.35662" lon="6.6232">
        <ele>2404.88</ele>
        <time>2013-04-01T10:00:37Z</time>
      </trkpt>
      <trkpt lat="45.35656" lon="6.62324">
        <ele>2406.8</ele>
        <time>2013-04-01T10:00:50Z</time>
      </trkpt>
      <trkpt lat="45.35651" lon="6.62326">
        <ele>2408.72</ele>
        <time>2013-04-01T10:01:06Z</time>
      </trkpt>
      <trkpt lat="45.35651" lon="6.62328">
        <ele>2409.68</ele>
        <time>2013-04-01T10:01:22Z</time>
      </trkpt>
      <trkpt lat="45.35655" lon="6.62331">
        <ele>2410.64</ele>
        <time>2013-04-01T10:01:34Z</time>
      </trkpt>
      <trkpt lat="45.3566" lon="6.62334">
        <ele>2412.09</ele>
        <time>2013-04-01T10:01:48Z</time>
      </trkpt>
      <trkpt lat="45.35666" lon="6.62337">
        <ele>2413.05</ele>
        <time>2013-04-01T10:02:01Z</time>
      </trkpt>
      <trkpt lat="45.35671" lon="6.62342">
        <ele>2414.97</ele>
        <time>2013-04-01T10:02:15Z</time>
      </trkpt>
      <trkpt lat="45.35678" lon="6.62346">
        <ele>2415.93</ele>
        <time>2013-04-01T10:02:30Z</time>
      </trkpt>
      <trkpt lat="45.35684" lon="6.62348">
        <ele>2417.37</ele>
        <time>2013-04-01T10:02:42Z</time>
      </trkpt>
      <trkpt lat="45.3569" lon="6.62347">
        <ele>2417.85</ele>
        <time>2013-04-01T10:02:54Z</time>
      </trkpt>
      <trkpt lat="45.35696" lon="6.62347">
        <ele>2419.3</ele>
        <time>2013-04-01T10:03:05Z</time>
      </trkpt>
      <trkpt lat="45.35703" lon="6.62348">
        <ele>2419.78</ele>
        <time>2013-04-01T10:03:18Z</time>
      </trkpt>
      <trkpt lat="45.35709" lon="6.62347">
        <ele>2420.74</ele>
        <time>2013-04-01T10:03:31Z</time>
      </trkpt>
      <trkpt lat="45.35714" lon="6.62348">
        <ele>2422.66</ele>
        <time>2013-04-01T10:03:42Z</time>
      </trkpt>
      <trkpt lat="45.35719" lon="6.62349">
        <ele>2424.1</ele>
        <time>2013-04-01T10:03:55Z</time>
      </trkpt>
      <trkpt lat="45.35725" lon="6.62351">
        <ele>2425.54</ele>
        <time>2013-04-01T10:04:07Z</time>
      </trkpt>
      <trkpt lat="45.3573" lon="6.62353">
        <ele>2426.99</ele>
        <time>2013-04-01T10:04:18Z</time>
      </trkpt>
      <trkpt lat="45.35731" lon="6.62354">
        <ele>2427.95</ele>
        <time>2013-04-01T10:04:32Z</time>
      </trkpt>
      <trkpt lat="45.35727" lon="6.62357">
        <ele>2428.91</ele>
        <time>2013-04-01T10:04:42Z</time>
      </trkpt>
      <trkpt lat="45.35721" lon="6.62363">
        <ele>2430.83</ele>
        <time>2013-04-01T10:04:58Z</time>
      </trkpt>
      <trkpt lat="45.35718" lon="6.62365">
        <ele>2431.31</ele>
        <time>2013-04-01T10:05:09Z</time>
      </trkpt>
      <trkpt lat="45.35714" lon="6.62371">
        <ele>2432.75</ele>
        <time>2013-04-01T10:05:21Z</time>
      </trkpt>
      <trkpt lat="45.3571" lon="6.62375">
        <ele>2434.2</ele>
        <time>2013-04-01T10:05:32Z</time>
      </trkpt>
      <trkpt lat="45.35704" lon="6.62381">
        <ele>2435.64</ele>
        <time>2013-04-01T10:05:47Z</time>
      </trkpt>
      <trkpt lat="45.357" lon="6.62384">
        <ele>2436.6</ele>
        <time>2013-04-01T10:05:57Z</time>
      </trkpt>
      <trkpt lat="45.35695" lon="6.62388">
        <ele>2437.56</ele>
        <time>2013-04-01T10:06:09Z</time>
      </trkpt>
      <trkpt lat="45.35691" lon="6.62391">
        <ele>2438.52</ele>
        <time>2013-04-01T10:06:20Z</time>
      </trkpt>
      <trkpt lat="45.35684" lon="6.62395">
        <ele>2439.96</ele>
        <time>2013-04-01T10:06:35Z</time>
      </trkpt>
      <trkpt lat="45.3568" lon="6.62397">
        <ele>2440.92</ele>
        <time>2013-04-01T10:06:54Z</time>
      </trkpt>
      <trkpt lat="45.35675" lon="6.624">
        <ele>2442.37</ele>
        <time>2013-04-01T10:07:07Z</time>
      </trkpt>
      <trkpt lat="45.3567" lon="6.62402">
        <ele>2443.33</ele>
        <time>2013-04-01T10:07:17Z</time>
      </trkpt>
      <trkpt lat="45.35666" lon="6.62404">
        <ele>2443.81</ele>
        <time>2013-04-01T10:07:28Z</time>
      </trkpt>
      <trkpt lat="45.3566" lon="6.62406">
        <ele>2444.77</ele>
        <time>2013-04-01T10:07:41Z</time>
      </trkpt>
      <trkpt lat="45.35656" lon="6.62406">
        <ele>2446.69</ele>
        <time>2013-04-01T10:07:52Z</time>
      </trkpt>
      <trkpt lat="45.35651" lon="6.62407">
        <ele>2447.17</ele>
        <time>2013-04-01T10:08:02Z</time>
      </trkpt>
      <trkpt lat="45.35647" lon="6.62407">
        <ele>2448.13</ele>
        <time>2013-04-01T10:08:13Z</time>
      </trkpt>
      <trkpt lat="45.35643" lon="6.62407">
        <ele>2448.62</ele>
        <time>2013-04-01T10:08:22Z</time>
      </trkpt>
      <trkpt lat="45.35642" lon="6.62407">
        <ele>2449.1</ele>
        <time>2013-04-01T10:08:39Z</time>
      </trkpt>
      <trkpt lat="45.35644" lon="6.62408">
        <ele>2449.58</ele>
        <time>2013-04-01T10:08:52Z</time>
      </trkpt>
      <trkpt lat="45.35646" lon="6.6241">
        <ele>2450.06</ele>
        <time>2013-04-01T10:09:07Z</time>
      </trkpt>
      <trkpt lat="45.35652" lon="6.62413">
        <ele>2451.02</ele>
        <time>2013-04-01T10:09:20Z</time>
      </trkpt>
      <trkpt lat="45.35653" lon="6.62415">
        <ele>2451.5</ele>
        <time>2013-04-01T10:09:34Z</time>
      </trkpt>
      <trkpt lat="45.35656" lon="6.62417">
        <ele>2451.5</ele>
        <time>2013-04-01T10:09:52Z</time>
      </trkpt>
      <trkpt lat="45.35662" lon="6.62419">
        <ele>2452.46</ele>
        <time>2013-04-01T10:10:05Z</time>
      </trkpt>
      <trkpt lat="45.35666" lon="6.6242">
        <ele>2453.42</ele>
        <time>2013-04-01T10:10:18Z</time>
      </trkpt>
      <trkpt lat="45.35665" lon="6.62421">
        <ele>2453.42</ele>
        <time>2013-04-01T10:10:31Z</time>
      </trkpt>
      <trkpt lat="45.35661" lon="6.62424">
        <ele>2454.86</ele>
        <time>2013-04-01T10:10:45Z</time>
      </trkpt>
      <trkpt lat="45.35658" lon="6.62429">
        <ele>2455.82</ele>
        <time>2013-04-01T10:10:57Z</time>
      </trkpt>
      <trkpt lat="45.35655" lon="6.62431">
        <ele>2456.79</ele>
        <time>2013-04-01T10:11:13Z</time>
      </trkpt>
      <trkpt lat="45.35652" lon="6.62433">
        <ele>2457.75</ele>
        <time>2013-04-01T10:11:48Z</time>
      </trkpt>
      <trkpt lat="45.35647" lon="6.62431">
        <ele>2459.19</ele>
        <time>2013-04-01T10:12:06Z</time>
      </trkpt>
      <trkpt lat="45.35652" lon="6.62436">
        <ele>2460.63</ele>
        <time>2013-04-01T10:12:20Z</time>
      </trkpt>
      <trkpt lat="45.35655" lon="6.62441">
        <ele>2461.59</ele>
        <time>2013-04-01T10:12:31Z</time>
      </trkpt>
      <trkpt lat="45.35651" lon="6.62442">
        <ele>2462.55</ele>
        <time>2013-04-01T10:12:48Z</time>
      </trkpt>
      <trkpt lat="45.3564" lon="6.62443">
        <ele>2465.44</ele>
        <time>2013-04-01T10:13:11Z</time>
      </trkpt>
      <trkpt lat="45.3563" lon="6.62439">
        <ele>2466.88</ele>
        <time>2013-04-01T10:13:26Z</time>
      </trkpt>
      <trkpt lat="45.35629" lon="6.62438">
        <ele>2467.84</ele>
        <time>2013-04-01T10:13:39Z</time>
      </trkpt>
      <trkpt lat="45.35632" lon="6.62444">
        <ele>2468.32</ele>
        <time>2013-04-01T10:13:53Z</time>
      </trkpt>
      <trkpt lat="45.35638" lon="6.62451">
        <ele>2470.24</ele>
        <time>2013-04-01T10:14:08Z</time>
      </trkpt>
      <trkpt lat="45.35644" lon="6.62455">
        <ele>2471.21</ele>
        <time>2013-04-01T10:14:22Z</time>
      </trkpt>
      <trkpt lat="45.35645" lon="6.62457">
        <ele>2472.17</ele>
        <time>2013-04-01T10:14:33Z</time>
      </trkpt>
      <trkpt lat="45.35641" lon="6.62457">
        <ele>2473.61</ele>
        <time>2013-04-01T10:14:58Z</time>
      </trkpt>
      <trkpt lat="45.35633" lon="6.62458">
        <ele>2475.05</ele>
        <time>2013-04-01T10:15:10Z</time>
      </trkpt>
      <trkpt lat="45.35631" lon="6.62457">
        <ele>2475.53</ele>
        <time>2013-04-01T10:15:26Z</time>
      </trkpt>
      <trkpt lat="45.35633" lon="6.62457">
        <ele>2475.53</ele>
        <time>2013-04-01T10:15:41Z</time>
      </trkpt>
      <trkpt lat="45.35636" lon="6.62463">
        <ele>2476.97</ele>
        <time>2013-04-01T10:15:52Z</time>
      </trkpt>
      <trkpt lat="45.3564" lon="6.62468">
        <ele>2478.42</ele>
        <time>2013-04-01T10:16:05Z</time>
      </trkpt>
      <trkpt lat="45.35643" lon="6.62471">
        <ele>2479.86</ele>
        <time>2013-04-01T10:16:18Z</time>
      </trkpt>
      <trkpt lat="45.35637" lon="6.62473">
        <ele>2481.78</ele>
        <time>2013-04-01T10:16:42Z</time>
      </trkpt>
      <trkpt lat="45.35633" lon="6.62472">
        <ele>2482.74</ele>
        <time>2013-04-01T10:16:53Z</time>
      </trkpt>
      <trkpt lat="45.35632" lon="6.62471">
        <ele>2483.7</ele>
        <time>2013-04-01T10:16:56Z</time>
      </trkpt>
      <trkpt lat="45.35634" lon="6.62475">
        <ele>2484.18</ele>
        <time>2013-04-01T10:17:06Z</time>
      </trkpt>
      <trkpt lat="45.35636" lon="6.62477">
        <ele>2485.15</ele>
        <time>2013-04-01T10:17:18Z</time>
      </trkpt>
      <trkpt lat="45.35639" lon="6.62481">
        <ele>2486.11</ele>
        <time>2013-04-01T10:17:31Z</time>
      </trkpt>
      <trkpt lat="45.35643" lon="6.62487">
        <ele>2487.55</ele>
        <time>2013-04-01T10:17:44Z</time>
      </trkpt>
      <trkpt lat="45.35643" lon="6.62492">
        <ele>2488.03</ele>
        <time>2013-04-01T10:18:00Z</time>
      </trkpt>
      <trkpt lat="45.35633" lon="6.62491">
        <ele>2490.91</ele>
        <time>2013-04-01T10:18:32Z</time>
      </trkpt>
      <trkpt lat="45.35629" lon="6.62489">
        <ele>2492.36</ele>
        <time>2013-04-01T10:18:57Z</time>
      </trkpt>
      <trkpt lat="45.35631" lon="6.62492">
        <ele>2493.8</ele>
        <time>2013-04-01T10:19:13Z</time>
      </trkpt>
      <trkpt lat="45.35637" lon="6.625">
        <ele>2495.72</ele>
        <time>2013-04-01T10:19:33Z</time>
      </trkpt>
      <trkpt lat="45.35634" lon="6.62504">
        <ele>2498.12</ele>
        <time>2013-04-01T10:20:12Z</time>
      </trkpt>
      <trkpt lat="45.35629" lon="6.62507">
        <ele>2500.05</ele>
        <time>2013-04-01T10:20:48Z</time>
      </trkpt>
      <trkpt lat="45.35633" lon="6.62516">
        <ele>2502.93</ele>
        <time>2013-04-01T10:21:09Z</time>
      </trkpt>
      <trkpt lat="45.35626" lon="6.62517">
        <ele>2504.85</ele>
        <time>2013-04-01T10:21:42Z</time>
      </trkpt>
      <trkpt lat="45.35622" lon="6.62523">
        <ele>2508.22</ele>
        <time>2013-04-01T10:22:16Z</time>
      </trkpt>
      <trkpt lat="45.35619" lon="6.62526">
        <ele>2511.1</ele>
        <time>2013-04-01T10:23:08Z</time>
      </trkpt>
      <trkpt lat="45.35621" lon="6.62535">
        <ele>2513.98</ele>
        <time>2013-04-01T10:24:11Z</time>
      </trkpt>
      <trkpt lat="45.35626" lon="6.62542">
        <ele>2516.87</ele>
        <time>2013-04-01T10:24:40Z</time>
      </trkpt>
      <trkpt lat="45.35621" lon="6.62549">
        <ele>2518.31</ele>
        <time>2013-04-01T10:25:09Z</time>
      </trkpt>
      <trkpt lat="45.35618" lon="6.62551">
        <ele>2519.27</ele>
        <time>2013-04-01T10:25:48Z</time>
      </trkpt>
      <trkpt lat="45.35617" lon="6.6256">
        <ele>2521.68</ele>
        <time>2013-04-01T10:26:16Z</time>
      </trkpt>
      <trkpt lat="45.35613" lon="6.62559">
        <ele>2522.16</ele>
        <time>2013-04-01T10:26:58Z</time>
      </trkpt>
      <trkpt lat="45.35613" lon="6.62559">
        <ele>2525.52</ele>
        <time>2013-04-01T10:27:50Z</time>
      </trkpt>
      <trkpt lat="45.35611" lon="6.62571">
        <ele>2528.4</ele>
        <time>2013-04-01T10:28:33Z</time>
      </trkpt>
      <trkpt lat="45.35608" lon="6.62582">
        <ele>2531.29</ele>
        <time>2013-04-01T10:29:14Z</time>
      </trkpt>
      <trkpt lat="45.35603" lon="6.62588">
        <ele>2533.69</ele>
        <time>2013-04-01T10:29:42Z</time>
      </trkpt>
      <trkpt lat="45.35601" lon="6.62594">
        <ele>2536.1</ele>
        <time>2013-04-01T10:30:21Z</time>
      </trkpt>
      <trkpt lat="45.35596" lon="6.62604">
        <ele>2538.98</ele>
        <time>2013-04-01T10:31:04Z</time>
      </trkpt>
      <trkpt lat="45.35596" lon="6.62607">
        <ele>2540.9</ele>
        <time>2013-04-01T10:31:49Z</time>
      </trkpt>
      <trkpt lat="45.35598" lon="6.62619">
        <ele>2543.31</ele>
        <time>2013-04-01T10:32:20Z</time>
      </trkpt>
      <trkpt lat="45.35596" lon="6.62622">
        <ele>2544.75</ele>
        <time>2013-04-01T10:32:45Z</time>
      </trkpt>
      <trkpt lat="45.35599" lon="6.62627">
        <ele>2547.15</ele>
        <time>2013-04-01T10:33:34Z</time>
      </trkpt>
      <trkpt lat="45.35599" lon="6.62635">
        <ele>2550.03</ele>
        <time>2013-04-01T10:34:33Z</time>
      </trkpt>
      <trkpt lat="45.35594" lon="6.62633">
        <ele>2551.48</ele>
        <time>2013-04-01T10:34:57Z</time>
      </trkpt>
      <trkpt lat="45.35595" lon="6.62643">
        <ele>2552.92</ele>
        <time>2013-04-01T10:35:22Z</time>
      </trkpt>
      <trkpt lat="45.35586" lon="6.62642">
        <ele>2555.32</ele>
        <time>2013-04-01T10:36:07Z</time>
      </trkpt>
      <trkpt lat="45.35589" lon="6.6265">
        <ele>2556.76</ele>
        <time>2013-04-01T10:36:34Z</time>
      </trkpt>
      <trkpt lat="45.35581" lon="6.62651">
        <ele>2560.13</ele>
        <time>2013-04-01T10:37:02Z</time>
      </trkpt>
      <trkpt lat="45.35584" lon="6.62662">
        <ele>2562.05</ele>
        <time>2013-04-01T10:37:37Z</time>
      </trkpt>
      <trkpt lat="45.35585" lon="6.62665">
        <ele>2563.01</ele>
        <time>2013-04-01T10:37:55Z</time>
      </trkpt>
      <trkpt lat="45.35575" lon="6.62665">
        <ele>2565.42</ele>
        <time>2013-04-01T10:38:29Z</time>
      </trkpt>
      <trkpt lat="45.35577" lon="6.62673">
        <ele>2566.86</ele>
        <time>2013-04-01T10:39:07Z</time>
      </trkpt>
      <trkpt lat="45.35579" lon="6.62679">
        <ele>2567.82</ele>
        <time>2013-04-01T10:39:24Z</time>
      </trkpt>
      <trkpt lat="45.35575" lon="6.62678">
        <ele>2569.26</ele>
        <time>2013-04-01T10:39:39Z</time>
      </trkpt>
      <trkpt lat="45.35574" lon="6.62679">
        <ele>2570.22</ele>
        <time>2013-04-01T10:40:01Z</time>
      </trkpt>
      <trkpt lat="45.35578" lon="6.6269">
        <ele>2570.7</ele>
        <time>2013-04-01T10:40:24Z</time>
      </trkpt>
      <trkpt lat="45.35577" lon="6.62691">
        <ele>2571.18</ele>
        <time>2013-04-01T10:40:28Z</time>
      </trkpt>
      <trkpt lat="45.35582" lon="6.62706">
        <ele>2571.66</ele>
        <time>2013-04-01T10:40:49Z</time>
      </trkpt>
      <trkpt lat="45.35577" lon="6.6271">
        <ele>2573.11</ele>
        <time>2013-04-01T10:41:07Z</time>
      </trkpt>
      <trkpt lat="45.35565" lon="6.62697">
        <ele>2575.51</ele>
        <time>2013-04-01T10:41:31Z</time>
      </trkpt>
      <trkpt lat="45.35562" lon="6.62698">
        <ele>2575.99</ele>
        <time>2013-04-01T10:41:51Z</time>
      </trkpt>
      <trkpt lat="45.35564" lon="6.62709">
        <ele>2576.95</ele>
        <time>2013-04-01T10:42:08Z</time>
      </trkpt>
      <trkpt lat="45.35571" lon="6.62729">
        <ele>2577.91</ele>
        <time>2013-04-01T10:42:28Z</time>
      </trkpt>
      <trkpt lat="45.35574" lon="6.62747">
        <ele>2578.87</ele>
        <time>2013-04-01T10:42:45Z</time>
      </trkpt>
      <trkpt lat="45.35573" lon="6.62753">
        <ele>2578.87</ele>
        <time>2013-04-01T10:43:01Z</time>
      </trkpt>
      <trkpt lat="45.3557" lon="6.6277">
        <ele>2580.32</ele>
        <time>2013-04-01T10:43:20Z</time>
      </trkpt>
      <trkpt lat="45.35561" lon="6.62758">
        <ele>2581.76</ele>
        <time>2013-04-01T10:43:43Z</time>
      </trkpt>
      <trkpt lat="45.35555" lon="6.62722">
        <ele>2581.76</ele>
        <time>2013-04-01T10:44:00Z</time>
      </trkpt>
      <trkpt lat="45.35554" lon="6.62722">
        <ele>2581.28</ele>
        <time>2013-04-01T10:44:16Z</time>
      </trkpt>
      <trkpt lat="45.35559" lon="6.62735">
        <ele>2582.24</ele>
        <time>2013-04-01T10:44:33Z</time>
      </trkpt>
      <trkpt lat="45.35563" lon="6.6275">
        <ele>2583.68</ele>
        <time>2013-04-01T10:44:49Z</time>
      </trkpt>
      <trkpt lat="45.35569" lon="6.62737">
        <ele>2584.64</ele>
        <time>2013-04-01T10:45:05Z</time>
      </trkpt>
      <trkpt lat="45.35573" lon="6.62696">
        <ele>2584.16</ele>
        <time>2013-04-01T10:45:25Z</time>
      </trkpt>
      <trkpt lat="45.3557" lon="6.62691">
        <ele>2585.12</ele>
        <time>2013-04-01T10:45:46Z</time>
      </trkpt>
      <trkpt lat="45.35565" lon="6.62689">
        <ele>2586.56</ele>
        <time>2013-04-01T10:46:01Z</time>
      </trkpt>
      <trkpt lat="45.35563" lon="6.62707">
        <ele>2588.49</ele>
        <time>2013-04-01T10:46:20Z</time>
      </trkpt>
      <trkpt lat="45.35562" lon="6.62713">
        <ele>2588.01</ele>
        <time>2013-04-01T10:46:35Z</time>
      </trkpt>
      <trkpt lat="45.35564" lon="6.62727">
        <ele>2589.93</ele>
        <time>2013-04-01T10:46:52Z</time>
      </trkpt>
      <trkpt lat="45.35571" lon="6.62711">
        <ele>2591.37</ele>
        <time>2013-04-01T10:47:11Z</time>
      </trkpt>
      <trkpt lat="45.3557" lon="6.62708">
        <ele>2591.37</ele>
        <time>2013-04-01T10:47:26Z</time>
      </trkpt>
      <trkpt lat="45.35563" lon="6.62699">
        <ele>2592.33</ele>
        <time>2013-04-01T10:47:57Z</time>
      </trkpt>
      <trkpt lat="45.35559" lon="6.62703">
        <ele>2593.77</ele>
        <time>2013-04-01T10:48:14Z</time>
      </trkpt>
      <trkpt lat="45.35553" lon="6.62716">
        <ele>2595.22</ele>
        <time>2013-04-01T10:48:35Z</time>
      </trkpt>
      <trkpt lat="45.35554" lon="6.62719">
        <ele>2595.7</ele>
        <time>2013-04-01T10:48:50Z</time>
      </trkpt>
      <trkpt lat="45.35563" lon="6.62722">
        <ele>2598.1</ele>
        <time>2013-04-01T10:49:11Z</time>
      </trkpt>
      <trkpt lat="45.35565" lon="6.62723">
        <ele>2599.06</ele>
        <time>2013-04-01T10:49:32Z</time>
      </trkpt>
      <trkpt lat="45.35563" lon="6.62721">
        <ele>2600.02</ele>
        <time>2013-04-01T10:49:55Z</time>
      </trkpt>
      <trkpt lat="45.35558" lon="6.62719">
        <ele>2601.46</ele>
        <time>2013-04-01T10:50:15Z</time>
      </trkpt>
      <trkpt lat="45.35555" lon="6.62717">
        <ele>2603.39</ele>
        <time>2013-04-01T10:50:28Z</time>
      </trkpt>
      <trkpt lat="45.35554" lon="6.62716">
        <ele>2603.39</ele>
        <time>2013-04-01T10:50:47Z</time>
      </trkpt>
      <trkpt lat="45.35555" lon="6.62717">
        <ele>2604.35</ele>
        <time>2013-04-01T10:50:59Z</time>
      </trkpt>
      <trkpt lat="45.35554" lon="6.62718">
        <ele>2604.83</ele>
        <time>2013-04-01T10:51:26Z</time>
      </trkpt>
      <trkpt lat="45.35555" lon="6.62718">
        <ele>2605.31</ele>
        <time>2013-04-01T10:52:43Z</time>
      </trkpt>
      <trkpt lat="45.35556" lon="6.6272">
        <ele>2605.79</ele>
        <time>2013-04-01T10:52:59Z</time>
      </trkpt>
      <trkpt lat="45.35558" lon="6.62724">
        <ele>2607.23</ele>
        <time>2013-04-01T10:53:10Z</time>
      </trkpt>
      <trkpt lat="45.35561" lon="6.62728">
        <ele>2608.67</ele>
        <time>2013-04-01T10:53:22Z</time>
      </trkpt>
      <trkpt lat="45.35561" lon="6.62729">
        <ele>2609.64</ele>
        <time>2013-04-01T10:53:34Z</time>
      </trkpt>
      <trkpt lat="45.35558" lon="6.62729">
        <ele>2610.6</ele>
        <time>2013-04-01T10:53:46Z</time>
      </trkpt>
      <trkpt lat="45.35555" lon="6.62728">
        <ele>2612.04</ele>
        <time>2013-04-01T10:54:01Z</time>
      </trkpt>
      <trkpt lat="45.35549" lon="6.62726">
        <ele>2613.96</ele>
        <time>2013-04-01T10:54:16Z</time>
      </trkpt>
      <trkpt lat="45.35549" lon="6.62725">
        <ele>2614.44</ele>
        <time>2013-04-01T10:54:26Z</time>
      </trkpt>
      <trkpt lat="45.35549" lon="6.62732">
        <ele>2615.88</ele>
        <time>2013-04-01T10:54:44Z</time>
      </trkpt>
      <trkpt lat="45.35552" lon="6.62738">
        <ele>2617.81</ele>
        <time>2013-04-01T10:54:59Z</time>
      </trkpt>
      <trkpt lat="45.35555" lon="6.6274">
        <ele>2619.25</ele>
        <time>2013-04-01T10:55:08Z</time>
      </trkpt>
      <trkpt lat="45.35554" lon="6.62741">
        <ele>2620.21</ele>
        <time>2013-04-01T10:55:23Z</time>
      </trkpt>
      <trkpt lat="45.35551" lon="6.62741">
        <ele>2620.69</ele>
        <time>2013-04-01T10:55:36Z</time>
      </trkpt>
      <trkpt lat="45.35549" lon="6.62741">
        <ele>2622.13</ele>
        <time>2013-04-01T10:55:48Z</time>
      </trkpt>
      <trkpt lat="45.35546" lon="6.62742">
        <ele>2622.61</ele>
        <time>2013-04-01T10:56:00Z</time>
      </trkpt>
      <trkpt lat="45.35543" lon="6.6274">
        <ele>2624.06</ele>
        <time>2013-04-01T10:56:09Z</time>
      </trkpt>
      <trkpt lat="45.3554" lon="6.62736">
        <ele>2625.02</ele>
        <time>2013-04-01T10:56:23Z</time>
      </trkpt>
      <trkpt lat="45.3554" lon="6.62739">
        <ele>2625.5</ele>
        <time>2013-04-01T10:56:34Z</time>
      </trkpt>
      <trkpt lat="45.35541" lon="6.62744">
        <ele>2626.94</ele>
        <time>2013-04-01T10:56:45Z</time>
      </trkpt>
      <trkpt lat="45.35543" lon="6.6275">
        <ele>2628.86</ele>
        <time>2013-04-01T10:56:56Z</time>
      </trkpt>
      <trkpt lat="45.35546" lon="6.62753">
        <ele>2630.3</ele>
        <time>2013-04-01T10:57:08Z</time>
      </trkpt>
      <trkpt lat="45.35541" lon="6.62754">
        <ele>2631.75</ele>
        <time>2013-04-01T10:57:19Z</time>
      </trkpt>
      <trkpt lat="45.35536" lon="6.62752">
        <ele>2633.19</ele>
        <time>2013-04-01T10:57:33Z</time>
      </trkpt>
      <trkpt lat="45.35533" lon="6.62749">
        <ele>2634.63</ele>
        <time>2013-04-01T10:57:53Z</time>
      </trkpt>
      <trkpt lat="45.35534" lon="6.62756">
        <ele>2636.55</ele>
        <time>2013-04-01T10:58:08Z</time>
      </trkpt>
      <trkpt lat="45.35535" lon="6.62762">
        <ele>2637.99</ele>
        <time>2013-04-01T10:58:20Z</time>
      </trkpt>
      <trkpt lat="45.35537" lon="6.62769">
        <ele>2639.44</ele>
        <time>2013-04-01T10:58:34Z</time>
      </trkpt>
      <trkpt lat="45.35534" lon="6.62769">
        <ele>2640.88</ele>
        <time>2013-04-01T10:58:44Z</time>
      </trkpt>
      <trkpt lat="45.3553" lon="6.62766">
        <ele>2642.8</ele>
        <time>2013-04-01T10:58:57Z</time>
      </trkpt>
      <trkpt lat="45.35525" lon="6.62763">
        <ele>2645.21</ele>
        <time>2013-04-01T10:59:12Z</time>
      </trkpt>
      <trkpt lat="45.35524" lon="6.62762">
        <ele>2646.17</ele>
        <time>2013-04-01T10:59:37Z</time>
      </trkpt>
      <trkpt lat="45.35523" lon="6.62763">
        <ele>2647.61</ele>
        <time>2013-04-01T10:59:57Z</time>
      </trkpt>
      <trkpt lat="45.35522" lon="6.62767">
        <ele>2648.57</ele>
        <time>2013-04-01T11:00:14Z</time>
      </trkpt>
      <trkpt lat="45.35522" lon="6.62771">
        <ele>2649.53</ele>
        <time>2013-04-01T11:00:28Z</time>
      </trkpt>
      <trkpt lat="45.35524" lon="6.62775">
        <ele>2650.97</ele>
        <time>2013-04-01T11:00:57Z</time>
      </trkpt>
      <trkpt lat="45.35521" lon="6.62772">
        <ele>2652.42</ele>
        <time>2013-04-01T11:01:13Z</time>
      </trkpt>
      <trkpt lat="45.35518" lon="6.6277">
        <ele>2653.86</ele>
        <time>2013-04-01T11:01:26Z</time>
      </trkpt>
      <trkpt lat="45.35519" lon="6.62772">
        <ele>2654.82</ele>
        <time>2013-04-01T11:01:42Z</time>
      </trkpt>
      <trkpt lat="45.35519" lon="6.62778">
        <ele>2656.26</ele>
        <time>2013-04-01T11:01:53Z</time>
      </trkpt>
      <trkpt lat="45.35521" lon="6.62782">
        <ele>2657.7</ele>
        <time>2013-04-01T11:02:04Z</time>
      </trkpt>
      <trkpt lat="45.35521" lon="6.62784">
        <ele>2658.66</ele>
        <time>2013-04-01T11:02:17Z</time>
      </trkpt>
      <trkpt lat="45.35516" lon="6.62781">
        <ele>2659.62</ele>
        <time>2013-04-01T11:02:28Z</time>
      </trkpt>
      <trkpt lat="45.35513" lon="6.62778">
        <ele>2660.59</ele>
        <time>2013-04-01T11:02:40Z</time>
      </trkpt>
      <trkpt lat="45.3551" lon="6.62776">
        <ele>2662.51</ele>
        <time>2013-04-01T11:02:53Z</time>
      </trkpt>
      <trkpt lat="45.35511" lon="6.6278">
        <ele>2663.47</ele>
        <time>2013-04-01T11:03:05Z</time>
      </trkpt>
      <trkpt lat="45.35511" lon="6.62788">
        <ele>2665.39</ele>
        <time>2013-04-01T11:03:21Z</time>
      </trkpt>
      <trkpt lat="45.35514" lon="6.62793">
        <ele>2666.35</ele>
        <time>2013-04-01T11:03:40Z</time>
      </trkpt>
      <trkpt lat="45.35514" lon="6.62794">
        <ele>2666.83</ele>
        <time>2013-04-01T11:03:58Z</time>
      </trkpt>
      <trkpt lat="45.35513" lon="6.62796">
        <ele>2667.31</ele>
        <time>2013-04-01T11:04:09Z</time>
      </trkpt>
      <trkpt lat="45.35508" lon="6.62795">
        <ele>2669.72</ele>
        <time>2013-04-01T11:04:22Z</time>
      </trkpt>
      <trkpt lat="45.35503" lon="6.62793">
        <ele>2671.64</ele>
        <time>2013-04-01T11:04:35Z</time>
      </trkpt>
      <trkpt lat="45.35499" lon="6.62791">
        <ele>2673.56</ele>
        <time>2013-04-01T11:04:47Z</time>
      </trkpt>
      <trkpt lat="45.35498" lon="6.62792">
        <ele>2675.01</ele>
        <time>2013-04-01T11:05:01Z</time>
      </trkpt>
      <trkpt lat="45.35499" lon="6.62797">
        <ele>2676.45</ele>
        <time>2013-04-01T11:05:13Z</time>
      </trkpt>
      <trkpt lat="45.35501" lon="6.62803">
        <ele>2677.89</ele>
        <time>2013-04-01T11:05:25Z</time>
      </trkpt>
      <trkpt lat="45.355" lon="6.62805">
        <ele>2678.85</ele>
        <time>2013-04-01T11:05:38Z</time>
      </trkpt>
      <trkpt lat="45.35496" lon="6.62803">
        <ele>2679.33</ele>
        <time>2013-04-01T11:05:51Z</time>
      </trkpt>
      <trkpt lat="45.35494" lon="6.628">
        <ele>2680.77</ele>
        <time>2013-04-01T11:06:02Z</time>
      </trkpt>
      <trkpt lat="45.3549" lon="6.62797">
        <ele>2682.7</ele>
        <time>2013-04-01T11:06:17Z</time>
      </trkpt>
      <trkpt lat="45.3549" lon="6.62797">
        <ele>2683.18</ele>
        <time>2013-04-01T11:06:36Z</time>
      </trkpt>
      <trkpt lat="45.35489" lon="6.62798">
        <ele>2684.14</ele>
        <time>2013-04-01T11:07:01Z</time>
      </trkpt>
      <trkpt lat="45.35489" lon="6.628">
        <ele>2685.1</ele>
        <time>2013-04-01T11:07:48Z</time>
      </trkpt>
      <trkpt lat="45.35492" lon="6.62809">
        <ele>2686.54</ele>
        <time>2013-04-01T11:08:02Z</time>
      </trkpt>
      <trkpt lat="45.35494" lon="6.62813">
        <ele>2687.98</ele>
        <time>2013-04-01T11:08:11Z</time>
      </trkpt>
      <trkpt lat="45.35494" lon="6.62816">
        <ele>2689.43</ele>
        <time>2013-04-01T11:08:24Z</time>
      </trkpt>
      <trkpt lat="45.35489" lon="6.62814">
        <ele>2689.91</ele>
        <time>2013-04-01T11:08:37Z</time>
      </trkpt>
      <trkpt lat="45.35485" lon="6.6281">
        <ele>2691.35</ele>
        <time>2013-04-01T11:08:50Z</time>
      </trkpt>
      <trkpt lat="45.35484" lon="6.62808">
        <ele>2692.79</ele>
        <time>2013-04-01T11:09:00Z</time>
      </trkpt>
      <trkpt lat="45.35484" lon="6.62812">
        <ele>2694.23</ele>
        <time>2013-04-01T11:09:15Z</time>
      </trkpt>
      <trkpt lat="45.35486" lon="6.62819">
        <ele>2696.15</ele>
        <time>2013-04-01T11:09:27Z</time>
      </trkpt>
      <trkpt lat="45.35489" lon="6.62825">
        <ele>2697.6</ele>
        <time>2013-04-01T11:09:41Z</time>
      </trkpt>
      <trkpt lat="45.35488" lon="6.62827">
        <ele>2699.04</ele>
        <time>2013-04-01T11:09:55Z</time>
      </trkpt>
      <trkpt lat="45.35486" lon="6.62826">
        <ele>2699.52</ele>
        <time>2013-04-01T11:10:06Z</time>
      </trkpt>
      <trkpt lat="45.35483" lon="6.62823">
        <ele>2700</ele>
        <time>2013-04-01T11:10:10Z</time>
      </trkpt>
      <trkpt lat="45.35478" lon="6.6282">
        <ele>2702.4</ele>
        <time>2013-04-01T11:10:26Z</time>
      </trkpt>
      <trkpt lat="45.35473" lon="6.62818">
        <ele>2703.36</ele>
        <time>2013-04-01T11:10:38Z</time>
      </trkpt>
      <trkpt lat="45.35472" lon="6.62814">
        <ele>2705.29</ele>
        <time>2013-04-01T11:10:51Z</time>
      </trkpt>
      <trkpt lat="45.35473" lon="6.62817">
        <ele>2705.77</ele>
        <time>2013-04-01T11:11:06Z</time>
      </trkpt>
      <trkpt lat="45.35474" lon="6.62822">
        <ele>2707.21</ele>
        <time>2013-04-01T11:11:54Z</time>
      </trkpt>
      <trkpt lat="45.35476" lon="6.6283">
        <ele>2709.13</ele>
        <time>2013-04-01T11:12:09Z</time>
      </trkpt>
      <trkpt lat="45.3548" lon="6.62844">
        <ele>2712.02</ele>
        <time>2013-04-01T11:12:32Z</time>
      </trkpt>
      <trkpt lat="45.35478" lon="6.62841">
        <ele>2713.46</ele>
        <time>2013-04-01T11:12:46Z</time>
      </trkpt>
      <trkpt lat="45.35475" lon="6.6284">
        <ele>2715.86</ele>
        <time>2013-04-01T11:13:00Z</time>
      </trkpt>
      <trkpt lat="45.35475" lon="6.6285">
        <ele>2718.27</ele>
        <time>2013-04-01T11:13:24Z</time>
      </trkpt>
      <trkpt lat="45.35476" lon="6.62853">
        <ele>2720.19</ele>
        <time>2013-04-01T11:13:35Z</time>
      </trkpt>
      <trkpt lat="45.35474" lon="6.62852">
        <ele>2720.67</ele>
        <time>2013-04-01T11:13:53Z</time>
      </trkpt>
      <trkpt lat="45.3547" lon="6.62852">
        <ele>2722.59</ele>
        <time>2013-04-01T11:14:18Z</time>
      </trkpt>
      <trkpt lat="45.35467" lon="6.62856">
        <ele>2725.48</ele>
        <time>2013-04-01T11:14:51Z</time>
      </trkpt>
      <trkpt lat="45.35469" lon="6.62862">
        <ele>2726.92</ele>
        <time>2013-04-01T11:15:01Z</time>
      </trkpt>
      <trkpt lat="45.3547" lon="6.62867">
        <ele>2727.88</ele>
        <time>2013-04-01T11:15:12Z</time>
      </trkpt>
      <trkpt lat="45.35466" lon="6.62862">
        <ele>2729.32</ele>
        <time>2013-04-01T11:15:27Z</time>
      </trkpt>
      <trkpt lat="45.35464" lon="6.62863">
        <ele>2731.24</ele>
        <time>2013-04-01T11:15:43Z</time>
      </trkpt>
      <trkpt lat="45.35465" lon="6.62863">
        <ele>2731.24</ele>
        <time>2013-04-01T11:15:48Z</time>
      </trkpt>
      <trkpt lat="45.35466" lon="6.62864">
        <ele>2732.2</ele>
        <time>2013-04-01T11:16:00Z</time>
      </trkpt>
      <trkpt lat="45.35467" lon="6.62867">
        <ele>2733.65</ele>
        <time>2013-04-01T11:16:21Z</time>
      </trkpt>
      <trkpt lat="45.35465" lon="6.6287">
        <ele>2734.61</ele>
        <time>2013-04-01T11:16:36Z</time>
      </trkpt>
      <trkpt lat="45.35461" lon="6.62868">
        <ele>2736.05</ele>
        <time>2013-04-01T11:16:57Z</time>
      </trkpt>
      <trkpt lat="45.35457" lon="6.62866">
        <ele>2737.97</ele>
        <time>2013-04-01T11:17:12Z</time>
      </trkpt>
      <trkpt lat="45.35457" lon="6.62865">
        <ele>2738.93</ele>
        <time>2013-04-01T11:17:26Z</time>
      </trkpt>
      <trkpt lat="45.35456" lon="6.62869">
        <ele>2739.89</ele>
        <time>2013-04-01T11:17:52Z</time>
      </trkpt>
      <trkpt lat="45.35458" lon="6.62877">
        <ele>2741.34</ele>
        <time>2013-04-01T11:18:05Z</time>
      </trkpt>
      <trkpt lat="45.35459" lon="6.6288">
        <ele>2741.82</ele>
        <time>2013-04-01T11:18:10Z</time>
      </trkpt>
      <trkpt lat="45.3546" lon="6.62882">
        <ele>2742.78</ele>
        <time>2013-04-01T11:18:19Z</time>
      </trkpt>
      <trkpt lat="45.35454" lon="6.6288">
        <ele>2744.7</ele>
        <time>2013-04-01T11:18:40Z</time>
      </trkpt>
      <trkpt lat="45.35451" lon="6.62877">
        <ele>2746.14</ele>
        <time>2013-04-01T11:18:52Z</time>
      </trkpt>
      <trkpt lat="45.35452" lon="6.62882">
        <ele>2747.59</ele>
        <time>2013-04-01T11:19:04Z</time>
      </trkpt>
      <trkpt lat="45.35455" lon="6.62886">
        <ele>2748.55</ele>
        <time>2013-04-01T11:19:16Z</time>
      </trkpt>
      <trkpt lat="45.35456" lon="6.62889">
        <ele>2749.51</ele>
        <time>2013-04-01T11:19:28Z</time>
      </trkpt>
      <trkpt lat="45.35451" lon="6.62889">
        <ele>2750.47</ele>
        <time>2013-04-01T11:19:41Z</time>
      </trkpt>
      <trkpt lat="45.35448" lon="6.62887">
        <ele>2752.39</ele>
        <time>2013-04-01T11:19:53Z</time>
      </trkpt>
      <trkpt lat="45.3545" lon="6.62887">
        <ele>2752.87</ele>
        <time>2013-04-01T11:20:05Z</time>
      </trkpt>
      <trkpt lat="45.3545" lon="6.62894">
        <ele>2754.31</ele>
        <time>2013-04-01T11:20:18Z</time>
      </trkpt>
      <trkpt lat="45.35452" lon="6.62898">
        <ele>2756.24</ele>
        <time>2013-04-01T11:20:29Z</time>
      </trkpt>
      <trkpt lat="45.35452" lon="6.629">
        <ele>2757.2</ele>
        <time>2013-04-01T11:20:42Z</time>
      </trkpt>
      <trkpt lat="45.35449" lon="6.629">
        <ele>2758.16</ele>
        <time>2013-04-01T11:20:53Z</time>
      </trkpt>
      <trkpt lat="45.35449" lon="6.629">
        <ele>2758.16</ele>
        <time>2013-04-01T11:20:54Z</time>
      </trkpt>
      <trkpt lat="45.35444" lon="6.629">
        <ele>2759.6</ele>
        <time>2013-04-01T11:21:06Z</time>
      </trkpt>
      <trkpt lat="45.35441" lon="6.62897">
        <ele>2760.56</ele>
        <time>2013-04-01T11:21:20Z</time>
      </trkpt>
      <trkpt lat="45.35442" lon="6.629">
        <ele>2761.52</ele>
        <time>2013-04-01T11:21:35Z</time>
      </trkpt>
      <trkpt lat="45.35445" lon="6.62906">
        <ele>2762.97</ele>
        <time>2013-04-01T11:21:50Z</time>
      </trkpt>
      <trkpt lat="45.35449" lon="6.6291">
        <ele>2764.89</ele>
        <time>2013-04-01T11:22:04Z</time>
      </trkpt>
      <trkpt lat="45.35452" lon="6.62913">
        <ele>2765.85</ele>
        <time>2013-04-01T11:22:17Z</time>
      </trkpt>
      <trkpt lat="45.35451" lon="6.62914">
        <ele>2766.81</ele>
        <time>2013-04-01T11:22:30Z</time>
      </trkpt>
      <trkpt lat="45.35447" lon="6.62914">
        <ele>2767.29</ele>
        <time>2013-04-01T11:22:49Z</time>
      </trkpt>
      <trkpt lat="45.35443" lon="6.62916">
        <ele>2768.73</ele>
        <time>2013-04-01T11:23:00Z</time>
      </trkpt>
      <trkpt lat="45.35439" lon="6.62915">
        <ele>2769.7</ele>
        <time>2013-04-01T11:23:11Z</time>
      </trkpt>
      <trkpt lat="45.35436" lon="6.62912">
        <ele>2771.14</ele>
        <time>2013-04-01T11:23:24Z</time>
      </trkpt>
      <trkpt lat="45.35437" lon="6.62915">
        <ele>2771.14</ele>
        <time>2013-04-01T11:23:36Z</time>
      </trkpt>
      <trkpt lat="45.35439" lon="6.62922">
        <ele>2772.58</ele>
        <time>2013-04-01T11:23:49Z</time>
      </trkpt>
      <trkpt lat="45.35444" lon="6.62928">
        <ele>2774.5</ele>
        <time>2013-04-01T11:24:04Z</time>
      </trkpt>
      <trkpt lat="45.35449" lon="6.6293">
        <ele>2776.42</ele>
        <time>2013-04-01T11:24:17Z</time>
      </trkpt>
      <trkpt lat="45.35453" lon="6.62933">
        <ele>2777.87</ele>
        <time>2013-04-01T11:24:32Z</time>
      </trkpt>
      <trkpt lat="45.35452" lon="6.62934">
        <ele>2778.35</ele>
        <time>2013-04-01T11:24:39Z</time>
      </trkpt>
      <trkpt lat="45.35449" lon="6.62935">
        <ele>2779.31</ele>
        <time>2013-04-01T11:24:49Z</time>
      </trkpt>
      <trkpt lat="45.35444" lon="6.62934">
        <ele>2781.23</ele>
        <time>2013-04-01T11:25:01Z</time>
      </trkpt>
      <trkpt lat="45.35442" lon="6.62935">
        <ele>2781.23</ele>
        <time>2013-04-01T11:25:05Z</time>
      </trkpt>
      <trkpt lat="45.35436" lon="6.62935">
        <ele>2782.67</ele>
        <time>2013-04-01T11:25:17Z</time>
      </trkpt>
      <trkpt lat="45.35434" lon="6.62933">
        <ele>2783.63</ele>
        <time>2013-04-01T11:25:29Z</time>
      </trkpt>
      <trkpt lat="45.3543" lon="6.62931">
        <ele>2785.08</ele>
        <time>2013-04-01T11:25:42Z</time>
      </trkpt>
      <trkpt lat="45.35429" lon="6.62933">
        <ele>2785.08</ele>
        <time>2013-04-01T11:25:58Z</time>
      </trkpt>
      <trkpt lat="45.3543" lon="6.62938">
        <ele>2786.52</ele>
        <time>2013-04-01T11:26:10Z</time>
      </trkpt>
      <trkpt lat="45.35435" lon="6.62946">
        <ele>2788.92</ele>
        <time>2013-04-01T11:26:27Z</time>
      </trkpt>
      <trkpt lat="45.35439" lon="6.62949">
        <ele>2790.36</ele>
        <time>2013-04-01T11:26:39Z</time>
      </trkpt>
      <trkpt lat="45.35445" lon="6.62952">
        <ele>2792.29</ele>
        <time>2013-04-01T11:26:53Z</time>
      </trkpt>
      <trkpt lat="45.35446" lon="6.62954">
        <ele>2793.25</ele>
        <time>2013-04-01T11:27:04Z</time>
      </trkpt>
      <trkpt lat="45.35446" lon="6.62954">
        <ele>2793.73</ele>
        <time>2013-04-01T11:27:11Z</time>
      </trkpt>
      <trkpt lat="45.35447" lon="6.62958">
        <ele>2794.21</ele>
        <time>2013-04-01T11:27:18Z</time>
      </trkpt>
      <trkpt lat="45.35444" lon="6.62959">
        <ele>2795.65</ele>
        <time>2013-04-01T11:27:29Z</time>
      </trkpt>
      <trkpt lat="45.35438" lon="6.62961">
        <ele>2797.09</ele>
        <time>2013-04-01T11:27:43Z</time>
      </trkpt>
      <trkpt lat="45.35432" lon="6.62961">
        <ele>2798.54</ele>
        <time>2013-04-01T11:28:03Z</time>
      </trkpt>
      <trkpt lat="45.35427" lon="6.6296">
        <ele>2799.02</ele>
        <time>2013-04-01T11:28:17Z</time>
      </trkpt>
      <trkpt lat="45.35425" lon="6.6296">
        <ele>2799.98</ele>
        <time>2013-04-01T11:28:23Z</time>
      </trkpt>
      <trkpt lat="45.35419" lon="6.62959">
        <ele>2800.46</ele>
        <time>2013-04-01T11:28:33Z</time>
      </trkpt>
      <trkpt lat="45.35417" lon="6.62956">
        <ele>2801.42</ele>
        <time>2013-04-01T11:28:46Z</time>
      </trkpt>
      <trkpt lat="45.35418" lon="6.62959">
        <ele>2802.38</ele>
        <time>2013-04-01T11:29:01Z</time>
      </trkpt>
      <trkpt lat="45.3542" lon="6.62964">
        <ele>2803.34</ele>
        <time>2013-04-01T11:29:13Z</time>
      </trkpt>
      <trkpt lat="45.35423" lon="6.62969">
        <ele>2805.26</ele>
        <time>2013-04-01T11:29:34Z</time>
      </trkpt>
      <trkpt lat="45.35418" lon="6.62969">
        <ele>2807.67</ele>
        <time>2013-04-01T11:30:02Z</time>
      </trkpt>
      <trkpt lat="45.35413" lon="6.62967">
        <ele>2809.11</ele>
        <time>2013-04-01T11:30:19Z</time>
      </trkpt>
      <trkpt lat="45.3541" lon="6.62965">
        <ele>2810.55</ele>
        <time>2013-04-01T11:30:31Z</time>
      </trkpt>
      <trkpt lat="45.3541" lon="6.62965">
        <ele>2810.55</ele>
        <time>2013-04-01T11:30:46Z</time>
      </trkpt>
      <trkpt lat="45.35411" lon="6.6297">
        <ele>2811.51</ele>
        <time>2013-04-01T11:30:58Z</time>
      </trkpt>
      <trkpt lat="45.35414" lon="6.62976">
        <ele>2812.96</ele>
        <time>2013-04-01T11:31:12Z</time>
      </trkpt>
      <trkpt lat="45.35418" lon="6.6298">
        <ele>2814.4</ele>
        <time>2013-04-01T11:31:28Z</time>
      </trkpt>
      <trkpt lat="45.3542" lon="6.62982">
        <ele>2815.84</ele>
        <time>2013-04-01T11:31:41Z</time>
      </trkpt>
      <trkpt lat="45.35418" lon="6.62982">
        <ele>2816.32</ele>
        <time>2013-04-01T11:31:54Z</time>
      </trkpt>
      <trkpt lat="45.35413" lon="6.62981">
        <ele>2818.24</ele>
        <time>2013-04-01T11:32:14Z</time>
      </trkpt>
      <trkpt lat="45.35409" lon="6.6298">
        <ele>2819.68</ele>
        <time>2013-04-01T11:32:26Z</time>
      </trkpt>
      <trkpt lat="45.35409" lon="6.62978">
        <ele>2819.68</ele>
        <time>2013-04-01T11:32:42Z</time>
      </trkpt>
      <trkpt lat="45.3541" lon="6.62982">
        <ele>2820.65</ele>
        <time>2013-04-01T11:33:00Z</time>
      </trkpt>
      <trkpt lat="45.35414" lon="6.62987">
        <ele>2822.09</ele>
        <time>2013-04-01T11:33:14Z</time>
      </trkpt>
      <trkpt lat="45.35418" lon="6.62991">
        <ele>2823.53</ele>
        <time>2013-04-01T11:33:28Z</time>
      </trkpt>
      <trkpt lat="45.35421" lon="6.62994">
        <ele>2824.97</ele>
        <time>2013-04-01T11:33:41Z</time>
      </trkpt>
      <trkpt lat="45.35424" lon="6.62996">
        <ele>2826.41</ele>
        <time>2013-04-01T11:33:55Z</time>
      </trkpt>
      <trkpt lat="45.35423" lon="6.62997">
        <ele>2826.89</ele>
        <time>2013-04-01T11:34:02Z</time>
      </trkpt>
      <trkpt lat="45.35422" lon="6.62997">
        <ele>2827.37</ele>
        <time>2013-04-01T11:34:08Z</time>
      </trkpt>
      <trkpt lat="45.35419" lon="6.62997">
        <ele>2827.85</ele>
        <time>2013-04-01T11:34:15Z</time>
      </trkpt>
      <trkpt lat="45.35417" lon="6.62999">
        <ele>2828.82</ele>
        <time>2013-04-01T11:34:26Z</time>
      </trkpt>
      <trkpt lat="45.35417" lon="6.62999">
        <ele>2828.82</ele>
        <time>2013-04-01T11:34:28Z</time>
      </trkpt>
      <trkpt lat="45.35413" lon="6.63001">
        <ele>2830.74</ele>
        <time>2013-04-01T11:34:43Z</time>
      </trkpt>
      <trkpt lat="45.35413" lon="6.63001">
        <ele>2831.7</ele>
        <time>2013-04-01T11:35:00Z</time>
      </trkpt>
      <trkpt lat="45.35414" lon="6.63005">
        <ele>2832.66</ele>
        <time>2013-04-01T11:35:12Z</time>
      </trkpt>
      <trkpt lat="45.35417" lon="6.63008">
        <ele>2834.1</ele>
        <time>2013-04-01T11:35:24Z</time>
      </trkpt>
      <trkpt lat="45.35419" lon="6.63013">
        <ele>2835.55</ele>
        <time>2013-04-01T11:35:37Z</time>
      </trkpt>
      <trkpt lat="45.35421" lon="6.63015">
        <ele>2836.99</ele>
        <time>2013-04-01T11:35:49Z</time>
      </trkpt>
      <trkpt lat="45.35419" lon="6.63014">
        <ele>2837.47</ele>
        <time>2013-04-01T11:35:59Z</time>
      </trkpt>
      <trkpt lat="45.35419" lon="6.63016">
        <ele>2838.43</ele>
        <time>2013-04-01T11:36:11Z</time>
      </trkpt>
      <trkpt lat="45.35417" lon="6.63016">
        <ele>2839.39</ele>
        <time>2013-04-01T11:36:26Z</time>
      </trkpt>
      <trkpt lat="45.35413" lon="6.63017">
        <ele>2840.83</ele>
        <time>2013-04-01T11:36:38Z</time>
      </trkpt>
      <trkpt lat="45.35413" lon="6.63018">
        <ele>2841.31</ele>
        <time>2013-04-01T11:36:54Z</time>
      </trkpt>
      <trkpt lat="45.35415" lon="6.63022">
        <ele>2842.76</ele>
        <time>2013-04-01T11:37:05Z</time>
      </trkpt>
      <trkpt lat="45.35418" lon="6.63025">
        <ele>2844.2</ele>
        <time>2013-04-01T11:37:15Z</time>
      </trkpt>
      <trkpt lat="45.35418" lon="6.63025">
        <ele>2844.68</ele>
        <time>2013-04-01T11:37:26Z</time>
      </trkpt>
      <trkpt lat="45.35416" lon="6.63026">
        <ele>2844.68</ele>
        <time>2013-04-01T11:37:35Z</time>
      </trkpt>
      <trkpt lat="45.35415" lon="6.6303">
        <ele>2846.12</ele>
        <time>2013-04-01T11:37:47Z</time>
      </trkpt>
      <trkpt lat="45.3541" lon="6.6303">
        <ele>2848.04</ele>
        <time>2013-04-01T11:38:00Z</time>
      </trkpt>
      <trkpt lat="45.35407" lon="6.63028">
        <ele>2849.48</ele>
        <time>2013-04-01T11:38:12Z</time>
      </trkpt>
      <trkpt lat="45.35407" lon="6.63028">
        <ele>2849.48</ele>
        <time>2013-04-01T11:38:27Z</time>
      </trkpt>
      <trkpt lat="45.3541" lon="6.63032">
        <ele>2850.45</ele>
        <time>2013-04-01T11:38:55Z</time>
      </trkpt>
      <trkpt lat="45.35415" lon="6.63038">
        <ele>2851.41</ele>
        <time>2013-04-01T11:39:09Z</time>
      </trkpt>
      <trkpt lat="45.35411" lon="6.63038">
        <ele>2853.33</ele>
        <time>2013-04-01T11:39:32Z</time>
      </trkpt>
      <trkpt lat="45.35408" lon="6.63039">
        <ele>2854.77</ele>
        <time>2013-04-01T11:39:44Z</time>
      </trkpt>
      <trkpt lat="45.35406" lon="6.63038">
        <ele>2855.73</ele>
        <time>2013-04-01T11:39:57Z</time>
      </trkpt>
      <trkpt lat="45.35405" lon="6.63039">
        <ele>2855.73</ele>
        <time>2013-04-01T11:40:12Z</time>
      </trkpt>
      <trkpt lat="45.35407" lon="6.63044">
        <ele>2857.66</ele>
        <time>2013-04-01T11:40:25Z</time>
      </trkpt>
      <trkpt lat="45.35411" lon="6.63048">
        <ele>2859.1</ele>
        <time>2013-04-01T11:40:38Z</time>
      </trkpt>
      <trkpt lat="45.35411" lon="6.63048">
        <ele>2858.62</ele>
        <time>2013-04-01T11:40:43Z</time>
      </trkpt>
      <trkpt lat="45.35411" lon="6.63049">
        <ele>2860.06</ele>
        <time>2013-04-01T11:40:57Z</time>
      </trkpt>
      <trkpt lat="45.3541" lon="6.63049">
        <ele>2860.06</ele>
        <time>2013-04-01T11:41:02Z</time>
      </trkpt>
      <trkpt lat="45.35404" lon="6.63047">
        <ele>2861.98</ele>
        <time>2013-04-01T11:41:16Z</time>
      </trkpt>
      <trkpt lat="45.35402" lon="6.63046">
        <ele>2862.46</ele>
        <time>2013-04-01T11:41:29Z</time>
      </trkpt>
      <trkpt lat="45.35402" lon="6.63047">
        <ele>2862.94</ele>
        <time>2013-04-01T11:41:45Z</time>
      </trkpt>
      <trkpt lat="45.35405" lon="6.63051">
        <ele>2864.87</ele>
        <time>2013-04-01T11:41:59Z</time>
      </trkpt>
      <trkpt lat="45.35409" lon="6.63055">
        <ele>2866.31</ele>
        <time>2013-04-01T11:42:13Z</time>
      </trkpt>
      <trkpt lat="45.35408" lon="6.63056">
        <ele>2867.27</ele>
        <time>2013-04-01T11:42:26Z</time>
      </trkpt>
      <trkpt lat="45.35405" lon="6.63057">
        <ele>2868.23</ele>
        <time>2013-04-01T11:42:44Z</time>
      </trkpt>
      <trkpt lat="45.35401" lon="6.63057">
        <ele>2869.19</ele>
        <time>2013-04-01T11:42:57Z</time>
      </trkpt>
      <trkpt lat="45.354" lon="6.63056">
        <ele>2870.15</ele>
        <time>2013-04-01T11:43:12Z</time>
      </trkpt>
      <trkpt lat="45.35401" lon="6.63057">
        <ele>2870.15</ele>
        <time>2013-04-01T11:43:46Z</time>
      </trkpt>
      <trkpt lat="45.35405" lon="6.63056">
        <ele>2870.15</ele>
        <time>2013-04-01T11:44:32Z</time>
      </trkpt>
      <trkpt lat="45.35404" lon="6.63056">
        <ele>2870.63</ele>
        <time>2013-04-01T11:45:09Z</time>
      </trkpt>
      <trkpt lat="45.35403" lon="6.63055">
        <ele>2871.11</ele>
        <time>2013-04-01T11:45:53Z</time>
      </trkpt>
      <trkpt lat="45.35403" lon="6.63055">
        <ele>2871.6</ele>
        <time>2013-04-01T11:46:21Z</time>
      </trkpt>
      <trkpt lat="45.35404" lon="6.63054">
        <ele>2871.6</ele>
        <time>2013-04-01T11:47:23Z</time>
      </trkpt>
      <trkpt lat="45.35405" lon="6.63058">
        <ele>2873.04</ele>
        <time>2013-04-01T11:47:33Z</time>
      </trkpt>
      <trkpt lat="45.35408" lon="6.63062">
        <ele>2874.48</ele>
        <time>2013-04-01T11:47:45Z</time>
      </trkpt>
      <trkpt lat="45.35406" lon="6.63063">
        <ele>2874.96</ele>
        <time>2013-04-01T11:47:59Z</time>
      </trkpt>
      <trkpt lat="45.35405" lon="6.63063">
        <ele>2876.4</ele>
        <time>2013-04-01T11:48:11Z</time>
      </trkpt>
      <trkpt lat="45.35403" lon="6.63064">
        <ele>2877.36</ele>
        <time>2013-04-01T11:48:25Z</time>
      </trkpt>
      <trkpt lat="45.35403" lon="6.63065">
        <ele>2877.84</ele>
        <time>2013-04-01T11:48:50Z</time>
      </trkpt>
      <trkpt lat="45.35405" lon="6.63068">
        <ele>2878.81</ele>
        <time>2013-04-01T11:49:05Z</time>
      </trkpt>
      <trkpt lat="45.35406" lon="6.6307">
        <ele>2879.77</ele>
        <time>2013-04-01T11:49:18Z</time>
      </trkpt>
      <trkpt lat="45.35406" lon="6.6307">
        <ele>2879.77</ele>
        <time>2013-04-01T11:49:22Z</time>
      </trkpt>
      <trkpt lat="45.35404" lon="6.6307">
        <ele>2879.77</ele>
        <time>2013-04-01T11:49:32Z</time>
      </trkpt>
      <trkpt lat="45.35401" lon="6.63072">
        <ele>2882.17</ele>
        <time>2013-04-01T11:49:46Z</time>
      </trkpt>
      <trkpt lat="45.35401" lon="6.63074">
        <ele>2883.13</ele>
        <time>2013-04-01T11:50:00Z</time>
      </trkpt>
      <trkpt lat="45.35403" lon="6.63077">
        <ele>2884.57</ele>
        <time>2013-04-01T11:50:17Z</time>
      </trkpt>
      <trkpt lat="45.35405" lon="6.63079">
        <ele>2886.02</ele>
        <time>2013-04-01T11:50:29Z</time>
      </trkpt>
      <trkpt lat="45.35405" lon="6.6308">
        <ele>2886.5</ele>
        <time>2013-04-01T11:50:42Z</time>
      </trkpt>
      <trkpt lat="45.35402" lon="6.63081">
        <ele>2887.46</ele>
        <time>2013-04-01T11:50:58Z</time>
      </trkpt>
      <trkpt lat="45.35399" lon="6.63083">
        <ele>2888.9</ele>
        <time>2013-04-01T11:51:09Z</time>
      </trkpt>
      <trkpt lat="45.35398" lon="6.63083">
        <ele>2890.34</ele>
        <time>2013-04-01T11:51:22Z</time>
      </trkpt>
      <trkpt lat="45.35398" lon="6.63083">
        <ele>2889.86</ele>
        <time>2013-04-01T11:51:35Z</time>
      </trkpt>
      <trkpt lat="45.35398" lon="6.63087">
        <ele>2890.82</ele>
        <time>2013-04-01T11:51:54Z</time>
      </trkpt>
      <trkpt lat="45.35402" lon="6.63091">
        <ele>2893.23</ele>
        <time>2013-04-01T11:52:09Z</time>
      </trkpt>
      <trkpt lat="45.35405" lon="6.63093">
        <ele>2894.19</ele>
        <time>2013-04-01T11:52:21Z</time>
      </trkpt>
      <trkpt lat="45.35405" lon="6.63094">
        <ele>2895.63</ele>
        <time>2013-04-01T11:52:39Z</time>
      </trkpt>
      <trkpt lat="45.35401" lon="6.63097">
        <ele>2897.07</ele>
        <time>2013-04-01T11:53:10Z</time>
      </trkpt>
      <trkpt lat="45.35396" lon="6.63099">
        <ele>2898.51</ele>
        <time>2013-04-01T11:53:25Z</time>
      </trkpt>
      <trkpt lat="45.35393" lon="6.63097">
        <ele>2899.95</ele>
        <time>2013-04-01T11:53:41Z</time>
      </trkpt>
      <trkpt lat="45.35392" lon="6.631">
        <ele>2900.92</ele>
        <time>2013-04-01T11:54:36Z</time>
      </trkpt>
      <trkpt lat="45.35395" lon="6.63104">
        <ele>2902.84</ele>
        <time>2013-04-01T11:54:49Z</time>
      </trkpt>
      <trkpt lat="45.35399" lon="6.63107">
        <ele>2904.28</ele>
        <time>2013-04-01T11:55:01Z</time>
      </trkpt>
      <trkpt lat="45.35402" lon="6.6311">
        <ele>2905.72</ele>
        <time>2013-04-01T11:55:11Z</time>
      </trkpt>
      <trkpt lat="45.35402" lon="6.63111">
        <ele>2906.2</ele>
        <time>2013-04-01T11:55:21Z</time>
      </trkpt>
      <trkpt lat="45.35399" lon="6.63112">
        <ele>2907.16</ele>
        <time>2013-04-01T11:55:33Z</time>
      </trkpt>
      <trkpt lat="45.35397" lon="6.63111">
        <ele>2907.65</ele>
        <time>2013-04-01T11:55:38Z</time>
      </trkpt>
      <trkpt lat="45.35395" lon="6.63115">
        <ele>2908.61</ele>
        <time>2013-04-01T11:55:47Z</time>
      </trkpt>
      <trkpt lat="45.35394" lon="6.63114">
        <ele>2909.57</ele>
        <time>2013-04-01T11:56:05Z</time>
      </trkpt>
      <trkpt lat="45.35398" lon="6.63118">
        <ele>2911.01</ele>
        <time>2013-04-01T11:56:33Z</time>
      </trkpt>
      <trkpt lat="45.35399" lon="6.63119">
        <ele>2911.97</ele>
        <time>2013-04-01T11:56:45Z</time>
      </trkpt>
      <trkpt lat="45.35398" lon="6.6312">
        <ele>2912.45</ele>
        <time>2013-04-01T11:56:57Z</time>
      </trkpt>
      <trkpt lat="45.35393" lon="6.63121">
        <ele>2913.89</ele>
        <time>2013-04-01T11:57:09Z</time>
      </trkpt>
      <trkpt lat="45.3539" lon="6.63122">
        <ele>2915.34</ele>
        <time>2013-04-01T11:57:22Z</time>
      </trkpt>
      <trkpt lat="45.3539" lon="6.63122">
        <ele>2915.34</ele>
        <time>2013-04-01T11:57:37Z</time>
      </trkpt>
      <trkpt lat="45.35392" lon="6.63124">
        <ele>2916.3</ele>
        <time>2013-04-01T11:57:49Z</time>
      </trkpt>
      <trkpt lat="45.35396" lon="6.63126">
        <ele>2917.74</ele>
        <time>2013-04-01T11:58:01Z</time>
      </trkpt>
      <trkpt lat="45.35397" lon="6.63127">
        <ele>2918.7</ele>
        <time>2013-04-01T11:58:14Z</time>
      </trkpt>
      <trkpt lat="45.35396" lon="6.63127">
        <ele>2919.18</ele>
        <time>2013-04-01T11:58:28Z</time>
      </trkpt>
      <trkpt lat="45.35392" lon="6.6313">
        <ele>2921.1</ele>
        <time>2013-04-01T11:58:47Z</time>
      </trkpt>
      <trkpt lat="45.3539" lon="6.63133">
        <ele>2922.06</ele>
        <time>2013-04-01T11:58:58Z</time>
      </trkpt>
      <trkpt lat="45.35387" lon="6.63134">
        <ele>2922.06</ele>
        <time>2013-04-01T11:59:02Z</time>
      </trkpt>
      <trkpt lat="45.35384" lon="6.63134">
        <ele>2923.03</ele>
        <time>2013-04-01T11:59:11Z</time>
      </trkpt>
      <trkpt lat="45.35384" lon="6.63132">
        <ele>2923.51</ele>
        <time>2013-04-01T11:59:24Z</time>
      </trkpt>
      <trkpt lat="45.35385" lon="6.63134">
        <ele>2923.99</ele>
        <time>2013-04-01T11:59:40Z</time>
      </trkpt>
      <trkpt lat="45.35388" lon="6.63137">
        <ele>2924.95</ele>
        <time>2013-04-01T11:59:52Z</time>
      </trkpt>
      <trkpt lat="45.35392" lon="6.63139">
        <ele>2925.91</ele>
        <time>2013-04-01T12:00:04Z</time>
      </trkpt>
      <trkpt lat="45.35396" lon="6.6314">
        <ele>2926.87</ele>
        <time>2013-04-01T12:00:17Z</time>
      </trkpt>
      <trkpt lat="45.35399" lon="6.63141">
        <ele>2927.83</ele>
        <time>2013-04-01T12:00:30Z</time>
      </trkpt>
      <trkpt lat="45.35398" lon="6.63142">
        <ele>2928.79</ele>
        <time>2013-04-01T12:00:55Z</time>
      </trkpt>
      <trkpt lat="45.35395" lon="6.63145">
        <ele>2929.75</ele>
        <time>2013-04-01T12:01:09Z</time>
      </trkpt>
      <trkpt lat="45.35392" lon="6.63146">
        <ele>2930.72</ele>
        <time>2013-04-01T12:01:24Z</time>
      </trkpt>
      <trkpt lat="45.3539" lon="6.63149">
        <ele>2931.2</ele>
        <time>2013-04-01T12:01:35Z</time>
      </trkpt>
      <trkpt lat="45.35385" lon="6.63148">
        <ele>2932.16</ele>
        <time>2013-04-01T12:01:45Z</time>
      </trkpt>
      <trkpt lat="45.35381" lon="6.63145">
        <ele>2932.16</ele>
        <time>2013-04-01T12:01:56Z</time>
      </trkpt>
      <trkpt lat="45.35382" lon="6.63147">
        <ele>2933.12</ele>
        <time>2013-04-01T12:02:11Z</time>
      </trkpt>
      <trkpt lat="45.35383" lon="6.63149">
        <ele>2933.6</ele>
        <time>2013-04-01T12:02:24Z</time>
      </trkpt>
      <trkpt lat="45.35378" lon="6.63147">
        <ele>2936</ele>
        <time>2013-04-01T12:02:44Z</time>
      </trkpt>
      <trkpt lat="45.35378" lon="6.63148">
        <ele>2936.48</ele>
        <time>2013-04-01T12:03:02Z</time>
      </trkpt>
      <trkpt lat="45.35379" lon="6.63154">
        <ele>2937.45</ele>
        <time>2013-04-01T12:03:20Z</time>
      </trkpt>
      <trkpt lat="45.35378" lon="6.63154">
        <ele>2938.41</ele>
        <time>2013-04-01T12:03:35Z</time>
      </trkpt>
      <trkpt lat="45.35377" lon="6.63155">
        <ele>2939.37</ele>
        <time>2013-04-01T12:03:50Z</time>
      </trkpt>
      <trkpt lat="45.35377" lon="6.63155">
        <ele>2939.85</ele>
        <time>2013-04-01T12:04:08Z</time>
      </trkpt>
      <trkpt lat="45.35378" lon="6.63158">
        <ele>2940.81</ele>
        <time>2013-04-01T12:04:23Z</time>
      </trkpt>
      <trkpt lat="45.35378" lon="6.63158">
        <ele>2941.77</ele>
        <time>2013-04-01T12:04:42Z</time>
      </trkpt>
      <trkpt lat="45.35376" lon="6.63157">
        <ele>2942.25</ele>
        <time>2013-04-01T12:05:05Z</time>
      </trkpt>
      <trkpt lat="45.35376" lon="6.6316">
        <ele>2945.62</ele>
        <time>2013-04-01T12:06:22Z</time>
      </trkpt>
      <trkpt lat="45.35374" lon="6.63163">
        <ele>2948.5</ele>
        <time>2013-04-01T12:06:45Z</time>
      </trkpt>
      <trkpt lat="45.35372" lon="6.63165">
        <ele>2951.38</ele>
        <time>2013-04-01T12:07:13Z</time>
      </trkpt>
      <trkpt lat="45.35368" lon="6.63166">
        <ele>2952.35</ele>
        <time>2013-04-01T12:07:36Z</time>
      </trkpt>
      <trkpt lat="45.35365" lon="6.63169">
        <ele>2954.75</ele>
        <time>2013-04-01T12:08:15Z</time>
      </trkpt>
      <trkpt lat="45.35361" lon="6.63172">
        <ele>2957.15</ele>
        <time>2013-04-01T12:08:56Z</time>
      </trkpt>
      <trkpt lat="45.35361" lon="6.63171">
        <ele>2960.04</ele>
        <time>2013-04-01T12:09:52Z</time>
      </trkpt>
      <trkpt lat="45.3536" lon="6.6317">
        <ele>2960.04</ele>
        <time>2013-04-01T12:10:32Z</time>
      </trkpt>
      <trkpt lat="45.35358" lon="6.63168">
        <ele>2960.04</ele>
        <time>2013-04-01T12:11:46Z</time>
      </trkpt>
      <trkpt lat="45.35357" lon="6.63164">
        <ele>2959.08</ele>
        <time>2013-04-01T12:12:02Z</time>
      </trkpt>
      <trkpt lat="45.35358" lon="6.6316">
        <ele>2958.11</ele>
        <time>2013-04-01T12:12:18Z</time>
      </trkpt>
      <trkpt lat="45.35358" lon="6.63162">
        <ele>2957.15</ele>
        <time>2013-04-01T12:13:11Z</time>
      </trkpt>
      <trkpt lat="45.35359" lon="6.63161">
        <ele>2958.11</ele>
        <time>2013-04-01T12:13:35Z</time>
      </trkpt>
      <trkpt lat="45.3536" lon="6.63163">
        <ele>2957.63</ele>
        <time>2013-04-01T12:13:58Z</time>
      </trkpt>
      <trkpt lat="45.35359" lon="6.63158">
        <ele>2958.11</ele>
        <time>2013-04-01T12:15:10Z</time>
      </trkpt>
      <trkpt lat="45.35359" lon="6.63157">
        <ele>2958.11</ele>
        <time>2013-04-01T12:15:40Z</time>
      </trkpt>
      <trkpt lat="45.35358" lon="6.63157">
        <ele>2958.11</ele>
        <time>2013-04-01T12:16:17Z</time>
      </trkpt>
      <trkpt lat="45.35358" lon="6.63156">
        <ele>2958.59</ele>
        <time>2013-04-01T12:16:35Z</time>
      </trkpt>
      <trkpt lat="45.35358" lon="6.63157">
        <ele>2958.11</ele>
        <time>2013-04-01T12:16:56Z</time>
      </trkpt>
      <trkpt lat="45.35358" lon="6.63157">
        <ele>2958.11</ele>
        <time>2013-04-01T12:17:24Z</time>
      </trkpt>
      <trkpt lat="45.35356" lon="6.63152">
        <ele>2958.11</ele>
        <time>2013-04-01T12:18:51Z</time>
      </trkpt>
      <trkpt lat="45.35357" lon="6.63154">
        <ele>2959.08</ele>
        <time>2013-04-01T12:20:25Z</time>
      </trkpt>
      <trkpt lat="45.35359" lon="6.63155">
        <ele>2959.56</ele>
        <time>2013-04-01T12:21:42Z</time>
      </trkpt>
      <trkpt lat="45.35361" lon="6.63156">
        <ele>2959.08</ele>
        <time>2013-04-01T12:22:16Z</time>
      </trkpt>
      <trkpt lat="45.35361" lon="6.63157">
        <ele>2959.56</ele>
        <time>2013-04-01T12:22:51Z</time>
      </trkpt>
      <trkpt lat="45.35362" lon="6.63157">
        <ele>2959.56</ele>
        <time>2013-04-01T12:23:35Z</time>
      </trkpt>
      <trkpt lat="45.35362" lon="6.63158">
        <ele>2960.04</ele>
        <time>2013-04-01T12:24:13Z</time>
      </trkpt>
      <trkpt lat="45.35361" lon="6.63156">
        <ele>2960.04</ele>
        <time>2013-04-01T12:25:16Z</time>
      </trkpt>
      <trkpt lat="45.3536" lon="6.63155">
        <ele>2961</ele>
        <time>2013-04-01T12:25:52Z</time>
      </trkpt>
      <trkpt lat="45.3536" lon="6.63156">
        <ele>2961</ele>
        <time>2013-04-01T12:26:23Z</time>
      </trkpt>
      <trkpt lat="45.35361" lon="6.63157">
        <ele>2961.96</ele>
        <time>2013-04-01T12:26:57Z</time>
      </trkpt>
      <trkpt lat="45.35361" lon="6.63157">
        <ele>2961.96</ele>
        <time>2013-04-01T12:27:22Z</time>
      </trkpt>
      <trkpt lat="45.35361" lon="6.6316">
        <ele>2961.96</ele>
        <time>2013-04-01T12:28:25Z</time>
      </trkpt>
      <trkpt lat="45.35361" lon="6.6316">
        <ele>2962.92</ele>
        <time>2013-04-01T12:28:58Z</time>
      </trkpt>
      <trkpt lat="45.35361" lon="6.6316">
        <ele>2962.92</ele>
        <time>2013-04-01T12:29:27Z</time>
      </trkpt>
      <trkpt lat="45.35361" lon="6.63161">
        <ele>2962.44</ele>
        <time>2013-04-01T12:29:56Z</time>
      </trkpt>
      <trkpt lat="45.35362" lon="6.63162">
        <ele>2961.96</ele>
        <time>2013-04-01T12:30:41Z</time>
      </trkpt>
      <trkpt lat="45.35361" lon="6.63161">
        <ele>2963.4</ele>
        <time>2013-04-01T12:31:32Z</time>
      </trkpt>
      <trkpt lat="45.35361" lon="6.6316">
        <ele>2962.92</ele>
        <time>2013-04-01T12:32:33Z</time>
      </trkpt>
      <trkpt lat="45.35362" lon="6.6316">
        <ele>2963.4</ele>
        <time>2013-04-01T12:34:05Z</time>
      </trkpt>
      <trkpt lat="45.35362" lon="6.63161">
        <ele>2962.92</ele>
        <time>2013-04-01T12:36:26Z</time>
      </trkpt>
      <trkpt lat="45.35368" lon="6.63161">
        <ele>2958.11</ele>
        <time>2013-04-01T12:36:30Z</time>
      </trkpt>
      <trkpt lat="45.35372" lon="6.63154">
        <ele>2951.87</ele>
        <time>2013-04-01T12:36:34Z</time>
      </trkpt>
      <trkpt lat="45.35375" lon="6.63145">
        <ele>2948.02</ele>
        <time>2013-04-01T12:36:36Z</time>
      </trkpt>
      <trkpt lat="45.35381" lon="6.63123">
        <ele>2939.85</ele>
        <time>2013-04-01T12:36:39Z</time>
      </trkpt>
      <trkpt lat="45.35382" lon="6.63117">
        <ele>2936</ele>
        <time>2013-04-01T12:36:40Z</time>
      </trkpt>
      <trkpt lat="45.35382" lon="6.63102">
        <ele>2932.64</ele>
        <time>2013-04-01T12:36:42Z</time>
      </trkpt>
      <trkpt lat="45.35384" lon="6.63096">
        <ele>2928.79</ele>
        <time>2013-04-01T12:36:43Z</time>
      </trkpt>
      <trkpt lat="45.35385" lon="6.6309">
        <ele>2925.43</ele>
        <time>2013-04-01T12:36:44Z</time>
      </trkpt>
      <trkpt lat="45.35386" lon="6.63084">
        <ele>2921.58</ele>
        <time>2013-04-01T12:36:45Z</time>
      </trkpt>
      <trkpt lat="45.35387" lon="6.63079">
        <ele>2918.7</ele>
        <time>2013-04-01T12:36:46Z</time>
      </trkpt>
      <trkpt lat="45.35391" lon="6.63068">
        <ele>2911.49</ele>
        <time>2013-04-01T12:36:48Z</time>
      </trkpt>
      <trkpt lat="45.35393" lon="6.63055">
        <ele>2908.13</ele>
        <time>2013-04-01T12:36:50Z</time>
      </trkpt>
      <trkpt lat="45.35395" lon="6.6305">
        <ele>2904.76</ele>
        <time>2013-04-01T12:36:51Z</time>
      </trkpt>
      <trkpt lat="45.35397" lon="6.6304">
        <ele>2898.51</ele>
        <time>2013-04-01T12:36:53Z</time>
      </trkpt>
      <trkpt lat="45.35398" lon="6.63034">
        <ele>2895.63</ele>
        <time>2013-04-01T12:36:54Z</time>
      </trkpt>
      <trkpt lat="45.354" lon="6.63014">
        <ele>2885.53</ele>
        <time>2013-04-01T12:36:57Z</time>
      </trkpt>
      <trkpt lat="45.35401" lon="6.63007">
        <ele>2882.17</ele>
        <time>2013-04-01T12:36:58Z</time>
      </trkpt>
      <trkpt lat="45.35404" lon="6.63001">
        <ele>2878.32</ele>
        <time>2013-04-01T12:36:59Z</time>
      </trkpt>
      <trkpt lat="45.35404" lon="6.62995">
        <ele>2874.48</ele>
        <time>2013-04-01T12:37:00Z</time>
      </trkpt>
      <trkpt lat="45.35406" lon="6.62985">
        <ele>2870.63</ele>
        <time>2013-04-01T12:37:02Z</time>
      </trkpt>
      <trkpt lat="45.35406" lon="6.62978">
        <ele>2867.27</ele>
        <time>2013-04-01T12:37:03Z</time>
      </trkpt>
      <trkpt lat="45.35408" lon="6.62965">
        <ele>2861.02</ele>
        <time>2013-04-01T12:37:05Z</time>
      </trkpt>
      <trkpt lat="45.35407" lon="6.62959">
        <ele>2857.66</ele>
        <time>2013-04-01T12:37:06Z</time>
      </trkpt>
      <trkpt lat="45.35407" lon="6.62955">
        <ele>2854.29</ele>
        <time>2013-04-01T12:37:07Z</time>
      </trkpt>
      <trkpt lat="45.35402" lon="6.62946">
        <ele>2847.08</ele>
        <time>2013-04-01T12:37:10Z</time>
      </trkpt>
      <trkpt lat="45.354" lon="6.62945">
        <ele>2844.2</ele>
        <time>2013-04-01T12:37:14Z</time>
      </trkpt>
      <trkpt lat="45.35398" lon="6.62948">
        <ele>2844.2</ele>
        <time>2013-04-01T12:37:55Z</time>
      </trkpt>
      <trkpt lat="45.35396" lon="6.62942">
        <ele>2844.2</ele>
        <time>2013-04-01T12:38:07Z</time>
      </trkpt>
      <trkpt lat="45.354" lon="6.62947">
        <ele>2845.16</ele>
        <time>2013-04-01T12:38:25Z</time>
      </trkpt>
      <trkpt lat="45.35402" lon="6.6295">
        <ele>2847.08</ele>
        <time>2013-04-01T12:38:43Z</time>
      </trkpt>
      <trkpt lat="45.35403" lon="6.62954">
        <ele>2848.04</ele>
        <time>2013-04-01T12:39:08Z</time>
      </trkpt>
      <trkpt lat="45.35403" lon="6.62958">
        <ele>2850.45</ele>
        <time>2013-04-01T12:39:24Z</time>
      </trkpt>
      <trkpt lat="45.35404" lon="6.62961">
        <ele>2851.41</ele>
        <time>2013-04-01T12:39:39Z</time>
      </trkpt>
      <trkpt lat="45.35404" lon="6.62965">
        <ele>2853.33</ele>
        <time>2013-04-01T12:39:55Z</time>
      </trkpt>
      <trkpt lat="45.35403" lon="6.6297">
        <ele>2854.77</ele>
        <time>2013-04-01T12:40:16Z</time>
      </trkpt>
      <trkpt lat="45.35404" lon="6.62972">
        <ele>2855.25</ele>
        <time>2013-04-01T12:40:29Z</time>
      </trkpt>
      <trkpt lat="45.35403" lon="6.62974">
        <ele>2856.21</ele>
        <time>2013-04-01T12:40:59Z</time>
      </trkpt>
      <trkpt lat="45.35404" lon="6.62978">
        <ele>2857.66</ele>
        <time>2013-04-01T12:42:25Z</time>
      </trkpt>
      <trkpt lat="45.35404" lon="6.62978">
        <ele>2858.14</ele>
        <time>2013-04-01T12:42:26Z</time>
      </trkpt>
      <trkpt lat="45.35402" lon="6.62981">
        <ele>2860.06</ele>
        <time>2013-04-01T12:42:39Z</time>
      </trkpt>
      <trkpt lat="45.35398" lon="6.62981">
        <ele>2862.46</ele>
        <time>2013-04-01T12:43:02Z</time>
      </trkpt>
      <trkpt lat="45.35396" lon="6.62981">
        <ele>2863.9</ele>
        <time>2013-04-01T12:43:17Z</time>
      </trkpt>
      <trkpt lat="45.35398" lon="6.62988">
        <ele>2865.35</ele>
        <time>2013-04-01T12:43:40Z</time>
      </trkpt>
      <trkpt lat="45.35398" lon="6.62991">
        <ele>2865.83</ele>
        <time>2013-04-01T12:43:57Z</time>
      </trkpt>
      <trkpt lat="45.35398" lon="6.62994">
        <ele>2866.79</ele>
        <time>2013-04-01T12:44:10Z</time>
      </trkpt>
      <trkpt lat="45.35398" lon="6.62998">
        <ele>2868.23</ele>
        <time>2013-04-01T12:44:34Z</time>
      </trkpt>
      <trkpt lat="45.35397" lon="6.63">
        <ele>2870.15</ele>
        <time>2013-04-01T12:44:49Z</time>
      </trkpt>
      <trkpt lat="45.35396" lon="6.63006">
        <ele>2872.08</ele>
        <time>2013-04-01T12:45:16Z</time>
      </trkpt>
      <trkpt lat="45.35395" lon="6.63008">
        <ele>2874.48</ele>
        <time>2013-04-01T12:45:54Z</time>
      </trkpt>
      <trkpt lat="45.35395" lon="6.63012">
        <ele>2875.92</ele>
        <time>2013-04-01T12:46:09Z</time>
      </trkpt>
      <trkpt lat="45.35394" lon="6.63014">
        <ele>2876.4</ele>
        <time>2013-04-01T12:46:18Z</time>
      </trkpt>
      <trkpt lat="45.35393" lon="6.63016">
        <ele>2877.36</ele>
        <time>2013-04-01T12:46:31Z</time>
      </trkpt>
      <trkpt lat="45.35393" lon="6.63016">
        <ele>2877.36</ele>
        <time>2013-04-01T12:46:49Z</time>
      </trkpt>
      <trkpt lat="45.35392" lon="6.6302">
        <ele>2878.81</ele>
        <time>2013-04-01T12:47:05Z</time>
      </trkpt>
      <trkpt lat="45.35392" lon="6.63022">
        <ele>2879.29</ele>
        <time>2013-04-01T12:47:19Z</time>
      </trkpt>
      <trkpt lat="45.35391" lon="6.63024">
        <ele>2881.21</ele>
        <time>2013-04-01T12:47:38Z</time>
      </trkpt>
      <trkpt lat="45.3539" lon="6.63027">
        <ele>2881.69</ele>
        <time>2013-04-01T12:47:58Z</time>
      </trkpt>
      <trkpt lat="45.3539" lon="6.63028">
        <ele>2882.65</ele>
        <time>2013-04-01T12:48:20Z</time>
      </trkpt>
      <trkpt lat="45.35389" lon="6.63028">
        <ele>2883.61</ele>
        <time>2013-04-01T12:48:33Z</time>
      </trkpt>
      <trkpt lat="45.35388" lon="6.63029">
        <ele>2885.05</ele>
        <time>2013-04-01T12:48:47Z</time>
      </trkpt>
      <trkpt lat="45.35389" lon="6.63029">
        <ele>2885.53</ele>
        <time>2013-04-01T12:48:58Z</time>
      </trkpt>
      <trkpt lat="45.35388" lon="6.63031">
        <ele>2886.02</ele>
        <time>2013-04-01T12:49:09Z</time>
      </trkpt>
      <trkpt lat="45.35388" lon="6.63032">
        <ele>2886.98</ele>
        <time>2013-04-01T12:49:34Z</time>
      </trkpt>
      <trkpt lat="45.35389" lon="6.63034">
        <ele>2887.94</ele>
        <time>2013-04-01T12:49:45Z</time>
      </trkpt>
      <trkpt lat="45.35388" lon="6.63035">
        <ele>2888.42</ele>
        <time>2013-04-01T12:49:57Z</time>
      </trkpt>
      <trkpt lat="45.35387" lon="6.63037">
        <ele>2889.38</ele>
        <time>2013-04-01T12:50:06Z</time>
      </trkpt>
      <trkpt lat="45.35386" lon="6.63037">
        <ele>2889.86</ele>
        <time>2013-04-01T12:50:22Z</time>
      </trkpt>
      <trkpt lat="45.35385" lon="6.63036">
        <ele>2889.86</ele>
        <time>2013-04-01T12:50:39Z</time>
      </trkpt>
      <trkpt lat="45.35385" lon="6.63037">
        <ele>2890.34</ele>
        <time>2013-04-01T12:50:53Z</time>
      </trkpt>
      <trkpt lat="45.35385" lon="6.63037">
        <ele>2890.34</ele>
        <time>2013-04-01T12:51:00Z</time>
      </trkpt>
      <trkpt lat="45.35383" lon="6.63041">
        <ele>2890.82</ele>
        <time>2013-04-01T12:51:09Z</time>
      </trkpt>
      <trkpt lat="45.35382" lon="6.63041">
        <ele>2892.26</ele>
        <time>2013-04-01T12:51:23Z</time>
      </trkpt>
      <trkpt lat="45.35382" lon="6.63041">
        <ele>2892.74</ele>
        <time>2013-04-01T12:51:39Z</time>
      </trkpt>
      <trkpt lat="45.35382" lon="6.6304">
        <ele>2893.23</ele>
        <time>2013-04-01T12:52:17Z</time>
      </trkpt>
      <trkpt lat="45.35383" lon="6.63041">
        <ele>2893.71</ele>
        <time>2013-04-01T12:52:32Z</time>
      </trkpt>
      <trkpt lat="45.35384" lon="6.6304">
        <ele>2894.19</ele>
        <time>2013-04-01T12:52:45Z</time>
      </trkpt>
      <trkpt lat="45.35382" lon="6.63042">
        <ele>2895.15</ele>
        <time>2013-04-01T12:53:02Z</time>
      </trkpt>
      <trkpt lat="45.35382" lon="6.63043">
        <ele>2895.63</ele>
        <time>2013-04-01T12:53:28Z</time>
      </trkpt>
      <trkpt lat="45.35379" lon="6.63042">
        <ele>2896.59</ele>
        <time>2013-04-01T12:54:08Z</time>
      </trkpt>
      <trkpt lat="45.35378" lon="6.63042">
        <ele>2898.03</ele>
        <time>2013-04-01T12:54:24Z</time>
      </trkpt>
      <trkpt lat="45.35376" lon="6.63043">
        <ele>2899.47</ele>
        <time>2013-04-01T12:54:54Z</time>
      </trkpt>
      <trkpt lat="45.35374" lon="6.63044">
        <ele>2900.44</ele>
        <time>2013-04-01T12:55:10Z</time>
      </trkpt>
      <trkpt lat="45.35372" lon="6.63046">
        <ele>2901.4</ele>
        <time>2013-04-01T12:55:26Z</time>
      </trkpt>
      <trkpt lat="45.35372" lon="6.63046">
        <ele>2902.36</ele>
        <time>2013-04-01T12:55:43Z</time>
      </trkpt>
      <trkpt lat="45.35372" lon="6.63047">
        <ele>2903.32</ele>
        <time>2013-04-01T12:55:57Z</time>
      </trkpt>
      <trkpt lat="45.35369" lon="6.63049">
        <ele>2904.76</ele>
        <time>2013-04-01T12:56:09Z</time>
      </trkpt>
      <trkpt lat="45.35369" lon="6.63048">
        <ele>2905.24</ele>
        <time>2013-04-01T12:56:31Z</time>
      </trkpt>
      <trkpt lat="45.35368" lon="6.63048">
        <ele>2906.2</ele>
        <time>2013-04-01T12:56:44Z</time>
      </trkpt>
      <trkpt lat="45.35365" lon="6.63051">
        <ele>2907.65</ele>
        <time>2013-04-01T12:57:02Z</time>
      </trkpt>
      <trkpt lat="45.35365" lon="6.6305">
        <ele>2907.65</ele>
        <time>2013-04-01T12:57:16Z</time>
      </trkpt>
      <trkpt lat="45.35364" lon="6.63048">
        <ele>2908.13</ele>
        <time>2013-04-01T12:57:40Z</time>
      </trkpt>
      <trkpt lat="45.35361" lon="6.63047">
        <ele>2909.57</ele>
        <time>2013-04-01T12:57:55Z</time>
      </trkpt>
      <trkpt lat="45.3536" lon="6.63047">
        <ele>2910.05</ele>
        <time>2013-04-01T12:58:06Z</time>
      </trkpt>
      <trkpt lat="45.35359" lon="6.63046">
        <ele>2911.01</ele>
        <time>2013-04-01T12:58:20Z</time>
      </trkpt>
      <trkpt lat="45.35358" lon="6.63048">
        <ele>2912.93</ele>
        <time>2013-04-01T12:58:35Z</time>
      </trkpt>
      <trkpt lat="45.35356" lon="6.63049">
        <ele>2913.89</ele>
        <time>2013-04-01T12:58:50Z</time>
      </trkpt>
      <trkpt lat="45.35356" lon="6.6305">
        <ele>2915.34</ele>
        <time>2013-04-01T12:59:03Z</time>
      </trkpt>
      <trkpt lat="45.35354" lon="6.63049">
        <ele>2915.82</ele>
        <time>2013-04-01T12:59:28Z</time>
      </trkpt>
      <trkpt lat="45.35354" lon="6.63049">
        <ele>2916.3</ele>
        <time>2013-04-01T12:59:54Z</time>
      </trkpt>
      <trkpt lat="45.35352" lon="6.63051">
        <ele>2916.3</ele>
        <time>2013-04-01T13:00:18Z</time>
      </trkpt>
      <trkpt lat="45.35352" lon="6.63051">
        <ele>2916.78</ele>
        <time>2013-04-01T13:00:40Z</time>
      </trkpt>
      <trkpt lat="45.35353" lon="6.63052">
        <ele>2916.78</ele>
        <time>2013-04-01T13:00:55Z</time>
      </trkpt>
      <trkpt lat="45.35351" lon="6.63047">
        <ele>2917.74</ele>
        <time>2013-04-01T13:01:42Z</time>
      </trkpt>
      <trkpt lat="45.35344" lon="6.63041">
        <ele>2911.49</ele>
        <time>2013-04-01T13:01:46Z</time>
      </trkpt>
      <trkpt lat="45.35338" lon="6.63038">
        <ele>2907.16</ele>
        <time>2013-04-01T13:01:47Z</time>
      </trkpt>
      <trkpt lat="45.35329" lon="6.63035">
        <ele>2901.4</ele>
        <time>2013-04-01T13:01:48Z</time>
      </trkpt>
      <trkpt lat="45.35312" lon="6.63019">
        <ele>2883.61</ele>
        <time>2013-04-01T13:01:50Z</time>
      </trkpt>
      <trkpt lat="45.35304" lon="6.63011">
        <ele>2828.34</ele>
        <time>2013-04-01T13:01:51Z</time>
      </trkpt>
      <trkpt lat="45.35318" lon="6.62984">
        <ele>2785.08</ele>
        <time>2013-04-01T13:01:53Z</time>
      </trkpt>
      <trkpt lat="45.35325" lon="6.62971">
        <ele>2763.93</ele>
        <time>2013-04-01T13:01:54Z</time>
      </trkpt>
      <trkpt lat="45.35335" lon="6.62956">
        <ele>2752.39</ele>
        <time>2013-04-01T13:01:55Z</time>
      </trkpt>
      <trkpt lat="45.35342" lon="6.6293">
        <ele>2780.75</ele>
        <time>2013-04-01T13:01:56Z</time>
      </trkpt>
      <trkpt lat="45.3536" lon="6.62889">
        <ele>2757.68</ele>
        <time>2013-04-01T13:01:58Z</time>
      </trkpt>
      <trkpt lat="45.35369" lon="6.62867">
        <ele>2758.16</ele>
        <time>2013-04-01T13:01:59Z</time>
      </trkpt>
      <trkpt lat="45.35379" lon="6.62843">
        <ele>2735.57</ele>
        <time>2013-04-01T13:02:00Z</time>
      </trkpt>
      <trkpt lat="45.35388" lon="6.62821">
        <ele>2717.3</ele>
        <time>2013-04-01T13:02:01Z</time>
      </trkpt>
      <trkpt lat="45.35397" lon="6.62798">
        <ele>2698.08</ele>
        <time>2013-04-01T13:02:02Z</time>
      </trkpt>
      <trkpt lat="45.35408" lon="6.62775">
        <ele>2685.1</ele>
        <time>2013-04-01T13:02:03Z</time>
      </trkpt>
      <trkpt lat="45.35418" lon="6.6275">
        <ele>2660.59</ele>
        <time>2013-04-01T13:02:04Z</time>
      </trkpt>
      <trkpt lat="45.35428" lon="6.62726">
        <ele>2649.05</ele>
        <time>2013-04-01T13:02:05Z</time>
      </trkpt>
      <trkpt lat="45.35438" lon="6.62702">
        <ele>2633.19</ele>
        <time>2013-04-01T13:02:06Z</time>
      </trkpt>
      <trkpt lat="45.35451" lon="6.62678">
        <ele>2603.87</ele>
        <time>2013-04-01T13:02:07Z</time>
      </trkpt>
      <trkpt lat="45.35454" lon="6.62561">
        <ele>2564.45</ele>
        <time>2013-04-01T13:02:09Z</time>
      </trkpt>
      <trkpt lat="45.35459" lon="6.62467">
        <ele>2541.38</ele>
        <time>2013-04-01T13:02:11Z</time>
      </trkpt>
      <trkpt lat="45.3546" lon="6.62421">
        <ele>2513.02</ele>
        <time>2013-04-01T13:02:12Z</time>
      </trkpt>
      <trkpt lat="45.35554" lon="6.6229">
        <ele>2493.8</ele>
        <time>2013-04-01T13:02:13Z</time>
      </trkpt>
      <trkpt lat="45.35567" lon="6.62225">
        <ele>2478.42</ele>
        <time>2013-04-01T13:02:14Z</time>
      </trkpt>
      <trkpt lat="45.35574" lon="6.62174">
        <ele>2454.38</ele>
        <time>2013-04-01T13:02:15Z</time>
      </trkpt>
      <trkpt lat="45.35565" lon="6.62045">
        <ele>2423.14</ele>
        <time>2013-04-01T13:02:17Z</time>
      </trkpt>
      <trkpt lat="45.35559" lon="6.61994">
        <ele>2396.7</ele>
        <time>2013-04-01T13:02:18Z</time>
      </trkpt>
      <trkpt lat="45.35553" lon="6.6195">
        <ele>2366.42</ele>
        <time>2013-04-01T13:02:19Z</time>
      </trkpt>
      <trkpt lat="45.35547" lon="6.61907">
        <ele>2339.99</ele>
        <time>2013-04-01T13:02:20Z</time>
      </trkpt>
      <trkpt lat="45.35539" lon="6.61863">
        <ele>2320.76</ele>
        <time>2013-04-01T13:02:21Z</time>
      </trkpt>
      <trkpt lat="45.35533" lon="6.61823">
        <ele>2321.24</ele>
        <time>2013-04-01T13:02:22Z</time>
      </trkpt>
      <trkpt lat="45.35525" lon="6.61783">
        <ele>2302.98</ele>
        <time>2013-04-01T13:02:23Z</time>
      </trkpt>
      <trkpt lat="45.35518" lon="6.61749">
        <ele>2297.21</ele>
        <time>2013-04-01T13:02:24Z</time>
      </trkpt>
      <trkpt lat="45.35512" lon="6.61718">
        <ele>2290</ele>
        <time>2013-04-01T13:02:25Z</time>
      </trkpt>
      <trkpt lat="45.35505" lon="6.61688">
        <ele>2283.27</ele>
        <time>2013-04-01T13:02:26Z</time>
      </trkpt>
      <trkpt lat="45.35498" lon="6.61663">
        <ele>2270.29</ele>
        <time>2013-04-01T13:02:27Z</time>
      </trkpt>
      <trkpt lat="45.35492" lon="6.61613">
        <ele>2250.1</ele>
        <time>2013-04-01T13:02:29Z</time>
      </trkpt>
      <trkpt lat="45.3549" lon="6.61587">
        <ele>2239.53</ele>
        <time>2013-04-01T13:02:30Z</time>
      </trkpt>
      <trkpt lat="45.35455" lon="6.61619">
        <ele>2223.19</ele>
        <time>2013-04-01T13:02:32Z</time>
      </trkpt>
      <trkpt lat="45.3545" lon="6.61605">
        <ele>2223.19</ele>
        <time>2013-04-01T13:02:33Z</time>
      </trkpt>
      <trkpt lat="45.35448" lon="6.61595">
        <ele>2218.38</ele>
        <time>2013-04-01T13:02:34Z</time>
      </trkpt>
      <trkpt lat="45.35449" lon="6.61582">
        <ele>2214.53</ele>
        <time>2013-04-01T13:02:35Z</time>
      </trkpt>
      <trkpt lat="45.35457" lon="6.61596">
        <ele>2210.69</ele>
        <time>2013-04-01T13:02:37Z</time>
      </trkpt>
      <trkpt lat="45.35442" lon="6.61639">
        <ele>2205.4</ele>
        <time>2013-04-01T13:02:41Z</time>
      </trkpt>
      <trkpt lat="45.35448" lon="6.61619">
        <ele>2203.96</ele>
        <time>2013-04-01T13:02:42Z</time>
      </trkpt>
      <trkpt lat="45.3545" lon="6.61588">
        <ele>2202.04</ele>
        <time>2013-04-01T13:02:44Z</time>
      </trkpt>
      <trkpt lat="45.35439" lon="6.61585">
        <ele>2198.67</ele>
        <time>2013-04-01T13:02:47Z</time>
      </trkpt>
      <trkpt lat="45.35425" lon="6.61583">
        <ele>2195.79</ele>
        <time>2013-04-01T13:02:50Z</time>
      </trkpt>
      <trkpt lat="45.35437" lon="6.61566">
        <ele>2192.42</ele>
        <time>2013-04-01T13:02:56Z</time>
      </trkpt>
      <trkpt lat="45.35456" lon="6.61634">
        <ele>2190.5</ele>
        <time>2013-04-01T13:03:00Z</time>
      </trkpt>
      <trkpt lat="45.35458" lon="6.61641">
        <ele>2189.54</ele>
        <time>2013-04-01T13:03:14Z</time>
      </trkpt>
      <trkpt lat="45.35458" lon="6.6164">
        <ele>2192.42</ele>
        <time>2013-04-01T13:03:32Z</time>
      </trkpt>
      <trkpt lat="45.3546" lon="6.6164">
        <ele>2195.79</ele>
        <time>2013-04-01T13:03:51Z</time>
      </trkpt>
      <trkpt lat="45.35461" lon="6.61641">
        <ele>2198.67</ele>
        <time>2013-04-01T13:04:00Z</time>
      </trkpt>
      <trkpt lat="45.35462" lon="6.61642">
        <ele>2202.04</ele>
        <time>2013-04-01T13:04:12Z</time>
      </trkpt>
      <trkpt lat="45.35463" lon="6.61642">
        <ele>2205.4</ele>
        <time>2013-04-01T13:04:25Z</time>
      </trkpt>
      <trkpt lat="45.35464" lon="6.61642">
        <ele>2208.29</ele>
        <time>2013-04-01T13:04:36Z</time>
      </trkpt>
      <trkpt lat="45.35464" lon="6.61644">
        <ele>2211.65</ele>
        <time>2013-04-01T13:04:46Z</time>
      </trkpt>
      <trkpt lat="45.35466" lon="6.61644">
        <ele>2214.53</ele>
        <time>2013-04-01T13:04:57Z</time>
      </trkpt>
      <trkpt lat="45.35466" lon="6.61645">
        <ele>2217.9</ele>
        <time>2013-04-01T13:05:13Z</time>
      </trkpt>
      <trkpt lat="45.35466" lon="6.61646">
        <ele>2220.78</ele>
        <time>2013-04-01T13:05:24Z</time>
      </trkpt>
      <trkpt lat="45.35466" lon="6.61649">
        <ele>2224.15</ele>
        <time>2013-04-01T13:05:35Z</time>
      </trkpt>
      <trkpt lat="45.35466" lon="6.6165">
        <ele>2227.03</ele>
        <time>2013-04-01T13:05:48Z</time>
      </trkpt>
      <trkpt lat="45.35466" lon="6.61651">
        <ele>2230.4</ele>
        <time>2013-04-01T13:06:02Z</time>
      </trkpt>
      <trkpt lat="45.35466" lon="6.61652">
        <ele>2233.76</ele>
        <time>2013-04-01T13:06:12Z</time>
      </trkpt>
      <trkpt lat="45.35467" lon="6.61655">
        <ele>2236.64</ele>
        <time>2013-04-01T13:06:26Z</time>
      </trkpt>
      <trkpt lat="45.35475" lon="6.61674">
        <ele>2240.01</ele>
        <time>2013-04-01T13:06:41Z</time>
      </trkpt>
      <trkpt lat="45.35487" lon="6.61691">
        <ele>2242.89</ele>
        <time>2013-04-01T13:06:52Z</time>
      </trkpt>
      <trkpt lat="45.35494" lon="6.61704">
        <ele>2246.26</ele>
        <time>2013-04-01T13:07:04Z</time>
      </trkpt>
      <trkpt lat="45.35502" lon="6.61717">
        <ele>2249.14</ele>
        <time>2013-04-01T13:07:16Z</time>
      </trkpt>
      <trkpt lat="45.35507" lon="6.61723">
        <ele>2251.06</ele>
        <time>2013-04-01T13:07:27Z</time>
      </trkpt>
      <trkpt lat="45.3552" lon="6.61737">
        <ele>2253.95</ele>
        <time>2013-04-01T13:07:42Z</time>
      </trkpt>
      <trkpt lat="45.35532" lon="6.61751">
        <ele>2256.83</ele>
        <time>2013-04-01T13:07:56Z</time>
      </trkpt>
      <trkpt lat="45.35539" lon="6.61764">
        <ele>2259.72</ele>
        <time>2013-04-01T13:08:09Z</time>
      </trkpt>
      <trkpt lat="45.35546" lon="6.61775">
        <ele>2262.6</ele>
        <time>2013-04-01T13:08:24Z</time>
      </trkpt>
      <trkpt lat="45.35554" lon="6.61785">
        <ele>2264.52</ele>
        <time>2013-04-01T13:08:39Z</time>
      </trkpt>
      <trkpt lat="45.35563" lon="6.61797">
        <ele>2267.41</ele>
        <time>2013-04-01T13:08:58Z</time>
      </trkpt>
      <trkpt lat="45.3557" lon="6.61807">
        <ele>2269.81</ele>
        <time>2013-04-01T13:09:13Z</time>
      </trkpt>
      <trkpt lat="45.35577" lon="6.61816">
        <ele>2272.21</ele>
        <time>2013-04-01T13:09:31Z</time>
      </trkpt>
      <trkpt lat="45.3558" lon="6.61822">
        <ele>2274.14</ele>
        <time>2013-04-01T13:09:46Z</time>
      </trkpt>
      <trkpt lat="45.35584" lon="6.6183">
        <ele>2276.54</ele>
        <time>2013-04-01T13:10:00Z</time>
      </trkpt>
      <trkpt lat="45.35588" lon="6.61837">
        <ele>2278.46</ele>
        <time>2013-04-01T13:10:11Z</time>
      </trkpt>
      <trkpt lat="45.35593" lon="6.61843">
        <ele>2279.9</ele>
        <time>2013-04-01T13:10:25Z</time>
      </trkpt>
      <trkpt lat="45.35595" lon="6.61852">
        <ele>2282.31</ele>
        <time>2013-04-01T13:10:42Z</time>
      </trkpt>
      <trkpt lat="45.35598" lon="6.61859">
        <ele>2284.71</ele>
        <time>2013-04-01T13:10:56Z</time>
      </trkpt>
      <trkpt lat="45.356" lon="6.61864">
        <ele>2286.63</ele>
        <time>2013-04-01T13:11:10Z</time>
      </trkpt>
      <trkpt lat="45.35603" lon="6.6187">
        <ele>2287.59</ele>
        <time>2013-04-01T13:11:23Z</time>
      </trkpt>
      <trkpt lat="45.35609" lon="6.61876">
        <ele>2289.04</ele>
        <time>2013-04-01T13:11:45Z</time>
      </trkpt>
      <trkpt lat="45.35614" lon="6.61882">
        <ele>2290</ele>
        <time>2013-04-01T13:11:59Z</time>
      </trkpt>
      <trkpt lat="45.35619" lon="6.61885">
        <ele>2289.52</ele>
        <time>2013-04-01T13:12:13Z</time>
      </trkpt>
      <trkpt lat="45.35626" lon="6.61896">
        <ele>2289.52</ele>
        <time>2013-04-01T13:12:30Z</time>
      </trkpt>
      <trkpt lat="45.35637" lon="6.61909">
        <ele>2289.04</ele>
        <time>2013-04-01T13:12:44Z</time>
      </trkpt>
      <trkpt lat="45.35644" lon="6.61915">
        <ele>2290</ele>
        <time>2013-04-01T13:12:59Z</time>
      </trkpt>
      <trkpt lat="45.35648" lon="6.61922">
        <ele>2290.96</ele>
        <time>2013-04-01T13:13:13Z</time>
      </trkpt>
      <trkpt lat="45.35654" lon="6.61927">
        <ele>2291.92</ele>
        <time>2013-04-01T13:13:28Z</time>
      </trkpt>
      <trkpt lat="45.35657" lon="6.61932">
        <ele>2292.88</ele>
        <time>2013-04-01T13:13:41Z</time>
      </trkpt>
      <trkpt lat="45.3566" lon="6.61934">
        <ele>2293.36</ele>
        <time>2013-04-01T13:13:58Z</time>
      </trkpt>
      <trkpt lat="45.35661" lon="6.61939">
        <ele>2295.28</ele>
        <time>2013-04-01T13:14:11Z</time>
      </trkpt>
      <trkpt lat="45.35661" lon="6.61944">
        <ele>2295.77</ele>
        <time>2013-04-01T13:14:24Z</time>
      </trkpt>
      <trkpt lat="45.35663" lon="6.61946">
        <ele>2296.25</ele>
        <time>2013-04-01T13:14:36Z</time>
      </trkpt>
      <trkpt lat="45.35665" lon="6.61949">
        <ele>2297.69</ele>
        <time>2013-04-01T13:14:50Z</time>
      </trkpt>
      <trkpt lat="45.35667" lon="6.61952">
        <ele>2298.17</ele>
        <time>2013-04-01T13:15:05Z</time>
      </trkpt>
      <trkpt lat="45.35667" lon="6.61953">
        <ele>2298.17</ele>
        <time>2013-04-01T13:15:26Z</time>
      </trkpt>
      <trkpt lat="45.35668" lon="6.61955">
        <ele>2298.65</ele>
        <time>2013-04-01T13:15:41Z</time>
      </trkpt>
      <trkpt lat="45.35669" lon="6.61956">
        <ele>2298.17</ele>
        <time>2013-04-01T13:16:12Z</time>
      </trkpt>
      <trkpt lat="45.35667" lon="6.61951">
        <ele>2295.28</ele>
        <time>2013-04-01T13:16:32Z</time>
      </trkpt>
      <trkpt lat="45.35667" lon="6.61944">
        <ele>2292.4</ele>
        <time>2013-04-01T13:16:41Z</time>
      </trkpt>
      <trkpt lat="45.35667" lon="6.61942">
        <ele>2291.92</ele>
        <time>2013-04-01T13:16:43Z</time>
      </trkpt>
      <trkpt lat="45.35668" lon="6.61933">
        <ele>2288.08</ele>
        <time>2013-04-01T13:16:52Z</time>
      </trkpt>
      <trkpt lat="45.35668" lon="6.61932">
        <ele>2288.08</ele>
        <time>2013-04-01T13:16:53Z</time>
      </trkpt>
      <trkpt lat="45.3567" lon="6.61925">
        <ele>2284.71</ele>
        <time>2013-04-01T13:17:00Z</time>
      </trkpt>
      <trkpt lat="45.3567" lon="6.61924">
        <ele>2284.23</ele>
        <time>2013-04-01T13:17:01Z</time>
      </trkpt>
      <trkpt lat="45.3567" lon="6.61923">
        <ele>2284.23</ele>
        <time>2013-04-01T13:17:02Z</time>
      </trkpt>
      <trkpt lat="45.35672" lon="6.61914">
        <ele>2280.87</ele>
        <time>2013-04-01T13:17:13Z</time>
      </trkpt>
      <trkpt lat="45.35672" lon="6.61915">
        <ele>2279.9</ele>
        <time>2013-04-01T13:17:28Z</time>
      </trkpt>
      <trkpt lat="45.35673" lon="6.61916">
        <ele>2278.94</ele>
        <time>2013-04-01T13:17:56Z</time>
      </trkpt>
      <trkpt lat="45.35673" lon="6.61916">
        <ele>2277.5</ele>
        <time>2013-04-01T13:17:59Z</time>
      </trkpt>
      <trkpt lat="45.35673" lon="6.61915">
        <ele>2277.5</ele>
        <time>2013-04-01T13:18:10Z</time>
      </trkpt>
      <trkpt lat="45.35673" lon="6.61916">
        <ele>2277.98</ele>
        <time>2013-04-01T13:18:22Z</time>
      </trkpt>
      <trkpt lat="45.35673" lon="6.61916">
        <ele>2277.98</ele>
        <time>2013-04-01T13:18:36Z</time>
      </trkpt>
      <trkpt lat="45.35673" lon="6.61916">
        <ele>2277.02</ele>
        <time>2013-04-01T13:18:52Z</time>
      </trkpt>
      <trkpt lat="45.35673" lon="6.61916">
        <ele>2276.54</ele>
        <time>2013-04-01T13:19:05Z</time>
      </trkpt>
      <trkpt lat="45.35673" lon="6.61916">
        <ele>2275.58</ele>
        <time>2013-04-01T13:19:27Z</time>
      </trkpt>
      <trkpt lat="45.35673" lon="6.61916">
        <ele>2275.1</ele>
        <time>2013-04-01T13:20:19Z</time>
      </trkpt>
      <trkpt lat="45.35673" lon="6.61916">
        <ele>2274.14</ele>
        <time>2013-04-01T13:20:47Z</time>
      </trkpt>
      <trkpt lat="45.35673" lon="6.61917">
        <ele>2271.73</ele>
        <time>2013-04-01T13:22:03Z</time>
      </trkpt>
      <trkpt lat="45.35673" lon="6.61917">
        <ele>2271.25</ele>
        <time>2013-04-01T13:22:33Z</time>
      </trkpt>
      <trkpt lat="45.35673" lon="6.61917">
        <ele>2270.29</ele>
        <time>2013-04-01T13:23:03Z</time>
      </trkpt>
      <trkpt lat="45.35673" lon="6.61918">
        <ele>2269.33</ele>
        <time>2013-04-01T13:23:51Z</time>
      </trkpt>
      <trkpt lat="45.35674" lon="6.61918">
        <ele>2268.37</ele>
        <time>2013-04-01T13:24:29Z</time>
      </trkpt>
      <trkpt lat="45.35673" lon="6.61918">
        <ele>2265.96</ele>
        <time>2013-04-01T13:25:29Z</time>
      </trkpt>
      <trkpt lat="45.35674" lon="6.61918">
        <ele>2265.48</ele>
        <time>2013-04-01T13:25:58Z</time>
      </trkpt>
      <trkpt lat="45.35673" lon="6.61919">
        <ele>2265.48</ele>
        <time>2013-04-01T13:26:13Z</time>
      </trkpt>
      <trkpt lat="45.35674" lon="6.61919">
        <ele>2264.52</ele>
        <time>2013-04-01T13:26:42Z</time>
      </trkpt>
      <trkpt lat="45.35673" lon="6.61919">
        <ele>2261.16</ele>
        <time>2013-04-01T13:28:14Z</time>
      </trkpt>
      <trkpt lat="45.35673" lon="6.6192">
        <ele>2261.16</ele>
        <time>2013-04-01T13:28:38Z</time>
      </trkpt>
      <trkpt lat="45.35674" lon="6.6192">
        <ele>2258.27</ele>
        <time>2013-04-01T13:30:23Z</time>
      </trkpt>
      <trkpt lat="45.35674" lon="6.6192">
        <ele>2260.68</ele>
        <time>2013-04-01T13:30:35Z</time>
      </trkpt>
      <trkpt lat="45.35674" lon="6.61921">
        <ele>2259.72</ele>
        <time>2013-04-01T13:30:48Z</time>
      </trkpt>
      <trkpt lat="45.35675" lon="6.6192">
        <ele>2256.35</ele>
        <time>2013-04-01T13:31:01Z</time>
      </trkpt>
      <trkpt lat="45.35675" lon="6.61918">
        <ele>2255.87</ele>
        <time>2013-04-01T13:31:19Z</time>
      </trkpt>
      <trkpt lat="45.35675" lon="6.61916">
        <ele>2255.39</ele>
        <time>2013-04-01T13:31:44Z</time>
      </trkpt>
      <trkpt lat="45.35674" lon="6.61916">
        <ele>2254.91</ele>
        <time>2013-04-01T13:32:07Z</time>
      </trkpt>
      <trkpt lat="45.35674" lon="6.61916">
        <ele>2253.47</ele>
        <time>2013-04-01T13:32:39Z</time>
      </trkpt>
      <trkpt lat="45.35673" lon="6.61915">
        <ele>2252.03</ele>
        <time>2013-04-01T13:33:49Z</time>
      </trkpt>
      <trkpt lat="45.35674" lon="6.61914">
        <ele>2250.58</ele>
        <time>2013-04-01T13:35:22Z</time>
      </trkpt>
      <trkpt lat="45.35674" lon="6.61914">
        <ele>2249.62</ele>
        <time>2013-04-01T13:36:29Z</time>
      </trkpt>
      <trkpt lat="45.35674" lon="6.61914">
        <ele>2249.14</ele>
        <time>2013-04-01T13:37:33Z</time>
      </trkpt>
      <trkpt lat="45.35674" lon="6.61918">
        <ele>2247.7</ele>
        <time>2013-04-01T13:39:00Z</time>
      </trkpt>
      <trkpt lat="45.35674" lon="6.61916">
        <ele>2247.7</ele>
        <time>2013-04-01T13:39:25Z</time>
      </trkpt>
      <trkpt lat="45.35674" lon="6.61916">
        <ele>2246.26</ele>
        <time>2013-04-01T13:40:06Z</time>
      </trkpt>
      <trkpt lat="45.35675" lon="6.61914">
        <ele>2245.3</ele>
        <time>2013-04-01T13:41:49Z</time>
      </trkpt>
      <trkpt lat="45.35676" lon="6.61914">
        <ele>2245.3</ele>
        <time>2013-04-01T13:42:06Z</time>
      </trkpt>
      <trkpt lat="45.35676" lon="6.61915">
        <ele>2244.33</ele>
        <time>2013-04-01T13:42:19Z</time>
      </trkpt>
      <trkpt lat="45.35676" lon="6.61914">
        <ele>2244.33</ele>
        <time>2013-04-01T13:42:33Z</time>
      </trkpt>
      <trkpt lat="45.35675" lon="6.61914">
        <ele>2244.33</ele>
        <time>2013-04-01T13:42:47Z</time>
      </trkpt>
      <trkpt lat="45.35674" lon="6.61912">
        <ele>2243.85</ele>
        <time>2013-04-01T13:43:04Z</time>
      </trkpt>
      <trkpt lat="45.35674" lon="6.61911">
        <ele>2243.37</ele>
        <time>2013-04-01T13:43:25Z</time>
      </trkpt>
      <trkpt lat="45.35674" lon="6.61911">
        <ele>2243.37</ele>
        <time>2013-04-01T13:43:52Z</time>
      </trkpt>
      <trkpt lat="45.35673" lon="6.61911">
        <ele>2242.41</ele>
        <time>2013-04-01T13:44:24Z</time>
      </trkpt>
      <trkpt lat="45.35673" lon="6.61912">
        <ele>2242.41</ele>
        <time>2013-04-01T13:45:03Z</time>
      </trkpt>
      <trkpt lat="45.35673" lon="6.61911">
        <ele>2241.93</ele>
        <time>2013-04-01T13:45:31Z</time>
      </trkpt>
      <trkpt lat="45.35672" lon="6.61912">
        <ele>2241.45</ele>
        <time>2013-04-01T13:46:19Z</time>
      </trkpt>
      <trkpt lat="45.35672" lon="6.61912">
        <ele>2240.01</ele>
        <time>2013-04-01T13:48:30Z</time>
      </trkpt>
      <trkpt lat="45.35673" lon="6.61912">
        <ele>2240.01</ele>
        <time>2013-04-01T13:49:03Z</time>
      </trkpt>
      <trkpt lat="45.35673" lon="6.61912">
        <ele>2239.05</ele>
        <time>2013-04-01T13:51:08Z</time>
      </trkpt>
      <trkpt lat="45.35672" lon="6.61913">
        <ele>2235.68</ele>
        <time>2013-04-01T13:57:23Z</time>
      </trkpt>
      <trkpt lat="45.35672" lon="6.61914">
        <ele>2235.68</ele>
        <time>2013-04-01T13:57:52Z</time>
      </trkpt>
      <trkpt lat="45.35672" lon="6.61915">
        <ele>2235.68</ele>
        <time>2013-04-01T13:58:28Z</time>
      </trkpt>
      <trkpt lat="45.35672" lon="6.61915">
        <ele>2235.2</ele>
        <time>2013-04-01T13:59:23Z</time>
      </trkpt>
      <trkpt lat="45.35673" lon="6.61915">
        <ele>2235.2</ele>
        <time>2013-04-01T14:01:14Z</time>
      </trkpt>
      <trkpt lat="45.35674" lon="6.61915">
        <ele>2234.72</ele>
        <time>2013-04-01T14:02:02Z</time>
      </trkpt>
      <trkpt lat="45.35674" lon="6.61917">
        <ele>2234.24</ele>
        <time>2013-04-01T14:02:21Z</time>
      </trkpt>
      <trkpt lat="45.35675" lon="6.61917">
        <ele>2234.24</ele>
        <time>2013-04-01T14:02:59Z</time>
      </trkpt>
      <trkpt lat="45.35674" lon="6.61917">
        <ele>2234.24</ele>
        <time>2013-04-01T14:03:28Z</time>
      </trkpt>
      <trkpt lat="45.35674" lon="6.61916">
        <ele>2234.24</ele>
        <time>2013-04-01T14:03:56Z</time>
      </trkpt>
      <trkpt lat="45.35674" lon="6.61915">
        <ele>2233.76</ele>
        <time>2013-04-01T14:04:13Z</time>
      </trkpt>
      <trkpt lat="45.35674" lon="6.61916">
        <ele>2233.76</ele>
        <time>2013-04-01T14:04:43Z</time>
      </trkpt>
      <trkpt lat="45.35675" lon="6.61916">
        <ele>2233.28</ele>
        <time>2013-04-01T14:05:03Z</time>
      </trkpt>
      <trkpt lat="45.35674" lon="6.61915">
        <ele>2233.28</ele>
        <time>2013-04-01T14:05:31Z</time>
      </trkpt>
      <trkpt lat="45.35674" lon="6.61914">
        <ele>2232.8</ele>
        <time>2013-04-01T14:05:48Z</time>
      </trkpt>
      <trkpt lat="45.35673" lon="6.61914">
        <ele>2233.28</ele>
        <time>2013-04-01T14:06:02Z</time>
      </trkpt>
      <trkpt lat="45.35673" lon="6.61914">
        <ele>2232.32</ele>
        <time>2013-04-01T14:07:02Z</time>
      </trkpt>
      <trkpt lat="45.35672" lon="6.61914">
        <ele>2232.32</ele>
        <time>2013-04-01T14:07:21Z</time>
      </trkpt>
      <trkpt lat="45.35671" lon="6.61912">
        <ele>2232.32</ele>
        <time>2013-04-01T14:07:33Z</time>
      </trkpt>
      <trkpt lat="45.35671" lon="6.61912">
        <ele>2231.84</ele>
        <time>2013-04-01T14:08:15Z</time>
      </trkpt>
      <trkpt lat="45.35671" lon="6.61912">
        <ele>2231.36</ele>
        <time>2013-04-01T14:09:03Z</time>
      </trkpt>
      <trkpt lat="45.35671" lon="6.61912">
        <ele>2227.03</ele>
        <time>2013-04-01T14:10:29Z</time>
      </trkpt>
      <trkpt lat="45.35671" lon="6.61912">
        <ele>2221.74</ele>
        <time>2013-04-01T14:10:30Z</time>
      </trkpt>
      <trkpt lat="45.35671" lon="6.61912">
        <ele>2216.46</ele>
        <time>2013-04-01T14:10:31Z</time>
      </trkpt>
      <trkpt lat="45.35671" lon="6.61912">
        <ele>2211.65</ele>
        <time>2013-04-01T14:10:32Z</time>
      </trkpt>
      <trkpt lat="45.35671" lon="6.61912">
        <ele>2207.32</ele>
        <time>2013-04-01T14:10:33Z</time>
      </trkpt>
      <trkpt lat="45.35671" lon="6.61912">
        <ele>2204.92</ele>
        <time>2013-04-01T14:10:36Z</time>
      </trkpt>
      <trkpt lat="45.35671" lon="6.61912">
        <ele>2206.36</ele>
        <time>2013-04-01T14:10:42Z</time>
      </trkpt>
      <trkpt lat="45.35671" lon="6.61912">
        <ele>2210.69</ele>
        <time>2013-04-01T14:10:47Z</time>
      </trkpt>
      <trkpt lat="45.35671" lon="6.61912">
        <ele>2210.69</ele>
        <time>2013-04-01T14:10:48Z</time>
      </trkpt>
      <trkpt lat="45.35671" lon="6.61912">
        <ele>2214.53</ele>
        <time>2013-04-01T14:10:49Z</time>
      </trkpt>
      <trkpt lat="45.35671" lon="6.61912">
        <ele>2219.34</ele>
        <time>2013-04-01T14:10:50Z</time>
      </trkpt>
      <trkpt lat="45.35671" lon="6.61912">
        <ele>2223.67</ele>
        <time>2013-04-01T14:10:51Z</time>
      </trkpt>
      <trkpt lat="45.35671" lon="6.61912">
        <ele>2227.51</ele>
        <time>2013-04-01T14:10:52Z</time>
      </trkpt>
      <trkpt lat="45.35671" lon="6.61912">
        <ele>2230.4</ele>
        <time>2013-04-01T14:10:55Z</time>
      </trkpt>
      <trkpt lat="45.35659" lon="6.61918">
        <ele>2228.95</ele>
        <time>2013-04-01T14:11:59Z</time>
      </trkpt>
      <trkpt lat="45.3566" lon="6.61912">
        <ele>2225.59</ele>
        <time>2013-04-01T14:12:40Z</time>
      </trkpt>
      <trkpt lat="45.3566" lon="6.61912">
        <ele>2221.26</ele>
        <time>2013-04-01T14:12:41Z</time>
      </trkpt>
      <trkpt lat="45.3566" lon="6.61912">
        <ele>2221.26</ele>
        <time>2013-04-01T14:12:42Z</time>
      </trkpt>
      <trkpt lat="45.3566" lon="6.61912">
        <ele>2217.42</ele>
        <time>2013-04-01T14:12:43Z</time>
      </trkpt>
      <trkpt lat="45.3566" lon="6.61912">
        <ele>2214.05</ele>
        <time>2013-04-01T14:12:44Z</time>
      </trkpt>
      <trkpt lat="45.3566" lon="6.61912">
        <ele>2210.69</ele>
        <time>2013-04-01T14:12:45Z</time>
      </trkpt>
      <trkpt lat="45.3566" lon="6.61912">
        <ele>2213.57</ele>
        <time>2013-04-01T14:12:51Z</time>
      </trkpt>
      <trkpt lat="45.3566" lon="6.61912">
        <ele>2219.82</ele>
        <time>2013-04-01T14:12:58Z</time>
      </trkpt>
      <trkpt lat="45.3566" lon="6.61912">
        <ele>2222.71</ele>
        <time>2013-04-01T14:12:59Z</time>
      </trkpt>
      <trkpt lat="45.3566" lon="6.61912">
        <ele>2226.55</ele>
        <time>2013-04-01T14:13:00Z</time>
      </trkpt>
      <trkpt lat="45.3566" lon="6.61912">
        <ele>2228.95</ele>
        <time>2013-04-01T14:13:45Z</time>
      </trkpt>
      <trkpt lat="45.35665" lon="6.61909">
        <ele>2227.99</ele>
        <time>2013-04-01T14:18:50Z</time>
      </trkpt>
      <trkpt lat="45.35667" lon="6.61908">
        <ele>2227.99</ele>
        <time>2013-04-01T14:19:19Z</time>
      </trkpt>
      <trkpt lat="45.35667" lon="6.61907">
        <ele>2228.47</ele>
        <time>2013-04-01T14:20:12Z</time>
      </trkpt>
      <trkpt lat="45.35668" lon="6.61907">
        <ele>2228.47</ele>
        <time>2013-04-01T14:20:39Z</time>
      </trkpt>
      <trkpt lat="45.35669" lon="6.61908">
        <ele>2227.99</ele>
        <time>2013-04-01T14:21:44Z</time>
      </trkpt>
      <trkpt lat="45.35669" lon="6.61909">
        <ele>2228.47</ele>
        <time>2013-04-01T14:21:55Z</time>
      </trkpt>
      <trkpt lat="45.3567" lon="6.61909">
        <ele>2227.99</ele>
        <time>2013-04-01T14:22:31Z</time>
      </trkpt>
      <trkpt lat="45.3567" lon="6.61909">
        <ele>2228.47</ele>
        <time>2013-04-01T14:23:56Z</time>
      </trkpt>
      <trkpt lat="45.3567" lon="6.61909">
        <ele>2227.99</ele>
        <time>2013-04-01T14:24:43Z</time>
      </trkpt>
    </trkseg>
  </trk>
</gpx>